<?xml version="1.0" encoding="UTF-8" standalone="no" ?>
<gpx xmlns="http://www.topografix.com/GPX/1/1" xmlns:xsi="http://www.w3.org/2001/XMLSchema-instance" xsi:schemaLocation="http://www.topografix.com/GPX/1/1 http://www.topografix.com/GPX/1/1/gpx.xsd" version="1.1" creator="VisuGPX - https://www.visugpx.com">
  <metadata>
    <name>Marin, Erlach</name>
  </metadata>
  <trk>
    <name><![CDATA[Marin, Erlach]]></name>
    <extensions>
      <line xmlns="http://www.topografix.com/GPX/gpx_style/0/2">
        <color>0000FF</color>
        <width>4</width>
      </line>
    </extensions>
    <trkseg>
      <trkpt lat="47.00773" lon="7.02385">
        <ele>432</ele>
        <time>2022-02-05T09:45:00.000Z</time>
      </trkpt>
      <trkpt lat="47.00773" lon="7.02385">
        <ele>432</ele>
        <time>2022-02-05T09:45:00.289Z</time>
      </trkpt>
      <trkpt lat="47.00776" lon="7.02381">
        <ele>432</ele>
        <time>2022-02-05T09:45:04.358Z</time>
      </trkpt>
      <trkpt lat="47.00782" lon="7.02376">
        <ele>431.89999389648</ele>
        <time>2022-02-05T09:45:06.699Z</time>
      </trkpt>
      <trkpt lat="47.00786" lon="7.02373">
        <ele>432</ele>
        <time>2022-02-05T09:45:12.440Z</time>
      </trkpt>
      <trkpt lat="47.00792" lon="7.02368">
        <ele>432.09999084473</ele>
        <time>2022-02-05T09:45:20.544Z</time>
      </trkpt>
      <trkpt lat="47.00844" lon="7.02335">
        <ele>432</ele>
        <time>2022-02-05T09:46:16.547Z</time>
      </trkpt>
      <trkpt lat="47.00867" lon="7.0232">
        <ele>432.09999084473</ele>
        <time>2022-02-05T09:46:43.064Z</time>
      </trkpt>
      <trkpt lat="47.00884" lon="7.0231">
        <ele>432.09999084473</ele>
        <time>2022-02-05T09:47:01.718Z</time>
      </trkpt>
      <trkpt lat="47.00894" lon="7.02303">
        <ele>432</ele>
        <time>2022-02-05T09:47:05.714Z</time>
      </trkpt>
      <trkpt lat="47.00895" lon="7.0229">
        <ele>432</ele>
        <time>2022-02-05T09:47:14.797Z</time>
      </trkpt>
      <trkpt lat="47.00895" lon="7.0228">
        <ele>432</ele>
        <time>2022-02-05T09:47:21.719Z</time>
      </trkpt>
      <trkpt lat="47.009" lon="7.02281">
        <ele>432</ele>
        <time>2022-02-05T09:47:26.886Z</time>
      </trkpt>
      <trkpt lat="47.00925" lon="7.0228">
        <ele>432.29998779297</ele>
        <time>2022-02-05T09:47:55.426Z</time>
      </trkpt>
      <trkpt lat="47.00932" lon="7.02281">
        <ele>432.39999389648</ele>
        <time>2022-02-05T09:48:03.570Z</time>
      </trkpt>
      <trkpt lat="47.00931" lon="7.02324">
        <ele>432.59999084473</ele>
        <time>2022-02-05T09:48:35.356Z</time>
      </trkpt>
      <trkpt lat="47.00931" lon="7.02357">
        <ele>432.69999694824</ele>
        <time>2022-02-05T09:48:59.186Z</time>
      </trkpt>
      <trkpt lat="47.00931" lon="7.02363">
        <ele>432.69999694824</ele>
        <time>2022-02-05T09:49:03.285Z</time>
      </trkpt>
      <trkpt lat="47.00932" lon="7.02364">
        <ele>432.69999694824</ele>
        <time>2022-02-05T09:49:04.146Z</time>
      </trkpt>
      <trkpt lat="47.00931" lon="7.02363">
        <ele>432.69999694824</ele>
        <time>2022-02-05T09:49:05.007Z</time>
      </trkpt>
      <trkpt lat="47.00931" lon="7.02444">
        <ele>432.69999694824</ele>
        <time>2022-02-05T09:50:01.110Z</time>
      </trkpt>
      <trkpt lat="47.0093" lon="7.02549">
        <ele>433</ele>
        <time>2022-02-05T09:51:16.796Z</time>
      </trkpt>
      <trkpt lat="47.0093" lon="7.02569">
        <ele>432.59999084473</ele>
        <time>2022-02-05T09:51:20.680Z</time>
      </trkpt>
      <trkpt lat="47.00931" lon="7.02583">
        <ele>433</ele>
        <time>2022-02-05T09:51:36.416Z</time>
      </trkpt>
      <trkpt lat="47.00932" lon="7.026">
        <ele>433</ele>
        <time>2022-02-05T09:51:48.298Z</time>
      </trkpt>
      <trkpt lat="47.00932" lon="7.02618">
        <ele>432.89999389648</ele>
        <time>2022-02-05T09:51:52.773Z</time>
      </trkpt>
      <trkpt lat="47.00934" lon="7.02668">
        <ele>433.09999084473</ele>
        <time>2022-02-05T09:52:29.487Z</time>
      </trkpt>
      <trkpt lat="47.00935" lon="7.02698">
        <ele>433.09999084473</ele>
        <time>2022-02-05T09:52:50.272Z</time>
      </trkpt>
      <trkpt lat="47.00935" lon="7.02702">
        <ele>433.09999084473</ele>
        <time>2022-02-05T09:52:53.005Z</time>
      </trkpt>
      <trkpt lat="47.00933" lon="7.02704">
        <ele>433</ele>
        <time>2022-02-05T09:52:53.607Z</time>
      </trkpt>
      <trkpt lat="47.00932" lon="7.02708">
        <ele>432.89999389648</ele>
        <time>2022-02-05T09:52:54.421Z</time>
      </trkpt>
      <trkpt lat="47.0093" lon="7.02715">
        <ele>432.79998779297</ele>
        <time>2022-02-05T09:52:56.059Z</time>
      </trkpt>
      <trkpt lat="47.0093" lon="7.02723">
        <ele>432.5</ele>
        <time>2022-02-05T09:52:57.287Z</time>
      </trkpt>
      <trkpt lat="47.0093" lon="7.02738">
        <ele>432.5</ele>
        <time>2022-02-05T09:53:07.670Z</time>
      </trkpt>
      <trkpt lat="47.0093" lon="7.02756">
        <ele>432.19999694824</ele>
        <time>2022-02-05T09:53:11.363Z</time>
      </trkpt>
      <trkpt lat="47.00927" lon="7.02806">
        <ele>433.89999389648</ele>
        <time>2022-02-05T09:54:12.008Z</time>
      </trkpt>
      <trkpt lat="47.00928" lon="7.02806">
        <ele>433.89999389648</ele>
        <time>2022-02-05T09:54:12.921Z</time>
      </trkpt>
      <trkpt lat="47.00927" lon="7.02806">
        <ele>433.89999389648</ele>
        <time>2022-02-05T09:54:13.835Z</time>
      </trkpt>
      <trkpt lat="47.00926" lon="7.02838">
        <ele>435.59999084473</ele>
        <time>2022-02-05T09:55:01.260Z</time>
      </trkpt>
      <trkpt lat="47.00925" lon="7.02847">
        <ele>435.79998779297</ele>
        <time>2022-02-05T09:55:10.179Z</time>
      </trkpt>
      <trkpt lat="47.00925" lon="7.0286">
        <ele>436</ele>
        <time>2022-02-05T09:55:21.541Z</time>
      </trkpt>
      <trkpt lat="47.00925" lon="7.02866">
        <ele>436</ele>
        <time>2022-02-05T09:55:25.730Z</time>
      </trkpt>
      <trkpt lat="47.00925" lon="7.02866">
        <ele>436</ele>
        <time>2022-02-05T09:55:26.117Z</time>
      </trkpt>
      <trkpt lat="47.00925" lon="7.02866">
        <ele>436</ele>
        <time>2022-02-05T09:55:26.504Z</time>
      </trkpt>
      <trkpt lat="47.00925" lon="7.0286">
        <ele>436</ele>
        <time>2022-02-05T09:55:30.693Z</time>
      </trkpt>
      <trkpt lat="47.00925" lon="7.02902">
        <ele>436</ele>
        <time>2022-02-05T09:55:59.838Z</time>
      </trkpt>
      <trkpt lat="47.00925" lon="7.02909">
        <ele>436</ele>
        <time>2022-02-05T09:56:04.666Z</time>
      </trkpt>
      <trkpt lat="47.00925" lon="7.02922">
        <ele>435.89999389648</ele>
        <time>2022-02-05T09:56:07.793Z</time>
      </trkpt>
      <trkpt lat="47.00925" lon="7.02953">
        <ele>436</ele>
        <time>2022-02-05T09:56:30.168Z</time>
      </trkpt>
      <trkpt lat="47.00925" lon="7.02961">
        <ele>436</ele>
        <time>2022-02-05T09:56:35.725Z</time>
      </trkpt>
      <trkpt lat="47.00927" lon="7.02983">
        <ele>435</ele>
        <time>2022-02-05T09:56:38.849Z</time>
      </trkpt>
      <trkpt lat="47.00928" lon="7.03003">
        <ele>434</ele>
        <time>2022-02-05T09:56:41.896Z</time>
      </trkpt>
      <trkpt lat="47.00931" lon="7.03036">
        <ele>433</ele>
        <time>2022-02-05T09:56:47.491Z</time>
      </trkpt>
      <trkpt lat="47.00933" lon="7.03041">
        <ele>432.79998779297</ele>
        <time>2022-02-05T09:56:48.406Z</time>
      </trkpt>
      <trkpt lat="47.00937" lon="7.03043">
        <ele>432.39999389648</ele>
        <time>2022-02-05T09:56:49.358Z</time>
      </trkpt>
      <trkpt lat="47.00939" lon="7.03042">
        <ele>432.69999694824</ele>
        <time>2022-02-05T09:56:57.491Z</time>
      </trkpt>
      <trkpt lat="47.00941" lon="7.03041">
        <ele>432.5</ele>
        <time>2022-02-05T09:56:57.954Z</time>
      </trkpt>
      <trkpt lat="47.00943" lon="7.03038">
        <ele>432.29998779297</ele>
        <time>2022-02-05T09:56:58.592Z</time>
      </trkpt>
      <trkpt lat="47.00944" lon="7.03034">
        <ele>432.09999084473</ele>
        <time>2022-02-05T09:56:59.257Z</time>
      </trkpt>
      <trkpt lat="47.00944" lon="7.03028">
        <ele>431.89999389648</ele>
        <time>2022-02-05T09:57:00.204Z</time>
      </trkpt>
      <trkpt lat="47.00943" lon="7.03018">
        <ele>431.29998779297</ele>
        <time>2022-02-05T09:57:01.740Z</time>
      </trkpt>
      <trkpt lat="47.00943" lon="7.03011">
        <ele>431.09999084473</ele>
        <time>2022-02-05T09:57:02.965Z</time>
      </trkpt>
      <trkpt lat="47.00945" lon="7.03004">
        <ele>431.09999084473</ele>
        <time>2022-02-05T09:57:08.194Z</time>
      </trkpt>
      <trkpt lat="47.00948" lon="7.03001">
        <ele>431.09999084473</ele>
        <time>2022-02-05T09:57:11.814Z</time>
      </trkpt>
      <trkpt lat="47.00951" lon="7.02999">
        <ele>431.09999084473</ele>
        <time>2022-02-05T09:57:15.207Z</time>
      </trkpt>
      <trkpt lat="47.00952" lon="7.03">
        <ele>431.09999084473</ele>
        <time>2022-02-05T09:57:16.397Z</time>
      </trkpt>
      <trkpt lat="47.00959" lon="7.03009">
        <ele>431.19999694824</ele>
        <time>2022-02-05T09:57:26.863Z</time>
      </trkpt>
      <trkpt lat="47.0096" lon="7.03011">
        <ele>431.09999084473</ele>
        <time>2022-02-05T09:57:27.240Z</time>
      </trkpt>
      <trkpt lat="47.00961" lon="7.03011">
        <ele>431.09999084473</ele>
        <time>2022-02-05T09:57:28.171Z</time>
      </trkpt>
      <trkpt lat="47.0096" lon="7.03011">
        <ele>431.09999084473</ele>
        <time>2022-02-05T09:57:29.103Z</time>
      </trkpt>
      <trkpt lat="47.00959" lon="7.03009">
        <ele>431.19999694824</ele>
        <time>2022-02-05T09:57:32.335Z</time>
      </trkpt>
      <trkpt lat="47.00964" lon="7.03015">
        <ele>431.09999084473</ele>
        <time>2022-02-05T09:57:34.512Z</time>
      </trkpt>
      <trkpt lat="47.0097" lon="7.03022">
        <ele>431</ele>
        <time>2022-02-05T09:57:37.149Z</time>
      </trkpt>
      <trkpt lat="47.01003" lon="7.0306">
        <ele>431.19999694824</ele>
        <time>2022-02-05T09:58:21.763Z</time>
      </trkpt>
      <trkpt lat="47.01019" lon="7.03079">
        <ele>431.59999084473</ele>
        <time>2022-02-05T09:58:47.169Z</time>
      </trkpt>
      <trkpt lat="47.01027" lon="7.03087">
        <ele>431.59999084473</ele>
        <time>2022-02-05T09:58:56.942Z</time>
      </trkpt>
      <trkpt lat="47.01041" lon="7.03101">
        <ele>431.69999694824</ele>
        <time>2022-02-05T09:59:15.168Z</time>
      </trkpt>
      <trkpt lat="47.01049" lon="7.0311">
        <ele>431.79998779297</ele>
        <time>2022-02-05T09:59:26.412Z</time>
      </trkpt>
      <trkpt lat="47.01057" lon="7.03118">
        <ele>431.89999389648</ele>
        <time>2022-02-05T09:59:37.339Z</time>
      </trkpt>
      <trkpt lat="47.01095" lon="7.0315">
        <ele>432.09999084473</ele>
        <time>2022-02-05T10:00:23.748Z</time>
      </trkpt>
      <trkpt lat="47.0113" lon="7.03177">
        <ele>432.09999084473</ele>
        <time>2022-02-05T10:01:03.941Z</time>
      </trkpt>
      <trkpt lat="47.01162" lon="7.032">
        <ele>432.19999694824</ele>
        <time>2022-02-05T10:01:41.074Z</time>
      </trkpt>
      <trkpt lat="47.01189" lon="7.03217">
        <ele>432.29998779297</ele>
        <time>2022-02-05T10:02:11.843Z</time>
      </trkpt>
      <trkpt lat="47.01219" lon="7.03235">
        <ele>432.29998779297</ele>
        <time>2022-02-05T10:02:44.795Z</time>
      </trkpt>
      <trkpt lat="47.01234" lon="7.03243">
        <ele>432.29998779297</ele>
        <time>2022-02-05T10:03:00.947Z</time>
      </trkpt>
      <trkpt lat="47.01252" lon="7.03252">
        <ele>432.39999389648</ele>
        <time>2022-02-05T10:03:21.277Z</time>
      </trkpt>
      <trkpt lat="47.0127" lon="7.03261">
        <ele>432.29998779297</ele>
        <time>2022-02-05T10:03:39.159Z</time>
      </trkpt>
      <trkpt lat="47.01266" lon="7.03259">
        <ele>432.39999389648</ele>
        <time>2022-02-05T10:03:44.596Z</time>
      </trkpt>
      <trkpt lat="47.01266" lon="7.03259">
        <ele>432.39999389648</ele>
        <time>2022-02-05T10:03:44.870Z</time>
      </trkpt>
      <trkpt lat="47.01266" lon="7.03259">
        <ele>432.39999389648</ele>
        <time>2022-02-05T10:03:45.143Z</time>
      </trkpt>
      <trkpt lat="47.0127" lon="7.03261">
        <ele>432.29998779297</ele>
        <time>2022-02-05T10:03:46.406Z</time>
      </trkpt>
      <trkpt lat="47.013" lon="7.03274">
        <ele>432.29998779297</ele>
        <time>2022-02-05T10:04:18.190Z</time>
      </trkpt>
      <trkpt lat="47.0133" lon="7.03287">
        <ele>431.29998779297</ele>
        <time>2022-02-05T10:04:26.867Z</time>
      </trkpt>
      <trkpt lat="47.01354" lon="7.03297">
        <ele>430.69999694824</ele>
        <time>2022-02-05T10:04:34.380Z</time>
      </trkpt>
      <trkpt lat="47.01417" lon="7.03323">
        <ele>431.09999084473</ele>
        <time>2022-02-05T10:05:44.843Z</time>
      </trkpt>
      <trkpt lat="47.01466" lon="7.03343">
        <ele>432.19999694824</ele>
        <time>2022-02-05T10:06:49.271Z</time>
      </trkpt>
      <trkpt lat="47.01486" lon="7.03351">
        <ele>432.5</ele>
        <time>2022-02-05T10:07:13.543Z</time>
      </trkpt>
      <trkpt lat="47.015" lon="7.03357">
        <ele>432.59999084473</ele>
        <time>2022-02-05T10:07:29.329Z</time>
      </trkpt>
      <trkpt lat="47.01511" lon="7.03362">
        <ele>432.69999694824</ele>
        <time>2022-02-05T10:07:42.011Z</time>
      </trkpt>
      <trkpt lat="47.01537" lon="7.03372">
        <ele>432.79998779297</ele>
        <time>2022-02-05T10:08:10.316Z</time>
      </trkpt>
      <trkpt lat="47.0156" lon="7.03381">
        <ele>432.5</ele>
        <time>2022-02-05T10:08:18.548Z</time>
      </trkpt>
      <trkpt lat="47.01576" lon="7.03387">
        <ele>432.39999389648</ele>
        <time>2022-02-05T10:08:33.917Z</time>
      </trkpt>
      <trkpt lat="47.01594" lon="7.03393">
        <ele>432.19999694824</ele>
        <time>2022-02-05T10:08:40.464Z</time>
      </trkpt>
      <trkpt lat="47.01629" lon="7.03403">
        <ele>431.59999084473</ele>
        <time>2022-02-05T10:08:52.149Z</time>
      </trkpt>
      <trkpt lat="47.0164" lon="7.03406">
        <ele>431.59999084473</ele>
        <time>2022-02-05T10:09:03.490Z</time>
      </trkpt>
      <trkpt lat="47.01644" lon="7.03408">
        <ele>431.69999694824</ele>
        <time>2022-02-05T10:09:09.034Z</time>
      </trkpt>
      <trkpt lat="47.01647" lon="7.03411">
        <ele>431.79998779297</ele>
        <time>2022-02-05T10:09:13.952Z</time>
      </trkpt>
      <trkpt lat="47.01648" lon="7.03412">
        <ele>431.79998779297</ele>
        <time>2022-02-05T10:09:15.142Z</time>
      </trkpt>
      <trkpt lat="47.01651" lon="7.0341">
        <ele>431.69999694824</ele>
        <time>2022-02-05T10:09:16.088Z</time>
      </trkpt>
      <trkpt lat="47.01653" lon="7.03409">
        <ele>431.69999694824</ele>
        <time>2022-02-05T10:09:18.196Z</time>
      </trkpt>
      <trkpt lat="47.01657" lon="7.0341">
        <ele>431.69999694824</ele>
        <time>2022-02-05T10:09:22.282Z</time>
      </trkpt>
      <trkpt lat="47.01674" lon="7.03413">
        <ele>431.69999694824</ele>
        <time>2022-02-05T10:09:39.676Z</time>
      </trkpt>
      <trkpt lat="47.0168" lon="7.03415">
        <ele>431.79998779297</ele>
        <time>2022-02-05T10:09:47.060Z</time>
      </trkpt>
      <trkpt lat="47.01685" lon="7.03418">
        <ele>431.69999694824</ele>
        <time>2022-02-05T10:09:48.781Z</time>
      </trkpt>
      <trkpt lat="47.01692" lon="7.03423">
        <ele>431.59999084473</ele>
        <time>2022-02-05T10:09:51.474Z</time>
      </trkpt>
      <trkpt lat="47.01693" lon="7.03419">
        <ele>431.59999084473</ele>
        <time>2022-02-05T10:09:54.385Z</time>
      </trkpt>
      <trkpt lat="47.01697" lon="7.03417">
        <ele>431.79998779297</ele>
        <time>2022-02-05T10:10:01.809Z</time>
      </trkpt>
      <trkpt lat="47.01701" lon="7.03416">
        <ele>431.39999389648</ele>
        <time>2022-02-05T10:10:02.703Z</time>
      </trkpt>
      <trkpt lat="47.01706" lon="7.03417">
        <ele>431.29998779297</ele>
        <time>2022-02-05T10:10:04.318Z</time>
      </trkpt>
      <trkpt lat="47.01719" lon="7.03419">
        <ele>430.89999389648</ele>
        <time>2022-02-05T10:10:07.980Z</time>
      </trkpt>
      <trkpt lat="47.0173" lon="7.03421">
        <ele>430.89999389648</ele>
        <time>2022-02-05T10:10:19.209Z</time>
      </trkpt>
      <trkpt lat="47.01739" lon="7.03422">
        <ele>431.19999694824</ele>
        <time>2022-02-05T10:10:32.393Z</time>
      </trkpt>
      <trkpt lat="47.0175" lon="7.03424">
        <ele>431.09999084473</ele>
        <time>2022-02-05T10:10:36.441Z</time>
      </trkpt>
      <trkpt lat="47.01767" lon="7.03425">
        <ele>431.39999389648</ele>
        <time>2022-02-05T10:10:57.056Z</time>
      </trkpt>
      <trkpt lat="47.01789" lon="7.03426">
        <ele>430.79998779297</ele>
        <time>2022-02-05T10:11:03.451Z</time>
      </trkpt>
      <trkpt lat="47.01813" lon="7.03426">
        <ele>430.69999694824</ele>
        <time>2022-02-05T10:11:26.381Z</time>
      </trkpt>
      <trkpt lat="47.01832" lon="7.03426">
        <ele>431</ele>
        <time>2022-02-05T10:11:48.922Z</time>
      </trkpt>
      <trkpt lat="47.01915" lon="7.0342">
        <ele>430.29998779297</ele>
        <time>2022-02-05T10:12:19.326Z</time>
      </trkpt>
      <trkpt lat="47.01944" lon="7.03418">
        <ele>430.39999389648</ele>
        <time>2022-02-05T10:12:49.820Z</time>
      </trkpt>
      <trkpt lat="47.01988" lon="7.03415">
        <ele>431.29998779297</ele>
        <time>2022-02-05T10:13:44.834Z</time>
      </trkpt>
      <trkpt lat="47.02019" lon="7.03413">
        <ele>430.89999389648</ele>
        <time>2022-02-05T10:13:55.549Z</time>
      </trkpt>
      <trkpt lat="47.0202" lon="7.03413">
        <ele>430.89999389648</ele>
        <time>2022-02-05T10:13:56.554Z</time>
      </trkpt>
      <trkpt lat="47.0202" lon="7.03415">
        <ele>431.09999084473</ele>
        <time>2022-02-05T10:14:02.174Z</time>
      </trkpt>
      <trkpt lat="47.0201" lon="7.03453">
        <ele>431.5</ele>
        <time>2022-02-05T10:14:34.650Z</time>
      </trkpt>
      <trkpt lat="47.02008" lon="7.03464">
        <ele>431.5</ele>
        <time>2022-02-05T10:14:42.495Z</time>
      </trkpt>
      <trkpt lat="47.02006" lon="7.0348">
        <ele>431.39999389648</ele>
        <time>2022-02-05T10:14:46.538Z</time>
      </trkpt>
      <trkpt lat="47.02006" lon="7.03481">
        <ele>431.39999389648</ele>
        <time>2022-02-05T10:14:47.175Z</time>
      </trkpt>
      <trkpt lat="47.02006" lon="7.03482">
        <ele>431.39999389648</ele>
        <time>2022-02-05T10:14:47.759Z</time>
      </trkpt>
      <trkpt lat="47.02006" lon="7.03481">
        <ele>431.39999389648</ele>
        <time>2022-02-05T10:14:48.343Z</time>
      </trkpt>
      <trkpt lat="47.02004" lon="7.03507">
        <ele>431.5</ele>
        <time>2022-02-05T10:15:07.479Z</time>
      </trkpt>
      <trkpt lat="47.02004" lon="7.03519">
        <ele>431.5</ele>
        <time>2022-02-05T10:15:15.766Z</time>
      </trkpt>
      <trkpt lat="47.02003" lon="7.03526">
        <ele>431.39999389648</ele>
        <time>2022-02-05T10:15:17.298Z</time>
      </trkpt>
      <trkpt lat="47.02004" lon="7.03546">
        <ele>431.29998779297</ele>
        <time>2022-02-05T10:15:22.410Z</time>
      </trkpt>
      <trkpt lat="47.02006" lon="7.0357">
        <ele>431.09999084473</ele>
        <time>2022-02-05T10:15:28.130Z</time>
      </trkpt>
      <trkpt lat="47.02008" lon="7.0359">
        <ele>431.09999084473</ele>
        <time>2022-02-05T10:15:42.105Z</time>
      </trkpt>
      <trkpt lat="47.02008" lon="7.03599">
        <ele>431</ele>
        <time>2022-02-05T10:15:44.154Z</time>
      </trkpt>
      <trkpt lat="47.02007" lon="7.03609">
        <ele>431</ele>
        <time>2022-02-05T10:15:51.162Z</time>
      </trkpt>
      <trkpt lat="47.02006" lon="7.03621">
        <ele>431</ele>
        <time>2022-02-05T10:15:59.510Z</time>
      </trkpt>
      <trkpt lat="47.02005" lon="7.03634">
        <ele>431.09999084473</ele>
        <time>2022-02-05T10:16:09.629Z</time>
      </trkpt>
      <trkpt lat="47.02015" lon="7.03633">
        <ele>431.5</ele>
        <time>2022-02-05T10:16:25.662Z</time>
      </trkpt>
      <trkpt lat="47.02029" lon="7.03631">
        <ele>431.5</ele>
        <time>2022-02-05T10:16:39.980Z</time>
      </trkpt>
      <trkpt lat="47.02032" lon="7.0363">
        <ele>431.5</ele>
        <time>2022-02-05T10:16:43.151Z</time>
      </trkpt>
      <trkpt lat="47.02034" lon="7.03629">
        <ele>431.5</ele>
        <time>2022-02-05T10:16:45.289Z</time>
      </trkpt>
      <trkpt lat="47.02039" lon="7.0362">
        <ele>431.5</ele>
        <time>2022-02-05T10:16:53.322Z</time>
      </trkpt>
      <trkpt lat="47.02069" lon="7.03558">
        <ele>431.69999694824</ele>
        <time>2022-02-05T10:17:47.850Z</time>
      </trkpt>
      <trkpt lat="47.02058" lon="7.03582">
        <ele>431.59999084473</ele>
        <time>2022-02-05T10:18:06.357Z</time>
      </trkpt>
      <trkpt lat="47.02058" lon="7.03582">
        <ele>431.59999084473</ele>
        <time>2022-02-05T10:18:06.448Z</time>
      </trkpt>
      <trkpt lat="47.02058" lon="7.03582">
        <ele>431.59999084473</ele>
        <time>2022-02-05T10:18:06.539Z</time>
      </trkpt>
      <trkpt lat="47.02069" lon="7.03558">
        <ele>431.69999694824</ele>
        <time>2022-02-05T10:18:27.465Z</time>
      </trkpt>
      <trkpt lat="47.02072" lon="7.03551">
        <ele>431.69999694824</ele>
        <time>2022-02-05T10:18:33.234Z</time>
      </trkpt>
      <trkpt lat="47.02074" lon="7.03548">
        <ele>431.69999694824</ele>
        <time>2022-02-05T10:18:36.137Z</time>
      </trkpt>
      <trkpt lat="47.02078" lon="7.03542">
        <ele>431.79998779297</ele>
        <time>2022-02-05T10:18:43.051Z</time>
      </trkpt>
      <trkpt lat="47.02082" lon="7.03538">
        <ele>431.59999084473</ele>
        <time>2022-02-05T10:18:44.282Z</time>
      </trkpt>
      <trkpt lat="47.02083" lon="7.03538">
        <ele>431.69999694824</ele>
        <time>2022-02-05T10:18:46.923Z</time>
      </trkpt>
      <trkpt lat="47.02086" lon="7.03537">
        <ele>431.89999389648</ele>
        <time>2022-02-05T10:18:53.030Z</time>
      </trkpt>
      <trkpt lat="47.02105" lon="7.03529">
        <ele>431.59999084473</ele>
        <time>2022-02-05T10:18:59.639Z</time>
      </trkpt>
      <trkpt lat="47.02121" lon="7.03523">
        <ele>432</ele>
        <time>2022-02-05T10:19:21.192Z</time>
      </trkpt>
      <trkpt lat="47.02128" lon="7.0352">
        <ele>432.09999084473</ele>
        <time>2022-02-05T10:19:29.658Z</time>
      </trkpt>
      <trkpt lat="47.02129" lon="7.0352">
        <ele>432.19999694824</ele>
        <time>2022-02-05T10:19:32.299Z</time>
      </trkpt>
      <trkpt lat="47.02136" lon="7.03518">
        <ele>432.5</ele>
        <time>2022-02-05T10:19:44.091Z</time>
      </trkpt>
      <trkpt lat="47.02143" lon="7.03517">
        <ele>432.69999694824</ele>
        <time>2022-02-05T10:19:53.760Z</time>
      </trkpt>
      <trkpt lat="47.0215" lon="7.03518">
        <ele>433.09999084473</ele>
        <time>2022-02-05T10:20:06.862Z</time>
      </trkpt>
      <trkpt lat="47.02158" lon="7.03519">
        <ele>433.5</ele>
        <time>2022-02-05T10:20:21.115Z</time>
      </trkpt>
      <trkpt lat="47.02166" lon="7.03521">
        <ele>434.09999084473</ele>
        <time>2022-02-05T10:20:38.224Z</time>
      </trkpt>
      <trkpt lat="47.02169" lon="7.03523">
        <ele>434.29998779297</ele>
        <time>2022-02-05T10:20:44.477Z</time>
      </trkpt>
      <trkpt lat="47.02176" lon="7.03525">
        <ele>434.79998779297</ele>
        <time>2022-02-05T10:20:59.094Z</time>
      </trkpt>
      <trkpt lat="47.02179" lon="7.03527">
        <ele>434.89999389648</ele>
        <time>2022-02-05T10:21:03.698Z</time>
      </trkpt>
      <trkpt lat="47.0218" lon="7.03528">
        <ele>435</ele>
        <time>2022-02-05T10:21:06.440Z</time>
      </trkpt>
      <trkpt lat="47.02185" lon="7.03533">
        <ele>435.09999084473</ele>
        <time>2022-02-05T10:21:13.639Z</time>
      </trkpt>
      <trkpt lat="47.02187" lon="7.03538">
        <ele>435</ele>
        <time>2022-02-05T10:21:14.811Z</time>
      </trkpt>
      <trkpt lat="47.02189" lon="7.03543">
        <ele>434.89999389648</ele>
        <time>2022-02-05T10:21:15.983Z</time>
      </trkpt>
      <trkpt lat="47.02191" lon="7.03555">
        <ele>434.69999694824</ele>
        <time>2022-02-05T10:21:18.558Z</time>
      </trkpt>
      <trkpt lat="47.02194" lon="7.03576">
        <ele>434.09999084473</ele>
        <time>2022-02-05T10:21:22.276Z</time>
      </trkpt>
      <trkpt lat="47.02197" lon="7.03599">
        <ele>433.79998779297</ele>
        <time>2022-02-05T10:21:27.392Z</time>
      </trkpt>
      <trkpt lat="47.02197" lon="7.03613">
        <ele>433.69999694824</ele>
        <time>2022-02-05T10:21:30.773Z</time>
      </trkpt>
      <trkpt lat="47.02197" lon="7.03622">
        <ele>433.59999084473</ele>
        <time>2022-02-05T10:21:32.786Z</time>
      </trkpt>
      <trkpt lat="47.02197" lon="7.03626">
        <ele>433.59999084473</ele>
        <time>2022-02-05T10:21:35.610Z</time>
      </trkpt>
      <trkpt lat="47.022" lon="7.03628">
        <ele>433.89999389648</ele>
        <time>2022-02-05T10:21:43.599Z</time>
      </trkpt>
      <trkpt lat="47.02206" lon="7.0363">
        <ele>433.89999389648</ele>
        <time>2022-02-05T10:21:49.891Z</time>
      </trkpt>
      <trkpt lat="47.0221" lon="7.03629">
        <ele>433.59999084473</ele>
        <time>2022-02-05T10:21:50.788Z</time>
      </trkpt>
      <trkpt lat="47.0221" lon="7.03632">
        <ele>433.59999084473</ele>
        <time>2022-02-05T10:21:52.883Z</time>
      </trkpt>
      <trkpt lat="47.0221" lon="7.0364">
        <ele>433.79998779297</ele>
        <time>2022-02-05T10:22:01.236Z</time>
      </trkpt>
      <trkpt lat="47.0221" lon="7.03646">
        <ele>433.89999389648</ele>
        <time>2022-02-05T10:22:06.622Z</time>
      </trkpt>
      <trkpt lat="47.02208" lon="7.03652">
        <ele>434</ele>
        <time>2022-02-05T10:22:12.393Z</time>
      </trkpt>
      <trkpt lat="47.02209" lon="7.03662">
        <ele>434.59999084473</ele>
        <time>2022-02-05T10:22:28.554Z</time>
      </trkpt>
      <trkpt lat="47.02213" lon="7.03678">
        <ele>435</ele>
        <time>2022-02-05T10:22:45.803Z</time>
      </trkpt>
      <trkpt lat="47.02215" lon="7.03691">
        <ele>435.39999389648</ele>
        <time>2022-02-05T10:23:01.272Z</time>
      </trkpt>
      <trkpt lat="47.0222" lon="7.03718">
        <ele>435.79998779297</ele>
        <time>2022-02-05T10:23:25.276Z</time>
      </trkpt>
      <trkpt lat="47.02227" lon="7.03747">
        <ele>437</ele>
        <time>2022-02-05T10:24:04.299Z</time>
      </trkpt>
      <trkpt lat="47.02229" lon="7.03754">
        <ele>437.29998779297</ele>
        <time>2022-02-05T10:24:14.059Z</time>
      </trkpt>
      <trkpt lat="47.0223" lon="7.03764">
        <ele>437.39999389648</ele>
        <time>2022-02-05T10:24:22.126Z</time>
      </trkpt>
      <trkpt lat="47.02238" lon="7.03795">
        <ele>439</ele>
        <time>2022-02-05T10:25:08.560Z</time>
      </trkpt>
      <trkpt lat="47.02245" lon="7.03825">
        <ele>439.79998779297</ele>
        <time>2022-02-05T10:25:41.752Z</time>
      </trkpt>
      <trkpt lat="47.02247" lon="7.03835">
        <ele>440.19999694824</ele>
        <time>2022-02-05T10:25:55.002Z</time>
      </trkpt>
      <trkpt lat="47.02247" lon="7.03836">
        <ele>440.19999694824</ele>
        <time>2022-02-05T10:25:55.275Z</time>
      </trkpt>
      <trkpt lat="47.02247" lon="7.03835">
        <ele>440.19999694824</ele>
        <time>2022-02-05T10:25:55.548Z</time>
      </trkpt>
      <trkpt lat="47.0225" lon="7.03851">
        <ele>440.59999084473</ele>
        <time>2022-02-05T10:26:12.474Z</time>
      </trkpt>
      <trkpt lat="47.02255" lon="7.03885">
        <ele>441.79998779297</ele>
        <time>2022-02-05T10:26:54.794Z</time>
      </trkpt>
      <trkpt lat="47.02256" lon="7.0389">
        <ele>441.79998779297</ele>
        <time>2022-02-05T10:26:58.398Z</time>
      </trkpt>
      <trkpt lat="47.02255" lon="7.03895">
        <ele>441.79998779297</ele>
        <time>2022-02-05T10:27:02.028Z</time>
      </trkpt>
      <trkpt lat="47.02252" lon="7.03896">
        <ele>441.89999389648</ele>
        <time>2022-02-05T10:27:06.459Z</time>
      </trkpt>
      <trkpt lat="47.02261" lon="7.0396">
        <ele>443.59999084473</ele>
        <time>2022-02-05T10:28:16.021Z</time>
      </trkpt>
      <trkpt lat="47.02266" lon="7.03999">
        <ele>444.19999694824</ele>
        <time>2022-02-05T10:28:50.437Z</time>
      </trkpt>
      <trkpt lat="47.02274" lon="7.04039">
        <ele>444.59999084473</ele>
        <time>2022-02-05T10:29:23.602Z</time>
      </trkpt>
      <trkpt lat="47.0228" lon="7.04038">
        <ele>444.59999084473</ele>
        <time>2022-02-05T10:29:29.756Z</time>
      </trkpt>
      <trkpt lat="47.02283" lon="7.04039">
        <ele>444.59999084473</ele>
        <time>2022-02-05T10:29:32.837Z</time>
      </trkpt>
      <trkpt lat="47.02286" lon="7.04043">
        <ele>445.09999084473</ele>
        <time>2022-02-05T10:29:46.673Z</time>
      </trkpt>
      <trkpt lat="47.02294" lon="7.04055">
        <ele>444.69999694824</ele>
        <time>2022-02-05T10:29:49.770Z</time>
      </trkpt>
      <trkpt lat="47.02297" lon="7.04059">
        <ele>444.89999389648</ele>
        <time>2022-02-05T10:29:56.881Z</time>
      </trkpt>
      <trkpt lat="47.02309" lon="7.0407">
        <ele>445.29998779297</ele>
        <time>2022-02-05T10:30:16.305Z</time>
      </trkpt>
      <trkpt lat="47.02316" lon="7.04076">
        <ele>445.59999084473</ele>
        <time>2022-02-05T10:30:28.786Z</time>
      </trkpt>
      <trkpt lat="47.02319" lon="7.04078">
        <ele>445.79998779297</ele>
        <time>2022-02-05T10:30:35.039Z</time>
      </trkpt>
      <trkpt lat="47.02324" lon="7.04084">
        <ele>446</ele>
        <time>2022-02-05T10:30:44.182Z</time>
      </trkpt>
      <trkpt lat="47.02329" lon="7.04093">
        <ele>446.39999389648</ele>
        <time>2022-02-05T10:30:58.297Z</time>
      </trkpt>
      <trkpt lat="47.02332" lon="7.04099">
        <ele>446.59999084473</ele>
        <time>2022-02-05T10:31:06.318Z</time>
      </trkpt>
      <trkpt lat="47.02334" lon="7.04107">
        <ele>446.79998779297</ele>
        <time>2022-02-05T10:31:14.942Z</time>
      </trkpt>
      <trkpt lat="47.02333" lon="7.04116">
        <ele>446.79998779297</ele>
        <time>2022-02-05T10:31:21.306Z</time>
      </trkpt>
      <trkpt lat="47.02329" lon="7.04145">
        <ele>446.59999084473</ele>
        <time>2022-02-05T10:31:28.533Z</time>
      </trkpt>
      <trkpt lat="47.02339" lon="7.04149">
        <ele>447.09999084473</ele>
        <time>2022-02-05T10:31:46.730Z</time>
      </trkpt>
      <trkpt lat="47.02349" lon="7.04155">
        <ele>447.89999389648</ele>
        <time>2022-02-05T10:32:09.505Z</time>
      </trkpt>
      <trkpt lat="47.0236" lon="7.04161">
        <ele>448.59999084473</ele>
        <time>2022-02-05T10:32:31.741Z</time>
      </trkpt>
      <trkpt lat="47.02368" lon="7.04166">
        <ele>449.19999694824</ele>
        <time>2022-02-05T10:32:49.420Z</time>
      </trkpt>
      <trkpt lat="47.02374" lon="7.0417">
        <ele>449.5</ele>
        <time>2022-02-05T10:33:00.847Z</time>
      </trkpt>
      <trkpt lat="47.02379" lon="7.04176">
        <ele>450</ele>
        <time>2022-02-05T10:33:14.769Z</time>
      </trkpt>
      <trkpt lat="47.0238" lon="7.04177">
        <ele>450.29998779297</ele>
        <time>2022-02-05T10:33:19.556Z</time>
      </trkpt>
      <trkpt lat="47.0238" lon="7.04178">
        <ele>450.29998779297</ele>
        <time>2022-02-05T10:33:20.168Z</time>
      </trkpt>
      <trkpt lat="47.0238" lon="7.04177">
        <ele>450.29998779297</ele>
        <time>2022-02-05T10:33:20.779Z</time>
      </trkpt>
      <trkpt lat="47.02387" lon="7.04188">
        <ele>450.59999084473</ele>
        <time>2022-02-05T10:33:34.988Z</time>
      </trkpt>
      <trkpt lat="47.02392" lon="7.04195">
        <ele>451.09999084473</ele>
        <time>2022-02-05T10:33:49.438Z</time>
      </trkpt>
      <trkpt lat="47.024" lon="7.04207">
        <ele>451.59999084473</ele>
        <time>2022-02-05T10:34:08.775Z</time>
      </trkpt>
      <trkpt lat="47.02412" lon="7.04225">
        <ele>452.79998779297</ele>
        <time>2022-02-05T10:34:43.878Z</time>
      </trkpt>
      <trkpt lat="47.02426" lon="7.04246">
        <ele>453.29998779297</ele>
        <time>2022-02-05T10:35:10.231Z</time>
      </trkpt>
      <trkpt lat="47.02441" lon="7.04267">
        <ele>452.79998779297</ele>
        <time>2022-02-05T10:35:16.498Z</time>
      </trkpt>
      <trkpt lat="47.02457" lon="7.04289">
        <ele>452.29998779297</ele>
        <time>2022-02-05T10:35:23.207Z</time>
      </trkpt>
      <trkpt lat="47.02473" lon="7.04313">
        <ele>452</ele>
        <time>2022-02-05T10:35:31.071Z</time>
      </trkpt>
      <trkpt lat="47.02501" lon="7.04354">
        <ele>451.89999389648</ele>
        <time>2022-02-05T10:36:09.693Z</time>
      </trkpt>
      <trkpt lat="47.02503" lon="7.04355">
        <ele>452</ele>
        <time>2022-02-05T10:36:13.474Z</time>
      </trkpt>
      <trkpt lat="47.02506" lon="7.04354">
        <ele>452.09999084473</ele>
        <time>2022-02-05T10:36:17.888Z</time>
      </trkpt>
      <trkpt lat="47.02513" lon="7.04365">
        <ele>452.39999389648</ele>
        <time>2022-02-05T10:36:32.097Z</time>
      </trkpt>
      <trkpt lat="47.02523" lon="7.04377">
        <ele>452.69999694824</ele>
        <time>2022-02-05T10:36:48.795Z</time>
      </trkpt>
      <trkpt lat="47.02539" lon="7.04397">
        <ele>453</ele>
        <time>2022-02-05T10:37:13.294Z</time>
      </trkpt>
      <trkpt lat="47.02559" lon="7.04419">
        <ele>453.19999694824</ele>
        <time>2022-02-05T10:37:40.763Z</time>
      </trkpt>
      <trkpt lat="47.02569" lon="7.04431">
        <ele>453.59999084473</ele>
        <time>2022-02-05T10:37:59.048Z</time>
      </trkpt>
      <trkpt lat="47.02582" lon="7.04446">
        <ele>453.69999694824</ele>
        <time>2022-02-05T10:38:16.792Z</time>
      </trkpt>
      <trkpt lat="47.02592" lon="7.04458">
        <ele>453.69999694824</ele>
        <time>2022-02-05T10:38:29.947Z</time>
      </trkpt>
      <trkpt lat="47.02603" lon="7.0447">
        <ele>453.69999694824</ele>
        <time>2022-02-05T10:38:43.892Z</time>
      </trkpt>
      <trkpt lat="47.02617" lon="7.04487">
        <ele>453.5</ele>
        <time>2022-02-05T10:38:50.315Z</time>
      </trkpt>
      <trkpt lat="47.02623" lon="7.04494">
        <ele>452.69999694824</ele>
        <time>2022-02-05T10:38:52.024Z</time>
      </trkpt>
      <trkpt lat="47.02624" lon="7.04494">
        <ele>452.69999694824</ele>
        <time>2022-02-05T10:38:52.602Z</time>
      </trkpt>
      <trkpt lat="47.02623" lon="7.04494">
        <ele>452.69999694824</ele>
        <time>2022-02-05T10:38:53.179Z</time>
      </trkpt>
      <trkpt lat="47.02641" lon="7.04515">
        <ele>452</ele>
        <time>2022-02-05T10:38:59.662Z</time>
      </trkpt>
      <trkpt lat="47.02646" lon="7.04521">
        <ele>451.69999694824</ele>
        <time>2022-02-05T10:39:01.215Z</time>
      </trkpt>
      <trkpt lat="47.02661" lon="7.04535">
        <ele>452.09999084473</ele>
        <time>2022-02-05T10:39:23.931Z</time>
      </trkpt>
      <trkpt lat="47.02668" lon="7.0454">
        <ele>452.29998779297</ele>
        <time>2022-02-05T10:39:34.322Z</time>
      </trkpt>
      <trkpt lat="47.02677" lon="7.04545">
        <ele>452.39999389648</ele>
        <time>2022-02-05T10:39:45.120Z</time>
      </trkpt>
      <trkpt lat="47.02685" lon="7.0455">
        <ele>452.5</ele>
        <time>2022-02-05T10:39:54.950Z</time>
      </trkpt>
      <trkpt lat="47.02691" lon="7.04556">
        <ele>452.5</ele>
        <time>2022-02-05T10:40:02.367Z</time>
      </trkpt>
      <trkpt lat="47.02697" lon="7.04563">
        <ele>452.19999694824</ele>
        <time>2022-02-05T10:40:04.325Z</time>
      </trkpt>
      <trkpt lat="47.02705" lon="7.04575">
        <ele>452.09999084473</ele>
        <time>2022-02-05T10:40:08.515Z</time>
      </trkpt>
      <trkpt lat="47.02714" lon="7.04589">
        <ele>451.79998779297</ele>
        <time>2022-02-05T10:40:12.517Z</time>
      </trkpt>
      <trkpt lat="47.02722" lon="7.04603">
        <ele>451.69999694824</ele>
        <time>2022-02-05T10:40:17.115Z</time>
      </trkpt>
      <trkpt lat="47.02734" lon="7.04622">
        <ele>451.59999084473</ele>
        <time>2022-02-05T10:40:33.567Z</time>
      </trkpt>
      <trkpt lat="47.02754" lon="7.04654">
        <ele>451.59999084473</ele>
        <time>2022-02-05T10:41:03.654Z</time>
      </trkpt>
      <trkpt lat="47.02755" lon="7.04655">
        <ele>451.59999084473</ele>
        <time>2022-02-05T10:41:04.515Z</time>
      </trkpt>
      <trkpt lat="47.02754" lon="7.04654">
        <ele>451.59999084473</ele>
        <time>2022-02-05T10:41:05.376Z</time>
      </trkpt>
      <trkpt lat="47.02759" lon="7.04661">
        <ele>451.59999084473</ele>
        <time>2022-02-05T10:41:12.408Z</time>
      </trkpt>
      <trkpt lat="47.02765" lon="7.04671">
        <ele>451.69999694824</ele>
        <time>2022-02-05T10:41:22.623Z</time>
      </trkpt>
      <trkpt lat="47.02773" lon="7.0466">
        <ele>451.59999084473</ele>
        <time>2022-02-05T10:41:26.610Z</time>
      </trkpt>
      <trkpt lat="47.02785" lon="7.04644">
        <ele>450.89999389648</ele>
        <time>2022-02-05T10:41:30.642Z</time>
      </trkpt>
      <trkpt lat="47.02805" lon="7.04618">
        <ele>449.19999694824</ele>
        <time>2022-02-05T10:41:36.233Z</time>
      </trkpt>
      <trkpt lat="47.02842" lon="7.04568">
        <ele>447</ele>
        <time>2022-02-05T10:41:48.669Z</time>
      </trkpt>
      <trkpt lat="47.02843" lon="7.04568">
        <ele>447</ele>
        <time>2022-02-05T10:41:49.365Z</time>
      </trkpt>
      <trkpt lat="47.02842" lon="7.04568">
        <ele>447</ele>
        <time>2022-02-05T10:41:50.060Z</time>
      </trkpt>
      <trkpt lat="47.02875" lon="7.04523">
        <ele>444.79998779297</ele>
        <time>2022-02-05T10:42:00.710Z</time>
      </trkpt>
      <trkpt lat="47.02891" lon="7.04503">
        <ele>443.89999389648</ele>
        <time>2022-02-05T10:42:05.935Z</time>
      </trkpt>
      <trkpt lat="47.02898" lon="7.04492">
        <ele>443.5</ele>
        <time>2022-02-05T10:42:08.599Z</time>
      </trkpt>
      <trkpt lat="47.02907" lon="7.04479">
        <ele>443</ele>
        <time>2022-02-05T10:42:11.849Z</time>
      </trkpt>
      <trkpt lat="47.02914" lon="7.04468">
        <ele>443.19999694824</ele>
        <time>2022-02-05T10:42:24.504Z</time>
      </trkpt>
      <trkpt lat="47.0292" lon="7.04456">
        <ele>443.5</ele>
        <time>2022-02-05T10:42:38.682Z</time>
      </trkpt>
      <trkpt lat="47.02933" lon="7.04435">
        <ele>444.09999084473</ele>
        <time>2022-02-05T10:43:06.109Z</time>
      </trkpt>
      <trkpt lat="47.02949" lon="7.04409">
        <ele>445.19999694824</ele>
        <time>2022-02-05T10:43:47.398Z</time>
      </trkpt>
      <trkpt lat="47.02968" lon="7.04379">
        <ele>446.89999389648</ele>
        <time>2022-02-05T10:44:40.761Z</time>
      </trkpt>
      <trkpt lat="47.02979" lon="7.04429">
        <ele>445.39999389648</ele>
        <time>2022-02-05T10:44:49.756Z</time>
      </trkpt>
      <trkpt lat="47.02981" lon="7.04439">
        <ele>445</ele>
        <time>2022-02-05T10:44:51.349Z</time>
      </trkpt>
      <trkpt lat="47.02981" lon="7.04439">
        <ele>445</ele>
        <time>2022-02-05T10:44:51.553Z</time>
      </trkpt>
      <trkpt lat="47.02981" lon="7.04439">
        <ele>445</ele>
        <time>2022-02-05T10:44:51.757Z</time>
      </trkpt>
      <trkpt lat="47.02983" lon="7.04451">
        <ele>444.69999694824</ele>
        <time>2022-02-05T10:44:53.998Z</time>
      </trkpt>
      <trkpt lat="47.02987" lon="7.04473">
        <ele>443.79998779297</ele>
        <time>2022-02-05T10:44:57.383Z</time>
      </trkpt>
      <trkpt lat="47.02989" lon="7.04485">
        <ele>443.39999389648</ele>
        <time>2022-02-05T10:44:59.417Z</time>
      </trkpt>
      <trkpt lat="47.02989" lon="7.04498">
        <ele>442.79998779297</ele>
        <time>2022-02-05T10:45:01.378Z</time>
      </trkpt>
      <trkpt lat="47.02989" lon="7.04519">
        <ele>441.29998779297</ele>
        <time>2022-02-05T10:45:04.578Z</time>
      </trkpt>
      <trkpt lat="47.02989" lon="7.04534">
        <ele>440.5</ele>
        <time>2022-02-05T10:45:06.858Z</time>
      </trkpt>
      <trkpt lat="47.0299" lon="7.04545">
        <ele>439.89999389648</ele>
        <time>2022-02-05T10:45:08.550Z</time>
      </trkpt>
      <trkpt lat="47.0299" lon="7.0455">
        <ele>439.69999694824</ele>
        <time>2022-02-05T10:45:09.291Z</time>
      </trkpt>
      <trkpt lat="47.02992" lon="7.04556">
        <ele>439.19999694824</ele>
        <time>2022-02-05T10:45:10.311Z</time>
      </trkpt>
      <trkpt lat="47.02995" lon="7.0456">
        <ele>438.79998779297</ele>
        <time>2022-02-05T10:45:11.205Z</time>
      </trkpt>
      <trkpt lat="47.02999" lon="7.04565">
        <ele>438.29998779297</ele>
        <time>2022-02-05T10:45:12.385Z</time>
      </trkpt>
      <trkpt lat="47.03008" lon="7.04575">
        <ele>437.69999694824</ele>
        <time>2022-02-05T10:45:14.948Z</time>
      </trkpt>
      <trkpt lat="47.03019" lon="7.04586">
        <ele>436.69999694824</ele>
        <time>2022-02-05T10:45:17.917Z</time>
      </trkpt>
      <trkpt lat="47.03031" lon="7.04597">
        <ele>436</ele>
        <time>2022-02-05T10:45:21.238Z</time>
      </trkpt>
      <trkpt lat="47.03036" lon="7.04602">
        <ele>435.79998779297</ele>
        <time>2022-02-05T10:45:22.927Z</time>
      </trkpt>
      <trkpt lat="47.03039" lon="7.04607">
        <ele>435.39999389648</ele>
        <time>2022-02-05T10:45:23.935Z</time>
      </trkpt>
      <trkpt lat="47.03041" lon="7.04612">
        <ele>435.29998779297</ele>
        <time>2022-02-05T10:45:25.107Z</time>
      </trkpt>
      <trkpt lat="47.03044" lon="7.04612">
        <ele>435</ele>
        <time>2022-02-05T10:45:25.769Z</time>
      </trkpt>
      <trkpt lat="47.03048" lon="7.04613">
        <ele>434.59999084473</ele>
        <time>2022-02-05T10:45:26.686Z</time>
      </trkpt>
      <trkpt lat="47.03054" lon="7.04619">
        <ele>434.39999389648</ele>
        <time>2022-02-05T10:45:28.783Z</time>
      </trkpt>
      <trkpt lat="47.03085" lon="7.04652">
        <ele>432.39999389648</ele>
        <time>2022-02-05T10:45:37.553Z</time>
      </trkpt>
      <trkpt lat="47.03097" lon="7.04665">
        <ele>432</ele>
        <time>2022-02-05T10:45:41.933Z</time>
      </trkpt>
      <trkpt lat="47.03104" lon="7.04671">
        <ele>432</ele>
        <time>2022-02-05T10:45:50.199Z</time>
      </trkpt>
      <trkpt lat="47.03109" lon="7.04675">
        <ele>432</ele>
        <time>2022-02-05T10:45:55.963Z</time>
      </trkpt>
      <trkpt lat="47.03108" lon="7.04693">
        <ele>431.59999084473</ele>
        <time>2022-02-05T10:45:59.330Z</time>
      </trkpt>
      <trkpt lat="47.03106" lon="7.04707">
        <ele>431.59999084473</ele>
        <time>2022-02-05T10:46:09.299Z</time>
      </trkpt>
      <trkpt lat="47.03107" lon="7.04708">
        <ele>431.59999084473</ele>
        <time>2022-02-05T10:46:10.239Z</time>
      </trkpt>
      <trkpt lat="47.03106" lon="7.04707">
        <ele>431.59999084473</ele>
        <time>2022-02-05T10:46:11.179Z</time>
      </trkpt>
      <trkpt lat="47.03106" lon="7.04714">
        <ele>431.5</ele>
        <time>2022-02-05T10:46:12.663Z</time>
      </trkpt>
      <trkpt lat="47.03101" lon="7.04748">
        <ele>431.19999694824</ele>
        <time>2022-02-05T10:46:20.861Z</time>
      </trkpt>
      <trkpt lat="47.03092" lon="7.04824">
        <ele>431.59999084473</ele>
        <time>2022-02-05T10:47:18.247Z</time>
      </trkpt>
      <trkpt lat="47.03089" lon="7.04851">
        <ele>431.39999389648</ele>
        <time>2022-02-05T10:47:24.863Z</time>
      </trkpt>
      <trkpt lat="47.03087" lon="7.04874">
        <ele>431.39999389648</ele>
        <time>2022-02-05T10:47:40.939Z</time>
      </trkpt>
      <trkpt lat="47.03086" lon="7.04895">
        <ele>431.39999389648</ele>
        <time>2022-02-05T10:47:55.553Z</time>
      </trkpt>
      <trkpt lat="47.03086" lon="7.04914">
        <ele>431.5</ele>
        <time>2022-02-05T10:48:09.669Z</time>
      </trkpt>
      <trkpt lat="47.03087" lon="7.04928">
        <ele>431.39999389648</ele>
        <time>2022-02-05T10:48:13.067Z</time>
      </trkpt>
      <trkpt lat="47.03088" lon="7.0494">
        <ele>431.29998779297</ele>
        <time>2022-02-05T10:48:15.965Z</time>
      </trkpt>
      <trkpt lat="47.0309" lon="7.04948">
        <ele>431.39999389648</ele>
        <time>2022-02-05T10:48:22.977Z</time>
      </trkpt>
      <trkpt lat="47.03092" lon="7.04963">
        <ele>431.29998779297</ele>
        <time>2022-02-05T10:48:26.719Z</time>
      </trkpt>
      <trkpt lat="47.03095" lon="7.04981">
        <ele>431.09999084473</ele>
        <time>2022-02-05T10:48:30.921Z</time>
      </trkpt>
      <trkpt lat="47.03098" lon="7.04996">
        <ele>431.29998779297</ele>
        <time>2022-02-05T10:48:43.980Z</time>
      </trkpt>
      <trkpt lat="47.03102" lon="7.05009">
        <ele>431.19999694824</ele>
        <time>2022-02-05T10:48:47.448Z</time>
      </trkpt>
      <trkpt lat="47.03107" lon="7.05025">
        <ele>431.29998779297</ele>
        <time>2022-02-05T10:49:00.650Z</time>
      </trkpt>
      <trkpt lat="47.03113" lon="7.0504">
        <ele>431.39999389648</ele>
        <time>2022-02-05T10:49:13.665Z</time>
      </trkpt>
      <trkpt lat="47.03119" lon="7.05055">
        <ele>431.39999389648</ele>
        <time>2022-02-05T10:49:25.751Z</time>
      </trkpt>
      <trkpt lat="47.03127" lon="7.05073">
        <ele>431.19999694824</ele>
        <time>2022-02-05T10:49:30.741Z</time>
      </trkpt>
      <trkpt lat="47.03164" lon="7.05148">
        <ele>431.19999694824</ele>
        <time>2022-02-05T10:50:34.852Z</time>
      </trkpt>
      <trkpt lat="47.03202" lon="7.05223">
        <ele>431.19999694824</ele>
        <time>2022-02-05T10:51:39.554Z</time>
      </trkpt>
      <trkpt lat="47.03202" lon="7.05223">
        <ele>431.19999694824</ele>
        <time>2022-02-05T10:51:39.962Z</time>
      </trkpt>
      <trkpt lat="47.03202" lon="7.05223">
        <ele>431.19999694824</ele>
        <time>2022-02-05T10:51:40.371Z</time>
      </trkpt>
      <trkpt lat="47.03203" lon="7.05225">
        <ele>431.19999694824</ele>
        <time>2022-02-05T10:51:42.067Z</time>
      </trkpt>
      <trkpt lat="47.0322" lon="7.05258">
        <ele>431.09999084473</ele>
        <time>2022-02-05T10:52:09.203Z</time>
      </trkpt>
      <trkpt lat="47.03233" lon="7.05285">
        <ele>431</ele>
        <time>2022-02-05T10:52:30.660Z</time>
      </trkpt>
      <trkpt lat="47.03239" lon="7.05297">
        <ele>431.09999084473</ele>
        <time>2022-02-05T10:52:42.006Z</time>
      </trkpt>
      <trkpt lat="47.03243" lon="7.05307">
        <ele>431.29998779297</ele>
        <time>2022-02-05T10:52:52.434Z</time>
      </trkpt>
      <trkpt lat="47.03249" lon="7.05319">
        <ele>431.59999084473</ele>
        <time>2022-02-05T10:53:06.519Z</time>
      </trkpt>
      <trkpt lat="47.0327" lon="7.0536">
        <ele>431.29998779297</ele>
        <time>2022-02-05T10:53:19.288Z</time>
      </trkpt>
      <trkpt lat="47.03284" lon="7.05388">
        <ele>431.09999084473</ele>
        <time>2022-02-05T10:53:27.965Z</time>
      </trkpt>
      <trkpt lat="47.03326" lon="7.05472">
        <ele>431.29998779297</ele>
        <time>2022-02-05T10:54:42.022Z</time>
      </trkpt>
      <trkpt lat="47.03329" lon="7.0548">
        <ele>431.19999694824</ele>
        <time>2022-02-05T10:54:44.085Z</time>
      </trkpt>
      <trkpt lat="47.0333" lon="7.0548">
        <ele>431.19999694824</ele>
        <time>2022-02-05T10:54:44.633Z</time>
      </trkpt>
      <trkpt lat="47.03329" lon="7.0548">
        <ele>431.19999694824</ele>
        <time>2022-02-05T10:54:45.181Z</time>
      </trkpt>
      <trkpt lat="47.03339" lon="7.055">
        <ele>431.19999694824</ele>
        <time>2022-02-05T10:55:02.288Z</time>
      </trkpt>
      <trkpt lat="47.03356" lon="7.05533">
        <ele>431.19999694824</ele>
        <time>2022-02-05T10:55:30.955Z</time>
      </trkpt>
      <trkpt lat="47.03374" lon="7.05571">
        <ele>431.19999694824</ele>
        <time>2022-02-05T10:56:03.019Z</time>
      </trkpt>
      <trkpt lat="47.03389" lon="7.05599">
        <ele>431</ele>
        <time>2022-02-05T10:56:11.887Z</time>
      </trkpt>
      <trkpt lat="47.03401" lon="7.05622">
        <ele>431.09999084473</ele>
        <time>2022-02-05T10:56:32.977Z</time>
      </trkpt>
      <trkpt lat="47.03443" lon="7.05695">
        <ele>430.89999389648</ele>
        <time>2022-02-05T10:57:36.115Z</time>
      </trkpt>
      <trkpt lat="47.03451" lon="7.0571">
        <ele>431</ele>
        <time>2022-02-05T10:57:50.304Z</time>
      </trkpt>
      <trkpt lat="47.03456" lon="7.05718">
        <ele>430.79998779297</ele>
        <time>2022-02-05T10:57:52.456Z</time>
      </trkpt>
      <trkpt lat="47.0347" lon="7.05741">
        <ele>430.89999389648</ele>
        <time>2022-02-05T10:58:14.817Z</time>
      </trkpt>
      <trkpt lat="47.03484" lon="7.05765">
        <ele>431</ele>
        <time>2022-02-05T10:58:37.601Z</time>
      </trkpt>
      <trkpt lat="47.03499" lon="7.05791">
        <ele>431</ele>
        <time>2022-02-05T10:59:01.233Z</time>
      </trkpt>
      <trkpt lat="47.03518" lon="7.05825">
        <ele>431</ele>
        <time>2022-02-05T10:59:31.639Z</time>
      </trkpt>
      <trkpt lat="47.03519" lon="7.05825">
        <ele>431</ele>
        <time>2022-02-05T10:59:32.481Z</time>
      </trkpt>
      <trkpt lat="47.03518" lon="7.05825">
        <ele>431</ele>
        <time>2022-02-05T10:59:33.324Z</time>
      </trkpt>
      <trkpt lat="47.03531" lon="7.05846">
        <ele>431</ele>
        <time>2022-02-05T10:59:52.956Z</time>
      </trkpt>
      <trkpt lat="47.03617" lon="7.05993">
        <ele>430.89999389648</ele>
        <time>2022-02-05T11:02:05.549Z</time>
      </trkpt>
      <trkpt lat="47.03633" lon="7.06022">
        <ele>430.69999694824</ele>
        <time>2022-02-05T11:02:14.926Z</time>
      </trkpt>
      <trkpt lat="47.03649" lon="7.06049">
        <ele>431</ele>
        <time>2022-02-05T11:02:42.840Z</time>
      </trkpt>
      <trkpt lat="47.03664" lon="7.06075">
        <ele>430.89999389648</ele>
        <time>2022-02-05T11:03:04.943Z</time>
      </trkpt>
      <trkpt lat="47.03707" lon="7.06147">
        <ele>431.19999694824</ele>
        <time>2022-02-05T11:04:14.132Z</time>
      </trkpt>
      <trkpt lat="47.03718" lon="7.06168">
        <ele>431.5</ele>
        <time>2022-02-05T11:04:35.770Z</time>
      </trkpt>
      <trkpt lat="47.03724" lon="7.06179">
        <ele>431.5</ele>
        <time>2022-02-05T11:04:45.512Z</time>
      </trkpt>
      <trkpt lat="47.03776" lon="7.06279">
        <ele>430.5</ele>
        <time>2022-02-05T11:05:15.541Z</time>
      </trkpt>
      <trkpt lat="47.03804" lon="7.06334">
        <ele>430.59999084473</ele>
        <time>2022-02-05T11:06:04.031Z</time>
      </trkpt>
      <trkpt lat="47.03822" lon="7.06373">
        <ele>430.59999084473</ele>
        <time>2022-02-05T11:06:36.623Z</time>
      </trkpt>
      <trkpt lat="47.03845" lon="7.06422">
        <ele>430.5</ele>
        <time>2022-02-05T11:07:16.339Z</time>
      </trkpt>
      <trkpt lat="47.03845" lon="7.06422">
        <ele>430.5</ele>
        <time>2022-02-05T11:07:16.431Z</time>
      </trkpt>
      <trkpt lat="47.03845" lon="7.06422">
        <ele>430.5</ele>
        <time>2022-02-05T11:07:16.522Z</time>
      </trkpt>
      <trkpt lat="47.03888" lon="7.06516">
        <ele>430.39999389648</ele>
        <time>2022-02-05T11:08:33.352Z</time>
      </trkpt>
      <trkpt lat="47.03914" lon="7.0658">
        <ele>430.29998779297</ele>
        <time>2022-02-05T11:09:23.366Z</time>
      </trkpt>
      <trkpt lat="47.03924" lon="7.06602">
        <ele>430.39999389648</ele>
        <time>2022-02-05T11:09:42.653Z</time>
      </trkpt>
      <trkpt lat="47.03934" lon="7.06629">
        <ele>430.39999389648</ele>
        <time>2022-02-05T11:10:03.936Z</time>
      </trkpt>
      <trkpt lat="47.0399" lon="7.06768">
        <ele>430.79998779297</ele>
        <time>2022-02-05T11:11:59.546Z</time>
      </trkpt>
      <trkpt lat="47.04003" lon="7.06797">
        <ele>430.89999389648</ele>
        <time>2022-02-05T11:12:24.510Z</time>
      </trkpt>
      <trkpt lat="47.0402" lon="7.06841">
        <ele>431</ele>
        <time>2022-02-05T11:13:00.558Z</time>
      </trkpt>
      <trkpt lat="47.04028" lon="7.0686">
        <ele>431.29998779297</ele>
        <time>2022-02-05T11:13:19.351Z</time>
      </trkpt>
      <trkpt lat="47.04044" lon="7.06899">
        <ele>431.09999084473</ele>
        <time>2022-02-05T11:13:48.111Z</time>
      </trkpt>
      <trkpt lat="47.04051" lon="7.06918">
        <ele>430.89999389648</ele>
        <time>2022-02-05T11:13:53.116Z</time>
      </trkpt>
      <trkpt lat="47.04055" lon="7.06927">
        <ele>431</ele>
        <time>2022-02-05T11:14:01.639Z</time>
      </trkpt>
      <trkpt lat="47.04057" lon="7.06936">
        <ele>430.89999389648</ele>
        <time>2022-02-05T11:14:03.810Z</time>
      </trkpt>
      <trkpt lat="47.04059" lon="7.06944">
        <ele>431.09999084473</ele>
        <time>2022-02-05T11:14:12.367Z</time>
      </trkpt>
      <trkpt lat="47.04062" lon="7.06952">
        <ele>431.09999084473</ele>
        <time>2022-02-05T11:14:18.688Z</time>
      </trkpt>
      <trkpt lat="47.04068" lon="7.06967">
        <ele>431.19999694824</ele>
        <time>2022-02-05T11:14:31.782Z</time>
      </trkpt>
      <trkpt lat="47.04086" lon="7.0701">
        <ele>431.09999084473</ele>
        <time>2022-02-05T11:15:05.185Z</time>
      </trkpt>
      <trkpt lat="47.04096" lon="7.07036">
        <ele>431.09999084473</ele>
        <time>2022-02-05T11:15:25.909Z</time>
      </trkpt>
      <trkpt lat="47.04105" lon="7.0706">
        <ele>431.09999084473</ele>
        <time>2022-02-05T11:15:44.792Z</time>
      </trkpt>
      <trkpt lat="47.04122" lon="7.071">
        <ele>431.59999084473</ele>
        <time>2022-02-05T11:16:22.875Z</time>
      </trkpt>
      <trkpt lat="47.04138" lon="7.07141">
        <ele>432.29998779297</ele>
        <time>2022-02-05T11:17:03.734Z</time>
      </trkpt>
      <trkpt lat="47.04145" lon="7.07157">
        <ele>432.79998779297</ele>
        <time>2022-02-05T11:17:24.083Z</time>
      </trkpt>
      <trkpt lat="47.04147" lon="7.07164">
        <ele>433</ele>
        <time>2022-02-05T11:17:32.201Z</time>
      </trkpt>
      <trkpt lat="47.04168" lon="7.07149">
        <ele>432.79998779297</ele>
        <time>2022-02-05T11:17:40.731Z</time>
      </trkpt>
      <trkpt lat="47.04173" lon="7.07145">
        <ele>432.79998779297</ele>
        <time>2022-02-05T11:17:46.531Z</time>
      </trkpt>
      <trkpt lat="47.04183" lon="7.07138">
        <ele>432.69999694824</ele>
        <time>2022-02-05T11:17:50.542Z</time>
      </trkpt>
      <trkpt lat="47.04201" lon="7.07123">
        <ele>432.39999389648</ele>
        <time>2022-02-05T11:17:57.549Z</time>
      </trkpt>
      <trkpt lat="47.04227" lon="7.071">
        <ele>432.09999084473</ele>
        <time>2022-02-05T11:18:08.436Z</time>
      </trkpt>
      <trkpt lat="47.04218" lon="7.07108">
        <ele>432.19999694824</ele>
        <time>2022-02-05T11:18:20.179Z</time>
      </trkpt>
      <trkpt lat="47.04219" lon="7.07108">
        <ele>432.19999694824</ele>
        <time>2022-02-05T11:18:20.959Z</time>
      </trkpt>
      <trkpt lat="47.04224" lon="7.07119">
        <ele>432.09999084473</ele>
        <time>2022-02-05T11:18:24.121Z</time>
      </trkpt>
      <trkpt lat="47.04228" lon="7.07131">
        <ele>431.89999389648</ele>
        <time>2022-02-05T11:18:26.890Z</time>
      </trkpt>
      <trkpt lat="47.04232" lon="7.07138">
        <ele>431.69999694824</ele>
        <time>2022-02-05T11:18:28.404Z</time>
      </trkpt>
      <trkpt lat="47.04237" lon="7.07148">
        <ele>431.59999084473</ele>
        <time>2022-02-05T11:18:31.579Z</time>
      </trkpt>
      <trkpt lat="47.04242" lon="7.07159">
        <ele>431.5</ele>
        <time>2022-02-05T11:18:34.754Z</time>
      </trkpt>
      <trkpt lat="47.04248" lon="7.07169">
        <ele>431.39999389648</ele>
        <time>2022-02-05T11:18:37.900Z</time>
      </trkpt>
      <trkpt lat="47.04253" lon="7.0718">
        <ele>431.39999389648</ele>
        <time>2022-02-05T11:18:47.036Z</time>
      </trkpt>
      <trkpt lat="47.04258" lon="7.07191">
        <ele>431.29998779297</ele>
        <time>2022-02-05T11:18:50.211Z</time>
      </trkpt>
      <trkpt lat="47.04264" lon="7.07201">
        <ele>431.29998779297</ele>
        <time>2022-02-05T11:18:59.348Z</time>
      </trkpt>
      <trkpt lat="47.04269" lon="7.07212">
        <ele>431.29998779297</ele>
        <time>2022-02-05T11:19:08.484Z</time>
      </trkpt>
      <trkpt lat="47.04274" lon="7.07222">
        <ele>431.29998779297</ele>
        <time>2022-02-05T11:19:17.494Z</time>
      </trkpt>
      <trkpt lat="47.04279" lon="7.07233">
        <ele>431.29998779297</ele>
        <time>2022-02-05T11:19:26.630Z</time>
      </trkpt>
      <trkpt lat="47.04285" lon="7.07244">
        <ele>431.29998779297</ele>
        <time>2022-02-05T11:19:35.767Z</time>
      </trkpt>
      <trkpt lat="47.0429" lon="7.07254">
        <ele>431.19999694824</ele>
        <time>2022-02-05T11:19:38.942Z</time>
      </trkpt>
      <trkpt lat="47.04296" lon="7.07265">
        <ele>431.29998779297</ele>
        <time>2022-02-05T11:19:49.042Z</time>
      </trkpt>
      <trkpt lat="47.04301" lon="7.07275">
        <ele>431.39999389648</ele>
        <time>2022-02-05T11:19:59.214Z</time>
      </trkpt>
      <trkpt lat="47.04306" lon="7.07286">
        <ele>431.29998779297</ele>
        <time>2022-02-05T11:20:02.389Z</time>
      </trkpt>
      <trkpt lat="47.04312" lon="7.07298">
        <ele>431.19999694824</ele>
        <time>2022-02-05T11:20:05.928Z</time>
      </trkpt>
      <trkpt lat="47.04317" lon="7.07308">
        <ele>431.29998779297</ele>
        <time>2022-02-05T11:20:16.092Z</time>
      </trkpt>
      <trkpt lat="47.04322" lon="7.07319">
        <ele>431.29998779297</ele>
        <time>2022-02-05T11:20:25.219Z</time>
      </trkpt>
      <trkpt lat="47.04327" lon="7.0733">
        <ele>431.29998779297</ele>
        <time>2022-02-05T11:20:34.347Z</time>
      </trkpt>
      <trkpt lat="47.04332" lon="7.07341">
        <ele>431.19999694824</ele>
        <time>2022-02-05T11:20:37.499Z</time>
      </trkpt>
      <trkpt lat="47.04337" lon="7.07352">
        <ele>431.19999694824</ele>
        <time>2022-02-05T11:20:46.627Z</time>
      </trkpt>
      <trkpt lat="47.04342" lon="7.07363">
        <ele>431.09999084473</ele>
        <time>2022-02-05T11:20:49.798Z</time>
      </trkpt>
      <trkpt lat="47.04347" lon="7.07374">
        <ele>431.19999694824</ele>
        <time>2022-02-05T11:20:59.962Z</time>
      </trkpt>
      <trkpt lat="47.04353" lon="7.07385">
        <ele>431.39999389648</ele>
        <time>2022-02-05T11:21:11.427Z</time>
      </trkpt>
      <trkpt lat="47.04358" lon="7.07396">
        <ele>431.5</ele>
        <time>2022-02-05T11:21:21.591Z</time>
      </trkpt>
      <trkpt lat="47.04363" lon="7.07406">
        <ele>431.39999389648</ele>
        <time>2022-02-05T11:21:24.732Z</time>
      </trkpt>
      <trkpt lat="47.04368" lon="7.07417">
        <ele>431.39999389648</ele>
        <time>2022-02-05T11:21:33.809Z</time>
      </trkpt>
      <trkpt lat="47.04373" lon="7.07428">
        <ele>431.29998779297</ele>
        <time>2022-02-05T11:21:36.981Z</time>
      </trkpt>
      <trkpt lat="47.04378" lon="7.07439">
        <ele>431.29998779297</ele>
        <time>2022-02-05T11:21:46.109Z</time>
      </trkpt>
      <trkpt lat="47.04382" lon="7.07447">
        <ele>431.29998779297</ele>
        <time>2022-02-05T11:21:53.138Z</time>
      </trkpt>
      <trkpt lat="47.04382" lon="7.07447">
        <ele>431.5</ele>
        <time>2022-02-05T11:21:53.138Z</time>
      </trkpt>
      <trkpt lat="47.04381" lon="7.07447">
        <ele>431.5</ele>
        <time>2022-02-05T11:21:53.803Z</time>
      </trkpt>
      <trkpt lat="47.04382" lon="7.07449">
        <ele>431.39999389648</ele>
        <time>2022-02-05T11:21:54.163Z</time>
      </trkpt>
      <trkpt lat="47.04398" lon="7.07484">
        <ele>431.5</ele>
        <time>2022-02-05T11:22:24.277Z</time>
      </trkpt>
      <trkpt lat="47.04407" lon="7.07502">
        <ele>431.5</ele>
        <time>2022-02-05T11:22:39.741Z</time>
      </trkpt>
      <trkpt lat="47.04418" lon="7.07525">
        <ele>431.5</ele>
        <time>2022-02-05T11:22:59.213Z</time>
      </trkpt>
      <trkpt lat="47.04426" lon="7.0754">
        <ele>431.69999694824</ele>
        <time>2022-02-05T11:23:14.512Z</time>
      </trkpt>
      <trkpt lat="47.04438" lon="7.07564">
        <ele>431.29998779297</ele>
        <time>2022-02-05T11:23:20.956Z</time>
      </trkpt>
      <trkpt lat="47.04455" lon="7.07598">
        <ele>431.19999694824</ele>
        <time>2022-02-05T11:23:48.658Z</time>
      </trkpt>
      <trkpt lat="47.04492" lon="7.07671">
        <ele>431.09999084473</ele>
        <time>2022-02-05T11:24:50.145Z</time>
      </trkpt>
      <trkpt lat="47.04503" lon="7.07691">
        <ele>430.89999389648</ele>
        <time>2022-02-05T11:24:56.273Z</time>
      </trkpt>
      <trkpt lat="47.04503" lon="7.07692">
        <ele>430.89999389648</ele>
        <time>2022-02-05T11:24:56.827Z</time>
      </trkpt>
      <trkpt lat="47.04503" lon="7.07691">
        <ele>430.89999389648</ele>
        <time>2022-02-05T11:24:57.381Z</time>
      </trkpt>
      <trkpt lat="47.04524" lon="7.07732">
        <ele>430.69999694824</ele>
        <time>2022-02-05T11:25:30.043Z</time>
      </trkpt>
      <trkpt lat="47.04577" lon="7.07836">
        <ele>430.39999389648</ele>
        <time>2022-02-05T11:26:55.508Z</time>
      </trkpt>
      <trkpt lat="47.04593" lon="7.07868">
        <ele>430.69999694824</ele>
        <time>2022-02-05T11:27:26.098Z</time>
      </trkpt>
      <trkpt lat="47.04602" lon="7.07886">
        <ele>430.39999389648</ele>
        <time>2022-02-05T11:27:30.908Z</time>
      </trkpt>
      <trkpt lat="47.04605" lon="7.07895">
        <ele>430.69999694824</ele>
        <time>2022-02-05T11:27:42.533Z</time>
      </trkpt>
      <trkpt lat="47.04607" lon="7.079">
        <ele>430.69999694824</ele>
        <time>2022-02-05T11:27:46.535Z</time>
      </trkpt>
      <trkpt lat="47.04608" lon="7.07907">
        <ele>430.69999694824</ele>
        <time>2022-02-05T11:27:51.466Z</time>
      </trkpt>
      <trkpt lat="47.046" lon="7.07922">
        <ele>430.89999389648</ele>
        <time>2022-02-05T11:28:06.874Z</time>
      </trkpt>
      <trkpt lat="47.04579" lon="7.07957">
        <ele>430.89999389648</ele>
        <time>2022-02-05T11:28:39.115Z</time>
      </trkpt>
      <trkpt lat="47.04579" lon="7.07957">
        <ele>430.89999389648</ele>
        <time>2022-02-05T11:28:39.298Z</time>
      </trkpt>
      <trkpt lat="47.04579" lon="7.07957">
        <ele>430.89999389648</ele>
        <time>2022-02-05T11:28:39.480Z</time>
      </trkpt>
      <trkpt lat="47.04567" lon="7.07975">
        <ele>431</ele>
        <time>2022-02-05T11:28:57.878Z</time>
      </trkpt>
      <trkpt lat="47.04551" lon="7.08">
        <ele>430.79998779297</ele>
        <time>2022-02-05T11:29:06.414Z</time>
      </trkpt>
      <trkpt lat="47.04532" lon="7.08032">
        <ele>431.09999084473</ele>
        <time>2022-02-05T11:29:38.839Z</time>
      </trkpt>
      <trkpt lat="47.04495" lon="7.08092">
        <ele>431</ele>
        <time>2022-02-05T11:30:33.362Z</time>
      </trkpt>
      <trkpt lat="47.04486" lon="7.08107">
        <ele>431.09999084473</ele>
        <time>2022-02-05T11:30:48.189Z</time>
      </trkpt>
      <trkpt lat="47.0448" lon="7.08117">
        <ele>431.09999084473</ele>
        <time>2022-02-05T11:30:57.361Z</time>
      </trkpt>
      <trkpt lat="47.04475" lon="7.08123">
        <ele>431.19999694824</ele>
        <time>2022-02-05T11:31:05.056Z</time>
      </trkpt>
      <trkpt lat="47.0447" lon="7.08128">
        <ele>431.09999084473</ele>
        <time>2022-02-05T11:31:07.063Z</time>
      </trkpt>
      <trkpt lat="47.04472" lon="7.08135">
        <ele>431</ele>
        <time>2022-02-05T11:31:08.702Z</time>
      </trkpt>
      <trkpt lat="47.04475" lon="7.08141">
        <ele>430.69999694824</ele>
        <time>2022-02-05T11:31:09.804Z</time>
      </trkpt>
      <trkpt lat="47.04479" lon="7.08151">
        <ele>430.69999694824</ele>
        <time>2022-02-05T11:31:17.808Z</time>
      </trkpt>
      <trkpt lat="47.04484" lon="7.08164">
        <ele>430.79998779297</ele>
        <time>2022-02-05T11:31:29.153Z</time>
      </trkpt>
      <trkpt lat="47.04499" lon="7.08205">
        <ele>430.5</ele>
        <time>2022-02-05T11:31:40.594Z</time>
      </trkpt>
      <trkpt lat="47.04505" lon="7.0822">
        <ele>430.39999389648</ele>
        <time>2022-02-05T11:31:44.916Z</time>
      </trkpt>
      <trkpt lat="47.04506" lon="7.08221">
        <ele>430.39999389648</ele>
        <time>2022-02-05T11:31:45.574Z</time>
      </trkpt>
      <trkpt lat="47.04505" lon="7.0822">
        <ele>430.39999389648</ele>
        <time>2022-02-05T11:31:46.233Z</time>
      </trkpt>
      <trkpt lat="47.04508" lon="7.08227">
        <ele>430.19999694824</ele>
        <time>2022-02-05T11:31:47.756Z</time>
      </trkpt>
      <trkpt lat="47.04516" lon="7.08249">
        <ele>430.19999694824</ele>
        <time>2022-02-05T11:32:04.960Z</time>
      </trkpt>
      <trkpt lat="47.04525" lon="7.08273">
        <ele>430.09999084473</ele>
        <time>2022-02-05T11:32:22.485Z</time>
      </trkpt>
      <trkpt lat="47.04543" lon="7.08327">
        <ele>430.09999084473</ele>
        <time>2022-02-05T11:33:04.099Z</time>
      </trkpt>
      <trkpt lat="47.04549" lon="7.08346">
        <ele>430.19999694824</ele>
        <time>2022-02-05T11:33:19.610Z</time>
      </trkpt>
      <trkpt lat="47.04555" lon="7.08364">
        <ele>430.09999084473</ele>
        <time>2022-02-05T11:33:24.677Z</time>
      </trkpt>
      <trkpt lat="47.0456" lon="7.08382">
        <ele>429.59999084473</ele>
        <time>2022-02-05T11:33:28.143Z</time>
      </trkpt>
      <trkpt lat="47.04564" lon="7.08398">
        <ele>429.69999694824</ele>
        <time>2022-02-05T11:33:40.969Z</time>
      </trkpt>
      <trkpt lat="47.04568" lon="7.0842">
        <ele>429.79998779297</ele>
        <time>2022-02-05T11:33:57.666Z</time>
      </trkpt>
      <trkpt lat="47.0457" lon="7.08433">
        <ele>429.89999389648</ele>
        <time>2022-02-05T11:34:07.939Z</time>
      </trkpt>
      <trkpt lat="47.04574" lon="7.08443">
        <ele>429.79998779297</ele>
        <time>2022-02-05T11:34:10.695Z</time>
      </trkpt>
      <trkpt lat="47.04581" lon="7.08459">
        <ele>430.09999084473</ele>
        <time>2022-02-05T11:34:27.364Z</time>
      </trkpt>
      <trkpt lat="47.0459" lon="7.08479">
        <ele>429.79998779297</ele>
        <time>2022-02-05T11:34:32.638Z</time>
      </trkpt>
      <trkpt lat="47.04594" lon="7.08482">
        <ele>429.89999389648</ele>
        <time>2022-02-05T11:34:38.342Z</time>
      </trkpt>
      <trkpt lat="47.04603" lon="7.08488">
        <ele>429.69999694824</ele>
        <time>2022-02-05T11:34:41.463Z</time>
      </trkpt>
      <trkpt lat="47.04608" lon="7.08493">
        <ele>429.69999694824</ele>
        <time>2022-02-05T11:34:47.639Z</time>
      </trkpt>
      <trkpt lat="47.04609" lon="7.08497">
        <ele>429.89999389648</ele>
        <time>2022-02-05T11:34:53.571Z</time>
      </trkpt>
      <trkpt lat="47.04609" lon="7.08502">
        <ele>429.69999694824</ele>
        <time>2022-02-05T11:34:54.312Z</time>
      </trkpt>
      <trkpt lat="47.04608" lon="7.08512">
        <ele>430.09999084473</ele>
        <time>2022-02-05T11:35:07.226Z</time>
      </trkpt>
      <trkpt lat="47.04605" lon="7.08522">
        <ele>429.89999389648</ele>
        <time>2022-02-05T11:35:09.383Z</time>
      </trkpt>
      <trkpt lat="47.04601" lon="7.08537">
        <ele>429.89999389648</ele>
        <time>2022-02-05T11:35:20.550Z</time>
      </trkpt>
      <trkpt lat="47.04596" lon="7.08545">
        <ele>429.89999389648</ele>
        <time>2022-02-05T11:35:28.102Z</time>
      </trkpt>
      <trkpt lat="47.04589" lon="7.08555">
        <ele>430.09999084473</ele>
        <time>2022-02-05T11:35:40.266Z</time>
      </trkpt>
      <trkpt lat="47.04581" lon="7.08565">
        <ele>430.39999389648</ele>
        <time>2022-02-05T11:35:54.723Z</time>
      </trkpt>
      <trkpt lat="47.04577" lon="7.08572">
        <ele>430.29998779297</ele>
        <time>2022-02-05T11:35:56.793Z</time>
      </trkpt>
      <trkpt lat="47.04573" lon="7.08581">
        <ele>430.19999694824</ele>
        <time>2022-02-05T11:35:59.273Z</time>
      </trkpt>
      <trkpt lat="47.0457" lon="7.08591">
        <ele>430.29998779297</ele>
        <time>2022-02-05T11:36:07.920Z</time>
      </trkpt>
      <trkpt lat="47.04568" lon="7.08607">
        <ele>430.19999694824</ele>
        <time>2022-02-05T11:36:11.962Z</time>
      </trkpt>
      <trkpt lat="47.04565" lon="7.08621">
        <ele>430.29998779297</ele>
        <time>2022-02-05T11:36:23.128Z</time>
      </trkpt>
      <trkpt lat="47.04563" lon="7.08632">
        <ele>430.5</ele>
        <time>2022-02-05T11:36:33.391Z</time>
      </trkpt>
      <trkpt lat="47.04562" lon="7.08638">
        <ele>430.69999694824</ele>
        <time>2022-02-05T11:36:40.813Z</time>
      </trkpt>
      <trkpt lat="47.04562" lon="7.08645">
        <ele>430.89999389648</ele>
        <time>2022-02-05T11:36:48.668Z</time>
      </trkpt>
      <trkpt lat="47.04564" lon="7.08651">
        <ele>430.79998779297</ele>
        <time>2022-02-05T11:36:50.083Z</time>
      </trkpt>
      <trkpt lat="47.0457" lon="7.08661">
        <ele>431</ele>
        <time>2022-02-05T11:37:01.597Z</time>
      </trkpt>
      <trkpt lat="47.04572" lon="7.08668">
        <ele>430.79998779297</ele>
        <time>2022-02-05T11:37:02.930Z</time>
      </trkpt>
      <trkpt lat="47.04573" lon="7.08676">
        <ele>430.89999389648</ele>
        <time>2022-02-05T11:37:09.690Z</time>
      </trkpt>
      <trkpt lat="47.04574" lon="7.0869">
        <ele>430.79998779297</ele>
        <time>2022-02-05T11:37:13.128Z</time>
      </trkpt>
      <trkpt lat="47.04573" lon="7.08715">
        <ele>430.79998779297</ele>
        <time>2022-02-05T11:37:30.376Z</time>
      </trkpt>
      <trkpt lat="47.04572" lon="7.08736">
        <ele>430.79998779297</ele>
        <time>2022-02-05T11:37:44.989Z</time>
      </trkpt>
      <trkpt lat="47.0457" lon="7.08751">
        <ele>430.69999694824</ele>
        <time>2022-02-05T11:37:48.745Z</time>
      </trkpt>
      <trkpt lat="47.04569" lon="7.08758">
        <ele>430.59999084473</ele>
        <time>2022-02-05T11:37:50.269Z</time>
      </trkpt>
      <trkpt lat="47.04566" lon="7.08767">
        <ele>430.69999694824</ele>
        <time>2022-02-05T11:37:58.272Z</time>
      </trkpt>
      <trkpt lat="47.04566" lon="7.08767">
        <ele>430.69999694824</ele>
        <time>2022-02-05T11:37:58.601Z</time>
      </trkpt>
      <trkpt lat="47.04566" lon="7.08767">
        <ele>430.69999694824</ele>
        <time>2022-02-05T11:37:58.931Z</time>
      </trkpt>
      <trkpt lat="47.0456" lon="7.08779">
        <ele>430.79998779297</ele>
        <time>2022-02-05T11:38:10.256Z</time>
      </trkpt>
      <trkpt lat="47.0455" lon="7.088">
        <ele>430.79998779297</ele>
        <time>2022-02-05T11:38:27.987Z</time>
      </trkpt>
      <trkpt lat="47.04544" lon="7.08815">
        <ele>430.79998779297</ele>
        <time>2022-02-05T11:38:40.040Z</time>
      </trkpt>
      <trkpt lat="47.04541" lon="7.08827">
        <ele>430.89999389648</ele>
        <time>2022-02-05T11:38:49.930Z</time>
      </trkpt>
      <trkpt lat="47.04539" lon="7.0884">
        <ele>430.69999694824</ele>
        <time>2022-02-05T11:38:52.740Z</time>
      </trkpt>
      <trkpt lat="47.04539" lon="7.08854">
        <ele>430.59999084473</ele>
        <time>2022-02-05T11:38:56.121Z</time>
      </trkpt>
      <trkpt lat="47.04541" lon="7.08874">
        <ele>430.39999389648</ele>
        <time>2022-02-05T11:39:00.775Z</time>
      </trkpt>
      <trkpt lat="47.04543" lon="7.08898">
        <ele>430.59999084473</ele>
        <time>2022-02-05T11:39:19.644Z</time>
      </trkpt>
      <trkpt lat="47.04544" lon="7.08912">
        <ele>430.5</ele>
        <time>2022-02-05T11:39:23.046Z</time>
      </trkpt>
      <trkpt lat="47.04547" lon="7.08939">
        <ele>430.29998779297</ele>
        <time>2022-02-05T11:39:29.645Z</time>
      </trkpt>
      <trkpt lat="47.0455" lon="7.08978">
        <ele>430.39999389648</ele>
        <time>2022-02-05T11:39:57.815Z</time>
      </trkpt>
      <trkpt lat="47.04557" lon="7.09044">
        <ele>430.39999389648</ele>
        <time>2022-02-05T11:40:44.059Z</time>
      </trkpt>
      <trkpt lat="47.04563" lon="7.09108">
        <ele>430.5</ele>
        <time>2022-02-05T11:41:29.657Z</time>
      </trkpt>
      <trkpt lat="47.04565" lon="7.0913">
        <ele>430.29998779297</ele>
        <time>2022-02-05T11:41:34.879Z</time>
      </trkpt>
      <trkpt lat="47.04563" lon="7.09137">
        <ele>430.39999389648</ele>
        <time>2022-02-05T11:41:41.274Z</time>
      </trkpt>
      <trkpt lat="47.04561" lon="7.09143">
        <ele>430.5</ele>
        <time>2022-02-05T11:41:47.007Z</time>
      </trkpt>
      <trkpt lat="47.04559" lon="7.09151">
        <ele>430.5</ele>
        <time>2022-02-05T11:41:52.947Z</time>
      </trkpt>
      <trkpt lat="47.04558" lon="7.09159">
        <ele>430.59999084473</ele>
        <time>2022-02-05T11:41:59.706Z</time>
      </trkpt>
      <trkpt lat="47.04558" lon="7.09166">
        <ele>430.59999084473</ele>
        <time>2022-02-05T11:42:04.533Z</time>
      </trkpt>
      <trkpt lat="47.04558" lon="7.09174">
        <ele>430.59999084473</ele>
        <time>2022-02-05T11:42:10.089Z</time>
      </trkpt>
      <trkpt lat="47.04559" lon="7.09174">
        <ele>430.59999084473</ele>
        <time>2022-02-05T11:42:10.955Z</time>
      </trkpt>
      <trkpt lat="47.04558" lon="7.09174">
        <ele>430.59999084473</ele>
        <time>2022-02-05T11:42:11.822Z</time>
      </trkpt>
      <trkpt lat="47.04558" lon="7.09178">
        <ele>430.69999694824</ele>
        <time>2022-02-05T11:42:15.966Z</time>
      </trkpt>
      <trkpt lat="47.0456" lon="7.09202">
        <ele>430.79998779297</ele>
        <time>2022-02-05T11:42:33.738Z</time>
      </trkpt>
      <trkpt lat="47.0456" lon="7.09211">
        <ele>430.89999389648</ele>
        <time>2022-02-05T11:42:41.026Z</time>
      </trkpt>
      <trkpt lat="47.04559" lon="7.0922">
        <ele>430.89999389648</ele>
        <time>2022-02-05T11:42:47.315Z</time>
      </trkpt>
      <trkpt lat="47.04558" lon="7.09229">
        <ele>431</ele>
        <time>2022-02-05T11:42:54.769Z</time>
      </trkpt>
      <trkpt lat="47.04543" lon="7.09289">
        <ele>431.29998779297</ele>
        <time>2022-02-05T11:43:41.970Z</time>
      </trkpt>
      <trkpt lat="47.04541" lon="7.09295">
        <ele>431.39999389648</ele>
        <time>2022-02-05T11:43:47.703Z</time>
      </trkpt>
      <trkpt lat="47.04537" lon="7.09315">
        <ele>431.39999389648</ele>
        <time>2022-02-05T11:44:02.170Z</time>
      </trkpt>
      <trkpt lat="47.0456" lon="7.09316">
        <ele>431.09999084473</ele>
        <time>2022-02-05T11:44:10.104Z</time>
      </trkpt>
      <trkpt lat="47.04592" lon="7.09318">
        <ele>430.89999389648</ele>
        <time>2022-02-05T11:44:39.825Z</time>
      </trkpt>
      <trkpt lat="47.04594" lon="7.09319">
        <ele>430.89999389648</ele>
        <time>2022-02-05T11:44:41.933Z</time>
      </trkpt>
      <trkpt lat="47.04596" lon="7.09325">
        <ele>430.89999389648</ele>
        <time>2022-02-05T11:44:46.580Z</time>
      </trkpt>
      <trkpt lat="47.046" lon="7.09356">
        <ele>430.09999084473</ele>
        <time>2022-02-05T11:44:52.241Z</time>
      </trkpt>
      <trkpt lat="47.04603" lon="7.09375">
        <ele>430</ele>
        <time>2022-02-05T11:44:57.146Z</time>
      </trkpt>
      <trkpt lat="47.04611" lon="7.09415">
        <ele>430</ele>
        <time>2022-02-05T11:45:26.064Z</time>
      </trkpt>
      <trkpt lat="47.04612" lon="7.09429">
        <ele>429.79998779297</ele>
        <time>2022-02-05T11:45:29.050Z</time>
      </trkpt>
      <trkpt lat="47.04613" lon="7.09435">
        <ele>430</ele>
        <time>2022-02-05T11:45:36.445Z</time>
      </trkpt>
      <trkpt lat="47.04615" lon="7.09442">
        <ele>429.89999389648</ele>
        <time>2022-02-05T11:45:38.084Z</time>
      </trkpt>
      <trkpt lat="47.04617" lon="7.09453">
        <ele>429.89999389648</ele>
        <time>2022-02-05T11:45:45.994Z</time>
      </trkpt>
      <trkpt lat="47.04623" lon="7.09485">
        <ele>430.09999084473</ele>
        <time>2022-02-05T11:46:10.957Z</time>
      </trkpt>
      <trkpt lat="47.04625" lon="7.09492">
        <ele>430</ele>
        <time>2022-02-05T11:46:12.628Z</time>
      </trkpt>
      <trkpt lat="47.04628" lon="7.095">
        <ele>429.79998779297</ele>
        <time>2022-02-05T11:46:14.321Z</time>
      </trkpt>
      <trkpt lat="47.04629" lon="7.09507">
        <ele>429.89999389648</ele>
        <time>2022-02-05T11:46:20.483Z</time>
      </trkpt>
      <trkpt lat="47.04631" lon="7.09519">
        <ele>430</ele>
        <time>2022-02-05T11:46:30.056Z</time>
      </trkpt>
      <trkpt lat="47.04632" lon="7.09528">
        <ele>430.19999694824</ele>
        <time>2022-02-05T11:46:38.963Z</time>
      </trkpt>
      <trkpt lat="47.04642" lon="7.09568">
        <ele>429.89999389648</ele>
        <time>2022-02-05T11:46:49.337Z</time>
      </trkpt>
      <trkpt lat="47.04645" lon="7.09578">
        <ele>430</ele>
        <time>2022-02-05T11:46:57.948Z</time>
      </trkpt>
      <trkpt lat="47.04647" lon="7.09585">
        <ele>429.89999389648</ele>
        <time>2022-02-05T11:46:59.587Z</time>
      </trkpt>
      <trkpt lat="47.04648" lon="7.0959">
        <ele>430.09999084473</ele>
        <time>2022-02-05T11:47:06.163Z</time>
      </trkpt>
      <trkpt lat="47.04649" lon="7.09597">
        <ele>430.09999084473</ele>
        <time>2022-02-05T11:47:11.183Z</time>
      </trkpt>
      <trkpt lat="47.0465" lon="7.09607">
        <ele>429.79998779297</ele>
        <time>2022-02-05T11:47:12.888Z</time>
      </trkpt>
      <trkpt lat="47.04652" lon="7.09624">
        <ele>430</ele>
        <time>2022-02-05T11:47:27.013Z</time>
      </trkpt>
      <trkpt lat="47.04653" lon="7.09636">
        <ele>430</ele>
        <time>2022-02-05T11:47:35.351Z</time>
      </trkpt>
      <trkpt lat="47.04656" lon="7.09653">
        <ele>430.19999694824</ele>
        <time>2022-02-05T11:47:49.678Z</time>
      </trkpt>
      <trkpt lat="47.04659" lon="7.09669">
        <ele>430.29998779297</ele>
        <time>2022-02-05T11:48:02.203Z</time>
      </trkpt>
      <trkpt lat="47.0466" lon="7.0968">
        <ele>430.29998779297</ele>
        <time>2022-02-05T11:48:09.919Z</time>
      </trkpt>
      <trkpt lat="47.0466" lon="7.09688">
        <ele>430.39999389648</ele>
        <time>2022-02-05T11:48:16.593Z</time>
      </trkpt>
      <trkpt lat="47.0466" lon="7.09693">
        <ele>430.39999389648</ele>
        <time>2022-02-05T11:48:20.054Z</time>
      </trkpt>
      <trkpt lat="47.04658" lon="7.09701">
        <ele>430.19999694824</ele>
        <time>2022-02-05T11:48:21.597Z</time>
      </trkpt>
      <trkpt lat="47.04657" lon="7.09711">
        <ele>430.5</ele>
        <time>2022-02-05T11:48:33.243Z</time>
      </trkpt>
      <trkpt lat="47.04656" lon="7.09725">
        <ele>430.59999084473</ele>
        <time>2022-02-05T11:48:44.068Z</time>
      </trkpt>
      <trkpt lat="47.04654" lon="7.09741">
        <ele>430.79998779297</ele>
        <time>2022-02-05T11:48:57.517Z</time>
      </trkpt>
      <trkpt lat="47.04652" lon="7.09756">
        <ele>430.69999694824</ele>
        <time>2022-02-05T11:49:01.273Z</time>
      </trkpt>
      <trkpt lat="47.04651" lon="7.09768">
        <ele>430.79998779297</ele>
        <time>2022-02-05T11:49:10.668Z</time>
      </trkpt>
      <trkpt lat="47.0465" lon="7.09779">
        <ele>430.69999694824</ele>
        <time>2022-02-05T11:49:13.285Z</time>
      </trkpt>
      <trkpt lat="47.04648" lon="7.09797">
        <ele>430.59999084473</ele>
        <time>2022-02-05T11:49:17.831Z</time>
      </trkpt>
      <trkpt lat="47.04649" lon="7.098">
        <ele>430.59999084473</ele>
        <time>2022-02-05T11:49:20.154Z</time>
      </trkpt>
      <trkpt lat="47.04649" lon="7.09813">
        <ele>430.69999694824</ele>
        <time>2022-02-05T11:49:30.208Z</time>
      </trkpt>
      <trkpt lat="47.04649" lon="7.09818">
        <ele>430.5</ele>
        <time>2022-02-05T11:49:30.949Z</time>
      </trkpt>
      <trkpt lat="47.04646" lon="7.09826">
        <ele>430.5</ele>
        <time>2022-02-05T11:49:37.314Z</time>
      </trkpt>
      <trkpt lat="47.04639" lon="7.09845">
        <ele>430.69999694824</ele>
        <time>2022-02-05T11:49:54.365Z</time>
      </trkpt>
      <trkpt lat="47.04632" lon="7.09847">
        <ele>430.59999084473</ele>
        <time>2022-02-05T11:49:56.788Z</time>
      </trkpt>
      <trkpt lat="47.04605" lon="7.09856">
        <ele>430.59999084473</ele>
        <time>2022-02-05T11:50:24.976Z</time>
      </trkpt>
      <trkpt lat="47.04601" lon="7.09858">
        <ele>430.69999694824</ele>
        <time>2022-02-05T11:50:30.413Z</time>
      </trkpt>
      <trkpt lat="47.04602" lon="7.09858">
        <ele>430.69999694824</ele>
        <time>2022-02-05T11:50:31.053Z</time>
      </trkpt>
      <trkpt lat="47.04601" lon="7.09858">
        <ele>430.69999694824</ele>
        <time>2022-02-05T11:50:31.692Z</time>
      </trkpt>
      <trkpt lat="47.04589" lon="7.09861">
        <ele>430.79998779297</ele>
        <time>2022-02-05T11:50:45.103Z</time>
      </trkpt>
      <trkpt lat="47.04581" lon="7.09864">
        <ele>430.89999389648</ele>
        <time>2022-02-05T11:50:54.524Z</time>
      </trkpt>
      <trkpt lat="47.04551" lon="7.09875">
        <ele>431.29998779297</ele>
        <time>2022-02-05T11:51:30.160Z</time>
      </trkpt>
      <trkpt lat="47.04541" lon="7.09878">
        <ele>431.5</ele>
        <time>2022-02-05T11:51:42.783Z</time>
      </trkpt>
      <trkpt lat="47.04526" lon="7.0988">
        <ele>431.89999389648</ele>
        <time>2022-02-05T11:52:03.010Z</time>
      </trkpt>
      <trkpt lat="47.04519" lon="7.09881">
        <ele>432.29998779297</ele>
        <time>2022-02-05T11:52:16.102Z</time>
      </trkpt>
      <trkpt lat="47.04511" lon="7.09873">
        <ele>432.19999694824</ele>
        <time>2022-02-05T11:52:19.530Z</time>
      </trkpt>
      <trkpt lat="47.04506" lon="7.09865">
        <ele>432.5</ele>
        <time>2022-02-05T11:52:31.510Z</time>
      </trkpt>
      <trkpt lat="47.04487" lon="7.09809">
        <ele>432.5</ele>
        <time>2022-02-05T11:53:14.752Z</time>
      </trkpt>
      <trkpt lat="47.04494" lon="7.09831">
        <ele>432.5</ele>
        <time>2022-02-05T11:53:31.510Z</time>
      </trkpt>
      <trkpt lat="47.04495" lon="7.09832">
        <ele>432.5</ele>
        <time>2022-02-05T11:53:32.574Z</time>
      </trkpt>
      <trkpt lat="47.04494" lon="7.09831">
        <ele>432.5</ele>
        <time>2022-02-05T11:53:33.639Z</time>
      </trkpt>
      <trkpt lat="47.04487" lon="7.09809">
        <ele>432.5</ele>
        <time>2022-02-05T11:53:50.397Z</time>
      </trkpt>
      <trkpt lat="47.04481" lon="7.09791">
        <ele>432.59999084473</ele>
        <time>2022-02-05T11:54:05.252Z</time>
      </trkpt>
      <trkpt lat="47.04473" lon="7.09766">
        <ele>432.69999694824</ele>
        <time>2022-02-05T11:54:25.393Z</time>
      </trkpt>
      <trkpt lat="47.04465" lon="7.09737">
        <ele>432.89999389648</ele>
        <time>2022-02-05T11:54:49.019Z</time>
      </trkpt>
      <trkpt lat="47.04459" lon="7.09714">
        <ele>433.39999389648</ele>
        <time>2022-02-05T11:55:12.531Z</time>
      </trkpt>
      <trkpt lat="47.04456" lon="7.09703">
        <ele>433.69999694824</ele>
        <time>2022-02-05T11:55:24.917Z</time>
      </trkpt>
      <trkpt lat="47.04455" lon="7.09696">
        <ele>433.69999694824</ele>
        <time>2022-02-05T11:55:29.937Z</time>
      </trkpt>
      <trkpt lat="47.04448" lon="7.09695">
        <ele>433.79998779297</ele>
        <time>2022-02-05T11:55:38.161Z</time>
      </trkpt>
      <trkpt lat="47.0441" lon="7.09685">
        <ele>433.79998779297</ele>
        <time>2022-02-05T11:56:17.364Z</time>
      </trkpt>
      <trkpt lat="47.04398" lon="7.09683">
        <ele>433.69999694824</ele>
        <time>2022-02-05T11:56:21.779Z</time>
      </trkpt>
      <trkpt lat="47.04393" lon="7.09682">
        <ele>433.79998779297</ele>
        <time>2022-02-05T11:56:28.082Z</time>
      </trkpt>
      <trkpt lat="47.04393" lon="7.09682">
        <ele>433.79998779297</ele>
        <time>2022-02-05T11:56:28.614Z</time>
      </trkpt>
      <trkpt lat="47.04393" lon="7.09682">
        <ele>433.79998779297</ele>
        <time>2022-02-05T11:56:29.146Z</time>
      </trkpt>
      <trkpt lat="47.04387" lon="7.09681">
        <ele>433.89999389648</ele>
        <time>2022-02-05T11:56:36.319Z</time>
      </trkpt>
      <trkpt lat="47.04382" lon="7.0968">
        <ele>433.79998779297</ele>
        <time>2022-02-05T11:56:37.934Z</time>
      </trkpt>
      <trkpt lat="47.04374" lon="7.0968">
        <ele>433.69999694824</ele>
        <time>2022-02-05T11:56:40.709Z</time>
      </trkpt>
      <trkpt lat="47.04363" lon="7.09681">
        <ele>433.89999389648</ele>
        <time>2022-02-05T11:56:54.106Z</time>
      </trkpt>
      <trkpt lat="47.04349" lon="7.09682">
        <ele>433.59999084473</ele>
        <time>2022-02-05T11:56:58.478Z</time>
      </trkpt>
      <trkpt lat="47.04341" lon="7.09684">
        <ele>433.69999694824</ele>
        <time>2022-02-05T11:57:07.771Z</time>
      </trkpt>
      <trkpt lat="47.0433" lon="7.09689">
        <ele>433.59999084473</ele>
        <time>2022-02-05T11:57:11.949Z</time>
      </trkpt>
      <trkpt lat="47.04319" lon="7.09696">
        <ele>433.39999389648</ele>
        <time>2022-02-05T11:57:15.913Z</time>
      </trkpt>
      <trkpt lat="47.04306" lon="7.09704">
        <ele>433.29998779297</ele>
        <time>2022-02-05T11:57:28.839Z</time>
      </trkpt>
      <trkpt lat="47.04302" lon="7.09707">
        <ele>433.39999389648</ele>
        <time>2022-02-05T11:57:34.543Z</time>
      </trkpt>
      <trkpt lat="47.04303" lon="7.09708">
        <ele>433.39999389648</ele>
        <time>2022-02-05T11:57:35.255Z</time>
      </trkpt>
      <trkpt lat="47.04302" lon="7.09707">
        <ele>433.39999389648</ele>
        <time>2022-02-05T11:57:35.967Z</time>
      </trkpt>
      <trkpt lat="47.04272" lon="7.09729">
        <ele>433.39999389648</ele>
        <time>2022-02-05T11:58:09.981Z</time>
      </trkpt>
      <trkpt lat="47.0426" lon="7.09737">
        <ele>433.69999694824</ele>
        <time>2022-02-05T11:58:26.947Z</time>
      </trkpt>
      <trkpt lat="47.04255" lon="7.09727">
        <ele>433.69999694824</ele>
        <time>2022-02-05T11:58:35.574Z</time>
      </trkpt>
      <trkpt lat="47.0425" lon="7.09718">
        <ele>433.79998779297</ele>
        <time>2022-02-05T11:58:44.659Z</time>
      </trkpt>
      <trkpt lat="47.0425" lon="7.09718">
        <ele>433.79998779297</ele>
        <time>2022-02-05T11:58:44.863Z</time>
      </trkpt>
      <trkpt lat="47.0425" lon="7.09718">
        <ele>433.79998779297</ele>
        <time>2022-02-05T11:58:45.067Z</time>
      </trkpt>
      <trkpt lat="47.04245" lon="7.0971">
        <ele>433.89999389648</ele>
        <time>2022-02-05T11:58:53.620Z</time>
      </trkpt>
      <trkpt lat="47.04235" lon="7.09695">
        <ele>434</ele>
        <time>2022-02-05T11:59:09.193Z</time>
      </trkpt>
      <trkpt lat="47.04232" lon="7.09691">
        <ele>434</ele>
        <time>2022-02-05T11:59:13.262Z</time>
      </trkpt>
      <trkpt lat="47.04222" lon="7.09678">
        <ele>433.89999389648</ele>
        <time>2022-02-05T11:59:18.237Z</time>
      </trkpt>
      <trkpt lat="47.04211" lon="7.09664">
        <ele>434.19999694824</ele>
        <time>2022-02-05T11:59:36.417Z</time>
      </trkpt>
      <trkpt lat="47.04204" lon="7.09658">
        <ele>434.09999084473</ele>
        <time>2022-02-05T11:59:39.246Z</time>
      </trkpt>
      <trkpt lat="47.04195" lon="7.09649">
        <ele>434.29998779297</ele>
        <time>2022-02-05T11:59:52.521Z</time>
      </trkpt>
      <trkpt lat="47.04195" lon="7.09649">
        <ele>434.59999084473</ele>
        <time>2022-02-05T11:59:52.521Z</time>
      </trkpt>
      <trkpt lat="47.04195" lon="7.09649">
        <ele>434.59999084473</ele>
        <time>2022-02-05T11:59:52.795Z</time>
      </trkpt>
      <trkpt lat="47.04195" lon="7.09649">
        <ele>434.59999084473</ele>
        <time>2022-02-05T11:59:53.069Z</time>
      </trkpt>
      <trkpt lat="47.04184" lon="7.09638">
        <ele>434.89999389648</ele>
        <time>2022-02-05T12:00:10.154Z</time>
      </trkpt>
      <trkpt lat="47.04178" lon="7.09633">
        <ele>435.39999389648</ele>
        <time>2022-02-05T12:00:24.473Z</time>
      </trkpt>
      <trkpt lat="47.04173" lon="7.09631">
        <ele>435.19999694824</ele>
        <time>2022-02-05T12:00:25.829Z</time>
      </trkpt>
      <trkpt lat="47.0417" lon="7.0963">
        <ele>435.59999084473</ele>
        <time>2022-02-05T12:00:37.383Z</time>
      </trkpt>
      <trkpt lat="47.04169" lon="7.09619">
        <ele>435.69999694824</ele>
        <time>2022-02-05T12:00:46.157Z</time>
      </trkpt>
      <trkpt lat="47.0417" lon="7.09611">
        <ele>436.09999084473</ele>
        <time>2022-02-05T12:00:57.607Z</time>
      </trkpt>
      <trkpt lat="47.0417" lon="7.09601">
        <ele>436.59999084473</ele>
        <time>2022-02-05T12:01:11.898Z</time>
      </trkpt>
      <trkpt lat="47.0417" lon="7.09592">
        <ele>436.79998779297</ele>
        <time>2022-02-05T12:01:20.826Z</time>
      </trkpt>
      <trkpt lat="47.04169" lon="7.09585">
        <ele>437.19999694824</ele>
        <time>2022-02-05T12:01:31.771Z</time>
      </trkpt>
      <trkpt lat="47.04167" lon="7.09578">
        <ele>437.59999084473</ele>
        <time>2022-02-05T12:01:42.941Z</time>
      </trkpt>
      <trkpt lat="47.04161" lon="7.09568">
        <ele>438.09999084473</ele>
        <time>2022-02-05T12:01:59.650Z</time>
      </trkpt>
      <trkpt lat="47.04155" lon="7.09562">
        <ele>438.29998779297</ele>
        <time>2022-02-05T12:02:09.506Z</time>
      </trkpt>
      <trkpt lat="47.04155" lon="7.09562">
        <ele>438.29998779297</ele>
        <time>2022-02-05T12:02:09.871Z</time>
      </trkpt>
      <trkpt lat="47.04155" lon="7.09562">
        <ele>438.29998779297</ele>
        <time>2022-02-05T12:02:10.237Z</time>
      </trkpt>
      <trkpt lat="47.04152" lon="7.09559">
        <ele>438.5</ele>
        <time>2022-02-05T12:02:16.889Z</time>
      </trkpt>
      <trkpt lat="47.04148" lon="7.09553">
        <ele>438.69999694824</ele>
        <time>2022-02-05T12:02:25.433Z</time>
      </trkpt>
      <trkpt lat="47.04147" lon="7.09549">
        <ele>439.09999084473</ele>
        <time>2022-02-05T12:02:36.992Z</time>
      </trkpt>
      <trkpt lat="47.04148" lon="7.09538">
        <ele>439.59999084473</ele>
        <time>2022-02-05T12:02:51.953Z</time>
      </trkpt>
      <trkpt lat="47.04151" lon="7.09525">
        <ele>440.59999084473</ele>
        <time>2022-02-05T12:03:18.431Z</time>
      </trkpt>
      <trkpt lat="47.04153" lon="7.09516">
        <ele>441.39999389648</ele>
        <time>2022-02-05T12:03:40.698Z</time>
      </trkpt>
      <trkpt lat="47.04158" lon="7.09507">
        <ele>442.79998779297</ele>
        <time>2022-02-05T12:04:11.683Z</time>
      </trkpt>
      <trkpt lat="47.04152" lon="7.095">
        <ele>442.89999389648</ele>
        <time>2022-02-05T12:04:20.590Z</time>
      </trkpt>
      <trkpt lat="47.04146" lon="7.09492">
        <ele>443.19999694824</ele>
        <time>2022-02-05T12:04:33.021Z</time>
      </trkpt>
      <trkpt lat="47.04138" lon="7.09483">
        <ele>443.89999389648</ele>
        <time>2022-02-05T12:04:53.573Z</time>
      </trkpt>
      <trkpt lat="47.04134" lon="7.0948">
        <ele>444.19999694824</ele>
        <time>2022-02-05T12:05:02.507Z</time>
      </trkpt>
      <trkpt lat="47.04134" lon="7.0948">
        <ele>444.19999694824</ele>
        <time>2022-02-05T12:05:02.915Z</time>
      </trkpt>
      <trkpt lat="47.04134" lon="7.0948">
        <ele>444.19999694824</ele>
        <time>2022-02-05T12:05:03.324Z</time>
      </trkpt>
      <trkpt lat="47.0413" lon="7.09477">
        <ele>444.39999389648</ele>
        <time>2022-02-05T12:05:11.056Z</time>
      </trkpt>
      <trkpt lat="47.0412" lon="7.09469">
        <ele>445.29998779297</ele>
        <time>2022-02-05T12:05:36.028Z</time>
      </trkpt>
      <trkpt lat="47.04106" lon="7.0946">
        <ele>446.79998779297</ele>
        <time>2022-02-05T12:06:15.675Z</time>
      </trkpt>
      <trkpt lat="47.04096" lon="7.09454">
        <ele>447.69999694824</ele>
        <time>2022-02-05T12:06:40.217Z</time>
      </trkpt>
      <trkpt lat="47.04085" lon="7.09449">
        <ele>448.69999694824</ele>
        <time>2022-02-05T12:07:07.177Z</time>
      </trkpt>
      <trkpt lat="47.04072" lon="7.09444">
        <ele>449.89999389648</ele>
        <time>2022-02-05T12:07:39.296Z</time>
      </trkpt>
      <trkpt lat="47.04064" lon="7.0944">
        <ele>450.5</ele>
        <time>2022-02-05T12:07:56.721Z</time>
      </trkpt>
      <trkpt lat="47.04054" lon="7.09434">
        <ele>451.19999694824</ele>
        <time>2022-02-05T12:08:17.967Z</time>
      </trkpt>
      <trkpt lat="47.04044" lon="7.09427">
        <ele>451.79998779297</ele>
        <time>2022-02-05T12:08:38.214Z</time>
      </trkpt>
      <trkpt lat="47.04015" lon="7.09404">
        <ele>454.39999389648</ele>
        <time>2022-02-05T12:09:50.433Z</time>
      </trkpt>
      <trkpt lat="47.04004" lon="7.09397">
        <ele>455.09999084473</ele>
        <time>2022-02-05T12:10:12.970Z</time>
      </trkpt>
      <trkpt lat="47.03987" lon="7.09388">
        <ele>455.5</ele>
        <time>2022-02-05T12:10:36.011Z</time>
      </trkpt>
      <trkpt lat="47.03965" lon="7.09377">
        <ele>455.69999694824</ele>
        <time>2022-02-05T12:11:01.629Z</time>
      </trkpt>
      <trkpt lat="47.03951" lon="7.09371">
        <ele>456.19999694824</ele>
        <time>2022-02-05T12:11:23.187Z</time>
      </trkpt>
      <trkpt lat="47.03938" lon="7.09362">
        <ele>456.5</ele>
        <time>2022-02-05T12:11:41.219Z</time>
      </trkpt>
      <trkpt lat="47.03923" lon="7.09352">
        <ele>457.09999084473</ele>
        <time>2022-02-05T12:12:06.372Z</time>
      </trkpt>
      <trkpt lat="47.03906" lon="7.09339">
        <ele>457.79998779297</ele>
        <time>2022-02-05T12:12:35.574Z</time>
      </trkpt>
      <trkpt lat="47.0389" lon="7.09326">
        <ele>458.29998779297</ele>
        <time>2022-02-05T12:13:00.412Z</time>
      </trkpt>
      <trkpt lat="47.03877" lon="7.09316">
        <ele>458.79998779297</ele>
        <time>2022-02-05T12:13:22.082Z</time>
      </trkpt>
      <trkpt lat="47.03871" lon="7.09313">
        <ele>459.19999694824</ele>
        <time>2022-02-05T12:13:34.430Z</time>
      </trkpt>
      <trkpt lat="47.03852" lon="7.09296">
        <ele>459.89999389648</ele>
        <time>2022-02-05T12:14:06.132Z</time>
      </trkpt>
      <trkpt lat="47.03844" lon="7.0929">
        <ele>459.59999084473</ele>
        <time>2022-02-05T12:14:08.595Z</time>
      </trkpt>
      <trkpt lat="47.03838" lon="7.09284">
        <ele>459.59999084473</ele>
        <time>2022-02-05T12:14:15.937Z</time>
      </trkpt>
      <trkpt lat="47.03828" lon="7.09276">
        <ele>459.39999389648</ele>
        <time>2022-02-05T12:14:19.643Z</time>
      </trkpt>
      <trkpt lat="47.03812" lon="7.09263">
        <ele>459.39999389648</ele>
        <time>2022-02-05T12:14:38.282Z</time>
      </trkpt>
      <trkpt lat="47.03808" lon="7.0926">
        <ele>459.5</ele>
        <time>2022-02-05T12:14:43.985Z</time>
      </trkpt>
      <trkpt lat="47.03808" lon="7.0926">
        <ele>459.5</ele>
        <time>2022-02-05T12:14:44.076Z</time>
      </trkpt>
      <trkpt lat="47.03808" lon="7.0926">
        <ele>459.5</ele>
        <time>2022-02-05T12:14:44.167Z</time>
      </trkpt>
      <trkpt lat="47.03786" lon="7.09244">
        <ele>459.59999084473</ele>
        <time>2022-02-05T12:15:10.042Z</time>
      </trkpt>
      <trkpt lat="47.03779" lon="7.09236">
        <ele>459.69999694824</ele>
        <time>2022-02-05T12:15:20.170Z</time>
      </trkpt>
      <trkpt lat="47.03772" lon="7.09228">
        <ele>459.79998779297</ele>
        <time>2022-02-05T12:15:30.172Z</time>
      </trkpt>
      <trkpt lat="47.03763" lon="7.09217">
        <ele>459.89999389648</ele>
        <time>2022-02-05T12:15:43.098Z</time>
      </trkpt>
      <trkpt lat="47.03755" lon="7.09204">
        <ele>460.29998779297</ele>
        <time>2022-02-05T12:16:00.605Z</time>
      </trkpt>
      <trkpt lat="47.0375" lon="7.09198">
        <ele>460.29998779297</ele>
        <time>2022-02-05T12:16:07.147Z</time>
      </trkpt>
      <trkpt lat="47.03744" lon="7.09192">
        <ele>460.39999389648</ele>
        <time>2022-02-05T12:16:15.555Z</time>
      </trkpt>
      <trkpt lat="47.03737" lon="7.09186">
        <ele>460.5</ele>
        <time>2022-02-05T12:16:24.870Z</time>
      </trkpt>
      <trkpt lat="47.03729" lon="7.09181">
        <ele>460.59999084473</ele>
        <time>2022-02-05T12:16:34.747Z</time>
      </trkpt>
      <trkpt lat="47.03721" lon="7.09178">
        <ele>461</ele>
        <time>2022-02-05T12:16:49.275Z</time>
      </trkpt>
      <trkpt lat="47.03712" lon="7.09175">
        <ele>461.09999084473</ele>
        <time>2022-02-05T12:16:59.681Z</time>
      </trkpt>
      <trkpt lat="47.03701" lon="7.09173">
        <ele>461.19999694824</ele>
        <time>2022-02-05T12:17:11.936Z</time>
      </trkpt>
      <trkpt lat="47.03692" lon="7.09171">
        <ele>461.5</ele>
        <time>2022-02-05T12:17:25.184Z</time>
      </trkpt>
      <trkpt lat="47.03682" lon="7.09168">
        <ele>461.79998779297</ele>
        <time>2022-02-05T12:17:39.360Z</time>
      </trkpt>
      <trkpt lat="47.03668" lon="7.09163">
        <ele>462.29998779297</ele>
        <time>2022-02-05T12:18:00.786Z</time>
      </trkpt>
      <trkpt lat="47.03657" lon="7.09157">
        <ele>462.69999694824</ele>
        <time>2022-02-05T12:18:18.107Z</time>
      </trkpt>
      <trkpt lat="47.03643" lon="7.09149">
        <ele>463.39999389648</ele>
        <time>2022-02-05T12:18:44.251Z</time>
      </trkpt>
      <trkpt lat="47.0363" lon="7.09141">
        <ele>464.29998779297</ele>
        <time>2022-02-05T12:19:11.782Z</time>
      </trkpt>
      <trkpt lat="47.03622" lon="7.09135">
        <ele>464.89999389648</ele>
        <time>2022-02-05T12:19:29.732Z</time>
      </trkpt>
      <trkpt lat="47.03611" lon="7.09127">
        <ele>466.19999694824</ele>
        <time>2022-02-05T12:20:04.137Z</time>
      </trkpt>
      <trkpt lat="47.03604" lon="7.09124">
        <ele>466.29998779297</ele>
        <time>2022-02-05T12:20:12.542Z</time>
      </trkpt>
      <trkpt lat="47.03597" lon="7.09119">
        <ele>465.69999694824</ele>
        <time>2022-02-05T12:20:14.290Z</time>
      </trkpt>
      <trkpt lat="47.03588" lon="7.09111">
        <ele>465.29998779297</ele>
        <time>2022-02-05T12:20:17.039Z</time>
      </trkpt>
      <trkpt lat="47.03579" lon="7.09101">
        <ele>464.89999389648</ele>
        <time>2022-02-05T12:20:20.060Z</time>
      </trkpt>
      <trkpt lat="47.03571" lon="7.09092">
        <ele>464.29998779297</ele>
        <time>2022-02-05T12:20:22.227Z</time>
      </trkpt>
      <trkpt lat="47.03555" lon="7.09074">
        <ele>463.69999694824</ele>
        <time>2022-02-05T12:20:27.975Z</time>
      </trkpt>
      <trkpt lat="47.03549" lon="7.09064">
        <ele>463.5</ele>
        <time>2022-02-05T12:20:30.763Z</time>
      </trkpt>
      <trkpt lat="47.03541" lon="7.0905">
        <ele>463.09999084473</ele>
        <time>2022-02-05T12:20:34.205Z</time>
      </trkpt>
      <trkpt lat="47.03531" lon="7.09032">
        <ele>462.59999084473</ele>
        <time>2022-02-05T12:20:38.611Z</time>
      </trkpt>
      <trkpt lat="47.03523" lon="7.09017">
        <ele>462.5</ele>
        <time>2022-02-05T12:20:43.415Z</time>
      </trkpt>
      <trkpt lat="47.03515" lon="7.08999">
        <ele>462.29998779297</ele>
        <time>2022-02-05T12:20:48.424Z</time>
      </trkpt>
      <trkpt lat="47.03507" lon="7.08983">
        <ele>462</ele>
        <time>2022-02-05T12:20:52.586Z</time>
      </trkpt>
      <trkpt lat="47.03498" lon="7.08963">
        <ele>461.59999084473</ele>
        <time>2022-02-05T12:20:57.472Z</time>
      </trkpt>
      <trkpt lat="47.03491" lon="7.08952">
        <ele>461.39999389648</ele>
        <time>2022-02-05T12:21:00.748Z</time>
      </trkpt>
      <trkpt lat="47.03492" lon="7.08952">
        <ele>461.39999389648</ele>
        <time>2022-02-05T12:21:01.479Z</time>
      </trkpt>
      <trkpt lat="47.03491" lon="7.08952">
        <ele>461.39999389648</ele>
        <time>2022-02-05T12:21:02.210Z</time>
      </trkpt>
      <trkpt lat="47.0349" lon="7.0895">
        <ele>461.19999694824</ele>
        <time>2022-02-05T12:21:02.599Z</time>
      </trkpt>
      <trkpt lat="47.03484" lon="7.08938">
        <ele>460.79998779297</ele>
        <time>2022-02-05T12:21:05.192Z</time>
      </trkpt>
      <trkpt lat="47.03476" lon="7.08926">
        <ele>460.19999694824</ele>
        <time>2022-02-05T12:21:07.830Z</time>
      </trkpt>
      <trkpt lat="47.03469" lon="7.08916">
        <ele>459.5</ele>
        <time>2022-02-05T12:21:09.998Z</time>
      </trkpt>
      <trkpt lat="47.0346" lon="7.08905">
        <ele>458.89999389648</ele>
        <time>2022-02-05T12:21:12.715Z</time>
      </trkpt>
      <trkpt lat="47.03456" lon="7.08901">
        <ele>458.79998779297</ele>
        <time>2022-02-05T12:21:14.232Z</time>
      </trkpt>
      <trkpt lat="47.03451" lon="7.08895">
        <ele>458.59999084473</ele>
        <time>2022-02-05T12:21:16.040Z</time>
      </trkpt>
      <trkpt lat="47.0344" lon="7.08885">
        <ele>458</ele>
        <time>2022-02-05T12:21:19.173Z</time>
      </trkpt>
      <trkpt lat="47.03426" lon="7.08871">
        <ele>458.09999084473</ele>
        <time>2022-02-05T12:21:37.347Z</time>
      </trkpt>
      <trkpt lat="47.03415" lon="7.0886">
        <ele>457.79998779297</ele>
        <time>2022-02-05T12:21:41.434Z</time>
      </trkpt>
      <trkpt lat="47.03406" lon="7.08852">
        <ele>458</ele>
        <time>2022-02-05T12:21:54.351Z</time>
      </trkpt>
      <trkpt lat="47.03401" lon="7.08846">
        <ele>458.09999084473</ele>
        <time>2022-02-05T12:22:01.990Z</time>
      </trkpt>
      <trkpt lat="47.03395" lon="7.08838">
        <ele>458.39999389648</ele>
        <time>2022-02-05T12:22:14.466Z</time>
      </trkpt>
      <trkpt lat="47.03391" lon="7.08831">
        <ele>458.79998779297</ele>
        <time>2022-02-05T12:22:26.679Z</time>
      </trkpt>
      <trkpt lat="47.03385" lon="7.0882">
        <ele>459.09999084473</ele>
        <time>2022-02-05T12:22:40.332Z</time>
      </trkpt>
      <trkpt lat="47.03379" lon="7.08808">
        <ele>459.59999084473</ele>
        <time>2022-02-05T12:22:58.201Z</time>
      </trkpt>
      <trkpt lat="47.03372" lon="7.08796">
        <ele>459.79998779297</ele>
        <time>2022-02-05T12:23:11.440Z</time>
      </trkpt>
      <trkpt lat="47.03352" lon="7.08765">
        <ele>461.5</ele>
        <time>2022-02-05T12:24:06.138Z</time>
      </trkpt>
      <trkpt lat="47.03341" lon="7.08748">
        <ele>462.39999389648</ele>
        <time>2022-02-05T12:24:35.704Z</time>
      </trkpt>
      <trkpt lat="47.03336" lon="7.0874">
        <ele>462.89999389648</ele>
        <time>2022-02-05T12:24:50.531Z</time>
      </trkpt>
      <trkpt lat="47.03332" lon="7.08735">
        <ele>463.29998779297</ele>
        <time>2022-02-05T12:25:01.813Z</time>
      </trkpt>
      <trkpt lat="47.03324" lon="7.08726">
        <ele>463</ele>
        <time>2022-02-05T12:25:04.667Z</time>
      </trkpt>
      <trkpt lat="47.03296" lon="7.08694">
        <ele>461.59999084473</ele>
        <time>2022-02-05T12:25:13.807Z</time>
      </trkpt>
      <trkpt lat="47.03291" lon="7.08687">
        <ele>461.5</ele>
        <time>2022-02-05T12:25:16.123Z</time>
      </trkpt>
      <trkpt lat="47.03284" lon="7.08679">
        <ele>461.69999694824</ele>
        <time>2022-02-05T12:25:27.555Z</time>
      </trkpt>
      <trkpt lat="47.03276" lon="7.08666">
        <ele>461.69999694824</ele>
        <time>2022-02-05T12:25:39.635Z</time>
      </trkpt>
      <trkpt lat="47.03269" lon="7.08655">
        <ele>461.69999694824</ele>
        <time>2022-02-05T12:25:50.091Z</time>
      </trkpt>
      <trkpt lat="47.0326" lon="7.08641">
        <ele>461.69999694824</ele>
        <time>2022-02-05T12:26:03.386Z</time>
      </trkpt>
      <trkpt lat="47.0325" lon="7.08625">
        <ele>461.5</ele>
        <time>2022-02-05T12:26:08.455Z</time>
      </trkpt>
      <trkpt lat="47.03217" lon="7.08567">
        <ele>461.79998779297</ele>
        <time>2022-02-05T12:27:03.677Z</time>
      </trkpt>
      <trkpt lat="47.03218" lon="7.08567">
        <ele>461.79998779297</ele>
        <time>2022-02-05T12:27:04.431Z</time>
      </trkpt>
      <trkpt lat="47.03217" lon="7.08567">
        <ele>461.79998779297</ele>
        <time>2022-02-05T12:27:05.184Z</time>
      </trkpt>
      <trkpt lat="47.03208" lon="7.0855">
        <ele>462.09999084473</ele>
        <time>2022-02-05T12:27:23.518Z</time>
      </trkpt>
      <trkpt lat="47.03194" lon="7.08527">
        <ele>462.29998779297</ele>
        <time>2022-02-05T12:27:46.877Z</time>
      </trkpt>
      <trkpt lat="47.03176" lon="7.08493">
        <ele>462.79998779297</ele>
        <time>2022-02-05T12:28:22.241Z</time>
      </trkpt>
      <trkpt lat="47.03163" lon="7.08467">
        <ele>462.69999694824</ele>
        <time>2022-02-05T12:28:43.109Z</time>
      </trkpt>
      <trkpt lat="47.03154" lon="7.08449">
        <ele>462.09999084473</ele>
        <time>2022-02-05T12:28:47.011Z</time>
      </trkpt>
      <trkpt lat="47.03147" lon="7.08435">
        <ele>461.5</ele>
        <time>2022-02-05T12:28:49.780Z</time>
      </trkpt>
      <trkpt lat="47.03143" lon="7.08429">
        <ele>461.39999389648</ele>
        <time>2022-02-05T12:28:51.642Z</time>
      </trkpt>
      <trkpt lat="47.0314" lon="7.08424">
        <ele>461.29998779297</ele>
        <time>2022-02-05T12:28:53.036Z</time>
      </trkpt>
      <trkpt lat="47.03136" lon="7.0842">
        <ele>461.19999694824</ele>
        <time>2022-02-05T12:28:54.553Z</time>
      </trkpt>
      <trkpt lat="47.0313" lon="7.08416">
        <ele>460.69999694824</ele>
        <time>2022-02-05T12:28:56.025Z</time>
      </trkpt>
      <trkpt lat="47.03124" lon="7.08412">
        <ele>460.5</ele>
        <time>2022-02-05T12:28:57.871Z</time>
      </trkpt>
      <trkpt lat="47.03121" lon="7.08409">
        <ele>460.39999389648</ele>
        <time>2022-02-05T12:28:58.947Z</time>
      </trkpt>
      <trkpt lat="47.03117" lon="7.08404">
        <ele>460.29998779297</ele>
        <time>2022-02-05T12:29:00.615Z</time>
      </trkpt>
      <trkpt lat="47.03115" lon="7.08399">
        <ele>460.09999084473</ele>
        <time>2022-02-05T12:29:01.531Z</time>
      </trkpt>
      <trkpt lat="47.03111" lon="7.0839">
        <ele>460</ele>
        <time>2022-02-05T12:29:04.041Z</time>
      </trkpt>
      <trkpt lat="47.03089" lon="7.08307">
        <ele>460.69999694824</ele>
        <time>2022-02-05T12:30:12.982Z</time>
      </trkpt>
      <trkpt lat="47.03086" lon="7.08299">
        <ele>460.69999694824</ele>
        <time>2022-02-05T12:30:19.303Z</time>
      </trkpt>
      <trkpt lat="47.03084" lon="7.08295">
        <ele>460.59999084473</ele>
        <time>2022-02-05T12:30:20.249Z</time>
      </trkpt>
      <trkpt lat="47.03081" lon="7.0829">
        <ele>460.59999084473</ele>
        <time>2022-02-05T12:30:24.908Z</time>
      </trkpt>
      <trkpt lat="47.03077" lon="7.08287">
        <ele>460.59999084473</ele>
        <time>2022-02-05T12:30:29.522Z</time>
      </trkpt>
      <trkpt lat="47.03071" lon="7.08282">
        <ele>460.59999084473</ele>
        <time>2022-02-05T12:30:36.475Z</time>
      </trkpt>
      <trkpt lat="47.03067" lon="7.08287">
        <ele>460.29998779297</ele>
        <time>2022-02-05T12:30:37.644Z</time>
      </trkpt>
      <trkpt lat="47.0306" lon="7.08279">
        <ele>460.79998779297</ele>
        <time>2022-02-05T12:30:54.033Z</time>
      </trkpt>
      <trkpt lat="47.03052" lon="7.08268">
        <ele>461.09999084473</ele>
        <time>2022-02-05T12:31:08.918Z</time>
      </trkpt>
      <trkpt lat="47.03044" lon="7.0826">
        <ele>461.29998779297</ele>
        <time>2022-02-05T12:31:21.109Z</time>
      </trkpt>
      <trkpt lat="47.03036" lon="7.08251">
        <ele>461.69999694824</ele>
        <time>2022-02-05T12:31:37.134Z</time>
      </trkpt>
      <trkpt lat="47.03029" lon="7.08245">
        <ele>462.5</ele>
        <time>2022-02-05T12:31:58.279Z</time>
      </trkpt>
      <trkpt lat="47.03024" lon="7.08242">
        <ele>463.09999084473</ele>
        <time>2022-02-05T12:32:14.300Z</time>
      </trkpt>
      <trkpt lat="47.03019" lon="7.08241">
        <ele>463.5</ele>
        <time>2022-02-05T12:32:25.422Z</time>
      </trkpt>
      <trkpt lat="47.03015" lon="7.0824">
        <ele>463.89999389648</ele>
        <time>2022-02-05T12:32:35.988Z</time>
      </trkpt>
      <trkpt lat="47.0301" lon="7.08242">
        <ele>464.39999389648</ele>
        <time>2022-02-05T12:32:49.230Z</time>
      </trkpt>
      <trkpt lat="47.03005" lon="7.08244">
        <ele>464.39999389648</ele>
        <time>2022-02-05T12:32:54.526Z</time>
      </trkpt>
      <trkpt lat="47.03004" lon="7.08237">
        <ele>464.69999694824</ele>
        <time>2022-02-05T12:33:03.850Z</time>
      </trkpt>
      <trkpt lat="47.03002" lon="7.08229">
        <ele>465</ele>
        <time>2022-02-05T12:33:14.289Z</time>
      </trkpt>
      <trkpt lat="47.02998" lon="7.08216">
        <ele>465.69999694824</ele>
        <time>2022-02-05T12:33:34.461Z</time>
      </trkpt>
      <trkpt lat="47.02994" lon="7.08202">
        <ele>466.39999389648</ele>
        <time>2022-02-05T12:33:55.272Z</time>
      </trkpt>
      <trkpt lat="47.02991" lon="7.08193">
        <ele>467</ele>
        <time>2022-02-05T12:34:11.420Z</time>
      </trkpt>
      <trkpt lat="47.02991" lon="7.08193">
        <ele>467</ele>
        <time>2022-02-05T12:34:11.797Z</time>
      </trkpt>
      <trkpt lat="47.02991" lon="7.08193">
        <ele>467</ele>
        <time>2022-02-05T12:34:12.173Z</time>
      </trkpt>
      <trkpt lat="47.02987" lon="7.08181">
        <ele>467.59999084473</ele>
        <time>2022-02-05T12:34:30.187Z</time>
      </trkpt>
      <trkpt lat="47.02974" lon="7.08145">
        <ele>469.59999084473</ele>
        <time>2022-02-05T12:35:27.825Z</time>
      </trkpt>
      <trkpt lat="47.02978" lon="7.0814">
        <ele>469.79998779297</ele>
        <time>2022-02-05T12:35:36.045Z</time>
      </trkpt>
      <trkpt lat="47.02982" lon="7.08134">
        <ele>470</ele>
        <time>2022-02-05T12:35:44.589Z</time>
      </trkpt>
      <trkpt lat="47.02985" lon="7.08127">
        <ele>470.09999084473</ele>
        <time>2022-02-05T12:35:51.392Z</time>
      </trkpt>
      <trkpt lat="47.02987" lon="7.08118">
        <ele>470.09999084473</ele>
        <time>2022-02-05T12:35:58.018Z</time>
      </trkpt>
      <trkpt lat="47.02989" lon="7.08111">
        <ele>469.79998779297</ele>
        <time>2022-02-05T12:35:59.141Z</time>
      </trkpt>
      <trkpt lat="47.02989" lon="7.08104">
        <ele>469.69999694824</ele>
        <time>2022-02-05T12:36:00.626Z</time>
      </trkpt>
      <trkpt lat="47.02989" lon="7.08097">
        <ele>469.5</ele>
        <time>2022-02-05T12:36:01.820Z</time>
      </trkpt>
      <trkpt lat="47.02988" lon="7.08081">
        <ele>469.39999389648</ele>
        <time>2022-02-05T12:36:05.801Z</time>
      </trkpt>
      <trkpt lat="47.02987" lon="7.08069">
        <ele>469.19999694824</ele>
        <time>2022-02-05T12:36:08.275Z</time>
      </trkpt>
      <trkpt lat="47.02987" lon="7.08062">
        <ele>469.09999084473</ele>
        <time>2022-02-05T12:36:09.759Z</time>
      </trkpt>
      <trkpt lat="47.02988" lon="7.08056">
        <ele>469</ele>
        <time>2022-02-05T12:36:11.047Z</time>
      </trkpt>
      <trkpt lat="47.0299" lon="7.08051">
        <ele>468.89999389648</ele>
        <time>2022-02-05T12:36:12.218Z</time>
      </trkpt>
      <trkpt lat="47.02996" lon="7.0804">
        <ele>468.89999389648</ele>
        <time>2022-02-05T12:36:21.945Z</time>
      </trkpt>
      <trkpt lat="47.03004" lon="7.08025">
        <ele>468.89999389648</ele>
        <time>2022-02-05T12:36:35.189Z</time>
      </trkpt>
      <trkpt lat="47.03009" lon="7.08016">
        <ele>468.89999389648</ele>
        <time>2022-02-05T12:36:43.222Z</time>
      </trkpt>
      <trkpt lat="47.03011" lon="7.08009">
        <ele>469.19999694824</ele>
        <time>2022-02-05T12:36:52.889Z</time>
      </trkpt>
      <trkpt lat="47.03013" lon="7.08003">
        <ele>469.39999389648</ele>
        <time>2022-02-05T12:37:00.661Z</time>
      </trkpt>
      <trkpt lat="47.02987" lon="7.07963">
        <ele>472.59999084473</ele>
        <time>2022-02-05T12:38:27.431Z</time>
      </trkpt>
      <trkpt lat="47.02971" lon="7.0794">
        <ele>474.5</ele>
        <time>2022-02-05T12:39:18.984Z</time>
      </trkpt>
      <trkpt lat="47.02943" lon="7.07899">
        <ele>475.5</ele>
        <time>2022-02-05T12:40:11.274Z</time>
      </trkpt>
      <trkpt lat="47.02944" lon="7.079">
        <ele>475.5</ele>
        <time>2022-02-05T12:40:12.187Z</time>
      </trkpt>
      <trkpt lat="47.02943" lon="7.07899">
        <ele>475.5</ele>
        <time>2022-02-05T12:40:13.100Z</time>
      </trkpt>
      <trkpt lat="47.02943" lon="7.07898">
        <ele>476.5</ele>
        <time>2022-02-05T12:40:15.559Z</time>
      </trkpt>
      <trkpt lat="47.02933" lon="7.07883">
        <ele>477.29998779297</ele>
        <time>2022-02-05T12:40:41.974Z</time>
      </trkpt>
      <trkpt lat="47.02923" lon="7.07867">
        <ele>477.69999694824</ele>
        <time>2022-02-05T12:41:01.962Z</time>
      </trkpt>
      <trkpt lat="47.02916" lon="7.07853">
        <ele>478.5</ele>
        <time>2022-02-05T12:41:25.718Z</time>
      </trkpt>
      <trkpt lat="47.0291" lon="7.0784">
        <ele>479.29998779297</ele>
        <time>2022-02-05T12:41:48.428Z</time>
      </trkpt>
      <trkpt lat="47.02906" lon="7.07828">
        <ele>479.69999694824</ele>
        <time>2022-02-05T12:42:03.883Z</time>
      </trkpt>
      <trkpt lat="47.029" lon="7.07812">
        <ele>480.39999389648</ele>
        <time>2022-02-05T12:42:26.931Z</time>
      </trkpt>
      <trkpt lat="47.02896" lon="7.078">
        <ele>480.89999389648</ele>
        <time>2022-02-05T12:42:43.691Z</time>
      </trkpt>
      <trkpt lat="47.02891" lon="7.07787">
        <ele>481.5</ele>
        <time>2022-02-05T12:43:02.876Z</time>
      </trkpt>
      <trkpt lat="47.02887" lon="7.07778">
        <ele>481.79998779297</ele>
        <time>2022-02-05T12:43:14.746Z</time>
      </trkpt>
      <trkpt lat="47.0288" lon="7.07765">
        <ele>482.39999389648</ele>
        <time>2022-02-05T12:43:35.331Z</time>
      </trkpt>
      <trkpt lat="47.02871" lon="7.07744">
        <ele>483.09999084473</ele>
        <time>2022-02-05T12:44:02.981Z</time>
      </trkpt>
      <trkpt lat="47.02866" lon="7.07732">
        <ele>483.79998779297</ele>
        <time>2022-02-05T12:44:22.990Z</time>
      </trkpt>
      <trkpt lat="47.02858" lon="7.07704">
        <ele>485.89999389648</ele>
        <time>2022-02-05T12:45:18.447Z</time>
      </trkpt>
      <trkpt lat="47.02853" lon="7.07692">
        <ele>486.69999694824</ele>
        <time>2022-02-05T12:45:40.274Z</time>
      </trkpt>
      <trkpt lat="47.02846" lon="7.07681">
        <ele>487.59999084473</ele>
        <time>2022-02-05T12:46:04.496Z</time>
      </trkpt>
      <trkpt lat="47.0284" lon="7.07673">
        <ele>488</ele>
        <time>2022-02-05T12:46:18.791Z</time>
      </trkpt>
      <trkpt lat="47.02833" lon="7.07665">
        <ele>488.29998779297</ele>
        <time>2022-02-05T12:46:31.865Z</time>
      </trkpt>
      <trkpt lat="47.02823" lon="7.07658">
        <ele>488.39999389648</ele>
        <time>2022-02-05T12:46:44.068Z</time>
      </trkpt>
      <trkpt lat="47.02812" lon="7.07651">
        <ele>488.79998779297</ele>
        <time>2022-02-05T12:47:01.609Z</time>
      </trkpt>
      <trkpt lat="47.02796" lon="7.07642">
        <ele>489.5</ele>
        <time>2022-02-05T12:47:29.439Z</time>
      </trkpt>
      <trkpt lat="47.02786" lon="7.07638">
        <ele>490</ele>
        <time>2022-02-05T12:47:47.636Z</time>
      </trkpt>
      <trkpt lat="47.02781" lon="7.07636">
        <ele>490.59999084473</ele>
        <time>2022-02-05T12:48:03.778Z</time>
      </trkpt>
      <trkpt lat="47.02776" lon="7.07636">
        <ele>491</ele>
        <time>2022-02-05T12:48:14.792Z</time>
      </trkpt>
      <trkpt lat="47.02771" lon="7.07637">
        <ele>490.89999389648</ele>
        <time>2022-02-05T12:48:16.407Z</time>
      </trkpt>
      <trkpt lat="47.02753" lon="7.07654">
        <ele>490.69999694824</ele>
        <time>2022-02-05T12:48:24.114Z</time>
      </trkpt>
      <trkpt lat="47.02745" lon="7.07659">
        <ele>490.69999694824</ele>
        <time>2022-02-05T12:48:33.035Z</time>
      </trkpt>
      <trkpt lat="47.02737" lon="7.07665">
        <ele>491</ele>
        <time>2022-02-05T12:48:46.165Z</time>
      </trkpt>
      <trkpt lat="47.02732" lon="7.0767">
        <ele>491.39999389648</ele>
        <time>2022-02-05T12:48:58.211Z</time>
      </trkpt>
      <trkpt lat="47.02726" lon="7.07676">
        <ele>491.69999694824</ele>
        <time>2022-02-05T12:49:10.024Z</time>
      </trkpt>
      <trkpt lat="47.02721" lon="7.07683">
        <ele>492</ele>
        <time>2022-02-05T12:49:21.684Z</time>
      </trkpt>
      <trkpt lat="47.0271" lon="7.07664">
        <ele>492.09999084473</ele>
        <time>2022-02-05T12:49:39.949Z</time>
      </trkpt>
      <trkpt lat="47.02707" lon="7.07659">
        <ele>492.19999694824</ele>
        <time>2022-02-05T12:49:45.705Z</time>
      </trkpt>
      <trkpt lat="47.02708" lon="7.0766">
        <ele>492.19999694824</ele>
        <time>2022-02-05T12:49:46.479Z</time>
      </trkpt>
      <trkpt lat="47.02707" lon="7.07659">
        <ele>492.19999694824</ele>
        <time>2022-02-05T12:49:47.254Z</time>
      </trkpt>
      <trkpt lat="47.02702" lon="7.0765">
        <ele>492.19999694824</ele>
        <time>2022-02-05T12:49:55.300Z</time>
      </trkpt>
      <trkpt lat="47.02693" lon="7.07634">
        <ele>492.19999694824</ele>
        <time>2022-02-05T12:50:09.685Z</time>
      </trkpt>
      <trkpt lat="47.02688" lon="7.07624">
        <ele>492.39999389648</ele>
        <time>2022-02-05T12:50:20.616Z</time>
      </trkpt>
      <trkpt lat="47.02685" lon="7.07615">
        <ele>492.5</ele>
        <time>2022-02-05T12:50:28.660Z</time>
      </trkpt>
      <trkpt lat="47.02682" lon="7.07608">
        <ele>492.69999694824</ele>
        <time>2022-02-05T12:50:37.116Z</time>
      </trkpt>
      <trkpt lat="47.0268" lon="7.07599">
        <ele>492.69999694824</ele>
        <time>2022-02-05T12:50:43.713Z</time>
      </trkpt>
      <trkpt lat="47.02678" lon="7.07581">
        <ele>492.89999389648</ele>
        <time>2022-02-05T12:50:58.533Z</time>
      </trkpt>
      <trkpt lat="47.02676" lon="7.07565">
        <ele>493.29998779297</ele>
        <time>2022-02-05T12:51:15.296Z</time>
      </trkpt>
      <trkpt lat="47.02673" lon="7.07545">
        <ele>493.79998779297</ele>
        <time>2022-02-05T12:51:36.457Z</time>
      </trkpt>
      <trkpt lat="47.02669" lon="7.07513">
        <ele>494.5</ele>
        <time>2022-02-05T12:52:08.103Z</time>
      </trkpt>
      <trkpt lat="47.02668" lon="7.07504">
        <ele>494.59999084473</ele>
        <time>2022-02-05T12:52:15.557Z</time>
      </trkpt>
      <trkpt lat="47.02664" lon="7.07483">
        <ele>495.09999084473</ele>
        <time>2022-02-05T12:52:37.322Z</time>
      </trkpt>
      <trkpt lat="47.02662" lon="7.07472">
        <ele>495.59999084473</ele>
        <time>2022-02-05T12:52:52.573Z</time>
      </trkpt>
      <trkpt lat="47.0266" lon="7.07462">
        <ele>495.89999389648</ele>
        <time>2022-02-05T12:53:04.335Z</time>
      </trkpt>
      <trkpt lat="47.0265" lon="7.07439">
        <ele>497</ele>
        <time>2022-02-05T12:53:39.503Z</time>
      </trkpt>
      <trkpt lat="47.02641" lon="7.07416">
        <ele>498</ele>
        <time>2022-02-05T12:54:12.727Z</time>
      </trkpt>
      <trkpt lat="47.02635" lon="7.07397">
        <ele>498.79998779297</ele>
        <time>2022-02-05T12:54:39.145Z</time>
      </trkpt>
      <trkpt lat="47.02632" lon="7.07388">
        <ele>499.19999694824</ele>
        <time>2022-02-05T12:54:51.942Z</time>
      </trkpt>
      <trkpt lat="47.02629" lon="7.07376">
        <ele>499.5</ele>
        <time>2022-02-05T12:55:04.912Z</time>
      </trkpt>
      <trkpt lat="47.02624" lon="7.0736">
        <ele>500.5</ele>
        <time>2022-02-05T12:55:32.128Z</time>
      </trkpt>
      <trkpt lat="47.02621" lon="7.0735">
        <ele>501.09999084473</ele>
        <time>2022-02-05T12:55:48.718Z</time>
      </trkpt>
      <trkpt lat="47.02619" lon="7.07347">
        <ele>501.29998779297</ele>
        <time>2022-02-05T12:55:54.559Z</time>
      </trkpt>
      <trkpt lat="47.02616" lon="7.07338">
        <ele>501.89999389648</ele>
        <time>2022-02-05T12:56:10.662Z</time>
      </trkpt>
      <trkpt lat="47.02607" lon="7.07312">
        <ele>503.09999084473</ele>
        <time>2022-02-05T12:56:48.521Z</time>
      </trkpt>
      <trkpt lat="47.026" lon="7.0729">
        <ele>504.19999694824</ele>
        <time>2022-02-05T12:57:21.538Z</time>
      </trkpt>
      <trkpt lat="47.02597" lon="7.0728">
        <ele>504.5</ele>
        <time>2022-02-05T12:57:33.515Z</time>
      </trkpt>
      <trkpt lat="47.02593" lon="7.07264">
        <ele>505.09999084473</ele>
        <time>2022-02-05T12:57:54.356Z</time>
      </trkpt>
      <trkpt lat="47.0259" lon="7.07252">
        <ele>505.69999694824</ele>
        <time>2022-02-05T12:58:11.983Z</time>
      </trkpt>
      <trkpt lat="47.02588" lon="7.07243">
        <ele>506.19999694824</ele>
        <time>2022-02-05T12:58:25.996Z</time>
      </trkpt>
      <trkpt lat="47.02587" lon="7.07232">
        <ele>506.79998779297</ele>
        <time>2022-02-05T12:58:42.580Z</time>
      </trkpt>
      <trkpt lat="47.02585" lon="7.0723">
        <ele>506.89999389648</ele>
        <time>2022-02-05T12:58:46.551Z</time>
      </trkpt>
      <trkpt lat="47.02579" lon="7.07223">
        <ele>507.39999389648</ele>
        <time>2022-02-05T12:59:01.683Z</time>
      </trkpt>
      <trkpt lat="47.02575" lon="7.07219">
        <ele>507.69999694824</ele>
        <time>2022-02-05T12:59:11.008Z</time>
      </trkpt>
      <trkpt lat="47.02573" lon="7.07213">
        <ele>508.09999084473</ele>
        <time>2022-02-05T12:59:21.773Z</time>
      </trkpt>
      <trkpt lat="47.0257" lon="7.07203">
        <ele>508.59999084473</ele>
        <time>2022-02-05T12:59:36.658Z</time>
      </trkpt>
      <trkpt lat="47.02566" lon="7.0719">
        <ele>509.39999389648</ele>
        <time>2022-02-05T12:59:58.555Z</time>
      </trkpt>
      <trkpt lat="47.02563" lon="7.07182">
        <ele>509.69999694824</ele>
        <time>2022-02-05T13:00:09.479Z</time>
      </trkpt>
      <trkpt lat="47.0256" lon="7.07177">
        <ele>510</ele>
        <time>2022-02-05T13:00:18.470Z</time>
      </trkpt>
      <trkpt lat="47.02531" lon="7.07126">
        <ele>510.79998779297</ele>
        <time>2022-02-05T13:01:13.342Z</time>
      </trkpt>
      <trkpt lat="47.0252" lon="7.07105">
        <ele>511.19999694824</ele>
        <time>2022-02-05T13:01:36.305Z</time>
      </trkpt>
      <trkpt lat="47.02521" lon="7.07105">
        <ele>511.19999694824</ele>
        <time>2022-02-05T13:01:37.058Z</time>
      </trkpt>
      <trkpt lat="47.0252" lon="7.07105">
        <ele>511.19999694824</ele>
        <time>2022-02-05T13:01:37.811Z</time>
      </trkpt>
      <trkpt lat="47.02507" lon="7.07081">
        <ele>511.19999694824</ele>
        <time>2022-02-05T13:01:59.045Z</time>
      </trkpt>
      <trkpt lat="47.02495" lon="7.07057">
        <ele>511.09999084473</ele>
        <time>2022-02-05T13:02:18.297Z</time>
      </trkpt>
      <trkpt lat="47.02485" lon="7.07038">
        <ele>510.39999389648</ele>
        <time>2022-02-05T13:02:22.372Z</time>
      </trkpt>
      <trkpt lat="47.02478" lon="7.07024">
        <ele>509.5</ele>
        <time>2022-02-05T13:02:24.995Z</time>
      </trkpt>
      <trkpt lat="47.02471" lon="7.07014">
        <ele>508.79998779297</ele>
        <time>2022-02-05T13:02:27.191Z</time>
      </trkpt>
      <trkpt lat="47.02466" lon="7.07008">
        <ele>508.19999694824</ele>
        <time>2022-02-05T13:02:28.627Z</time>
      </trkpt>
      <trkpt lat="47.02462" lon="7.07005">
        <ele>507.59999084473</ele>
        <time>2022-02-05T13:02:29.641Z</time>
      </trkpt>
      <trkpt lat="47.02458" lon="7.07004">
        <ele>506.89999389648</ele>
        <time>2022-02-05T13:02:30.535Z</time>
      </trkpt>
      <trkpt lat="47.02454" lon="7.07005">
        <ele>506.29998779297</ele>
        <time>2022-02-05T13:02:31.428Z</time>
      </trkpt>
      <trkpt lat="47.02449" lon="7.07006">
        <ele>505.59999084473</ele>
        <time>2022-02-05T13:02:32.561Z</time>
      </trkpt>
      <trkpt lat="47.02445" lon="7.0701">
        <ele>504.89999389648</ele>
        <time>2022-02-05T13:02:33.656Z</time>
      </trkpt>
      <trkpt lat="47.02442" lon="7.07014">
        <ele>504.39999389648</ele>
        <time>2022-02-05T13:02:34.549Z</time>
      </trkpt>
      <trkpt lat="47.02439" lon="7.0702">
        <ele>503.89999389648</ele>
        <time>2022-02-05T13:02:35.679Z</time>
      </trkpt>
      <trkpt lat="47.02438" lon="7.07027">
        <ele>503.29998779297</ele>
        <time>2022-02-05T13:02:36.762Z</time>
      </trkpt>
      <trkpt lat="47.02437" lon="7.07034">
        <ele>502.89999389648</ele>
        <time>2022-02-05T13:02:37.864Z</time>
      </trkpt>
      <trkpt lat="47.02438" lon="7.07041">
        <ele>502.39999389648</ele>
        <time>2022-02-05T13:02:38.943Z</time>
      </trkpt>
      <trkpt lat="47.0244" lon="7.07051">
        <ele>501.59999084473</ele>
        <time>2022-02-05T13:02:40.526Z</time>
      </trkpt>
      <trkpt lat="47.02445" lon="7.07065">
        <ele>500.59999084473</ele>
        <time>2022-02-05T13:02:42.934Z</time>
      </trkpt>
      <trkpt lat="47.02447" lon="7.07073">
        <ele>500.09999084473</ele>
        <time>2022-02-05T13:02:44.231Z</time>
      </trkpt>
      <trkpt lat="47.02447" lon="7.07079">
        <ele>499.79998779297</ele>
        <time>2022-02-05T13:02:45.131Z</time>
      </trkpt>
      <trkpt lat="47.02447" lon="7.07083">
        <ele>499.69999694824</ele>
        <time>2022-02-05T13:02:45.871Z</time>
      </trkpt>
      <trkpt lat="47.02446" lon="7.07086">
        <ele>499.59999084473</ele>
        <time>2022-02-05T13:02:46.409Z</time>
      </trkpt>
      <trkpt lat="47.02444" lon="7.0709">
        <ele>499.09999084473</ele>
        <time>2022-02-05T13:02:47.182Z</time>
      </trkpt>
      <trkpt lat="47.02439" lon="7.07097">
        <ele>497.59999084473</ele>
        <time>2022-02-05T13:02:48.712Z</time>
      </trkpt>
      <trkpt lat="47.02429" lon="7.07108">
        <ele>495.19999694824</ele>
        <time>2022-02-05T13:02:51.506Z</time>
      </trkpt>
      <trkpt lat="47.02416" lon="7.07122">
        <ele>492.29998779297</ele>
        <time>2022-02-05T13:02:55.094Z</time>
      </trkpt>
      <trkpt lat="47.02405" lon="7.07133">
        <ele>490.69999694824</ele>
        <time>2022-02-05T13:02:58.068Z</time>
      </trkpt>
      <trkpt lat="47.02397" lon="7.07141">
        <ele>489.39999389648</ele>
        <time>2022-02-05T13:03:00.231Z</time>
      </trkpt>
      <trkpt lat="47.02393" lon="7.07144">
        <ele>488.89999389648</ele>
        <time>2022-02-05T13:03:01.235Z</time>
      </trkpt>
      <trkpt lat="47.02393" lon="7.07145">
        <ele>488.89999389648</ele>
        <time>2022-02-05T13:03:01.948Z</time>
      </trkpt>
      <trkpt lat="47.02393" lon="7.07144">
        <ele>488.89999389648</ele>
        <time>2022-02-05T13:03:02.660Z</time>
      </trkpt>
      <trkpt lat="47.02389" lon="7.07147">
        <ele>488.39999389648</ele>
        <time>2022-02-05T13:03:03.655Z</time>
      </trkpt>
      <trkpt lat="47.02383" lon="7.07152">
        <ele>487.59999084473</ele>
        <time>2022-02-05T13:03:05.200Z</time>
      </trkpt>
      <trkpt lat="47.02355" lon="7.07167">
        <ele>484</ele>
        <time>2022-02-05T13:03:11.848Z</time>
      </trkpt>
      <trkpt lat="47.02327" lon="7.07181">
        <ele>480.79998779297</ele>
        <time>2022-02-05T13:03:18.451Z</time>
      </trkpt>
      <trkpt lat="47.02322" lon="7.07167">
        <ele>481</ele>
        <time>2022-02-05T13:03:31.579Z</time>
      </trkpt>
      <trkpt lat="47.02316" lon="7.07151">
        <ele>481.29998779297</ele>
        <time>2022-02-05T13:03:47.802Z</time>
      </trkpt>
      <trkpt lat="47.02306" lon="7.07129">
        <ele>481.69999694824</ele>
        <time>2022-02-05T13:04:10.779Z</time>
      </trkpt>
      <trkpt lat="47.02297" lon="7.07108">
        <ele>482</ele>
        <time>2022-02-05T13:04:31.310Z</time>
      </trkpt>
      <trkpt lat="47.02292" lon="7.07095">
        <ele>481.89999389648</ele>
        <time>2022-02-05T13:04:34.958Z</time>
      </trkpt>
      <trkpt lat="47.02287" lon="7.07098">
        <ele>481.59999084473</ele>
        <time>2022-02-05T13:04:36.139Z</time>
      </trkpt>
      <trkpt lat="47.02274" lon="7.07105">
        <ele>480.09999084473</ele>
        <time>2022-02-05T13:04:39.235Z</time>
      </trkpt>
      <trkpt lat="47.02229" lon="7.07129">
        <ele>477</ele>
        <time>2022-02-05T13:04:49.160Z</time>
      </trkpt>
      <trkpt lat="47.02198" lon="7.07146">
        <ele>475.09999084473</ele>
        <time>2022-02-05T13:04:56.430Z</time>
      </trkpt>
      <trkpt lat="47.02199" lon="7.07147">
        <ele>475.09999084473</ele>
        <time>2022-02-05T13:04:57.499Z</time>
      </trkpt>
      <trkpt lat="47.02198" lon="7.07146">
        <ele>475.09999084473</ele>
        <time>2022-02-05T13:04:58.568Z</time>
      </trkpt>
      <trkpt lat="47.02111" lon="7.07194">
        <ele>473.29998779297</ele>
        <time>2022-02-05T13:05:28.176Z</time>
      </trkpt>
      <trkpt lat="47.02107" lon="7.07182">
        <ele>473.5</ele>
        <time>2022-02-05T13:05:39.796Z</time>
      </trkpt>
      <trkpt lat="47.02101" lon="7.07168">
        <ele>473.69999694824</ele>
        <time>2022-02-05T13:05:53.449Z</time>
      </trkpt>
      <trkpt lat="47.0209" lon="7.07147">
        <ele>473.89999389648</ele>
        <time>2022-02-05T13:06:13.883Z</time>
      </trkpt>
      <trkpt lat="47.02063" lon="7.07095">
        <ele>473.89999389648</ele>
        <time>2022-02-05T13:06:59.072Z</time>
      </trkpt>
      <trkpt lat="47.02058" lon="7.07085">
        <ele>474</ele>
        <time>2022-02-05T13:07:08.795Z</time>
      </trkpt>
      <trkpt lat="47.02055" lon="7.07077">
        <ele>474</ele>
        <time>2022-02-05T13:07:15.116Z</time>
      </trkpt>
      <trkpt lat="47.02053" lon="7.07075">
        <ele>473.89999389648</ele>
        <time>2022-02-05T13:07:15.718Z</time>
      </trkpt>
      <trkpt lat="47.02054" lon="7.07076">
        <ele>473.89999389648</ele>
        <time>2022-02-05T13:07:16.618Z</time>
      </trkpt>
      <trkpt lat="47.02053" lon="7.07075">
        <ele>473.89999389648</ele>
        <time>2022-02-05T13:07:17.517Z</time>
      </trkpt>
      <trkpt lat="47.02052" lon="7.07073">
        <ele>473.89999389648</ele>
        <time>2022-02-05T13:07:19.213Z</time>
      </trkpt>
      <trkpt lat="47.02039" lon="7.07054">
        <ele>473.69999694824</ele>
        <time>2022-02-05T13:07:25.709Z</time>
      </trkpt>
      <trkpt lat="47.02032" lon="7.07043">
        <ele>473.89999389648</ele>
        <time>2022-02-05T13:07:38.369Z</time>
      </trkpt>
      <trkpt lat="47.02027" lon="7.07033">
        <ele>473.79998779297</ele>
        <time>2022-02-05T13:07:41.341Z</time>
      </trkpt>
      <trkpt lat="47.0202" lon="7.07019">
        <ele>474.19999694824</ele>
        <time>2022-02-05T13:07:58.735Z</time>
      </trkpt>
      <trkpt lat="47.02011" lon="7.06996">
        <ele>474.09999084473</ele>
        <time>2022-02-05T13:08:15.705Z</time>
      </trkpt>
      <trkpt lat="47.01992" lon="7.0695">
        <ele>474.09999084473</ele>
        <time>2022-02-05T13:08:52.910Z</time>
      </trkpt>
      <trkpt lat="47.01936" lon="7.07011">
        <ele>475.69999694824</ele>
        <time>2022-02-05T13:10:22.508Z</time>
      </trkpt>
      <trkpt lat="47.01937" lon="7.07005">
        <ele>475.79998779297</ele>
        <time>2022-02-05T13:10:27.922Z</time>
      </trkpt>
      <trkpt lat="47.01937" lon="7.06999">
        <ele>475.89999389648</ele>
        <time>2022-02-05T13:10:33.307Z</time>
      </trkpt>
      <trkpt lat="47.01936" lon="7.06989">
        <ele>475.69999694824</ele>
        <time>2022-02-05T13:10:35.275Z</time>
      </trkpt>
      <trkpt lat="47.01936" lon="7.06982">
        <ele>475.59999084473</ele>
        <time>2022-02-05T13:10:36.760Z</time>
      </trkpt>
      <trkpt lat="47.01934" lon="7.06972">
        <ele>475.69999694824</ele>
        <time>2022-02-05T13:10:45.036Z</time>
      </trkpt>
      <trkpt lat="47.01932" lon="7.06964">
        <ele>475.5</ele>
        <time>2022-02-05T13:10:46.610Z</time>
      </trkpt>
      <trkpt lat="47.01926" lon="7.06947">
        <ele>475.29998779297</ele>
        <time>2022-02-05T13:10:50.988Z</time>
      </trkpt>
      <trkpt lat="47.01915" lon="7.06916">
        <ele>475.39999389648</ele>
        <time>2022-02-05T13:11:16.126Z</time>
      </trkpt>
      <trkpt lat="47.019" lon="7.06872">
        <ele>475.29998779297</ele>
        <time>2022-02-05T13:11:48.709Z</time>
      </trkpt>
      <trkpt lat="47.01901" lon="7.06873">
        <ele>475.29998779297</ele>
        <time>2022-02-05T13:11:49.551Z</time>
      </trkpt>
      <trkpt lat="47.019" lon="7.06872">
        <ele>475.29998779297</ele>
        <time>2022-02-05T13:11:50.392Z</time>
      </trkpt>
      <trkpt lat="47.0189" lon="7.06843">
        <ele>475.19999694824</ele>
        <time>2022-02-05T13:12:11.434Z</time>
      </trkpt>
      <trkpt lat="47.01881" lon="7.06818">
        <ele>475.59999084473</ele>
        <time>2022-02-05T13:12:35.633Z</time>
      </trkpt>
      <trkpt lat="47.01874" lon="7.06799">
        <ele>475.79998779297</ele>
        <time>2022-02-05T13:12:52.721Z</time>
      </trkpt>
      <trkpt lat="47.01865" lon="7.06771">
        <ele>476</ele>
        <time>2022-02-05T13:13:16.163Z</time>
      </trkpt>
      <trkpt lat="47.01853" lon="7.06735">
        <ele>476.19999694824</ele>
        <time>2022-02-05T13:13:45.874Z</time>
      </trkpt>
      <trkpt lat="47.01845" lon="7.06706">
        <ele>476.19999694824</ele>
        <time>2022-02-05T13:14:07.548Z</time>
      </trkpt>
      <trkpt lat="47.01837" lon="7.06681">
        <ele>475.89999389648</ele>
        <time>2022-02-05T13:14:13.815Z</time>
      </trkpt>
      <trkpt lat="47.01831" lon="7.06663">
        <ele>475.59999084473</ele>
        <time>2022-02-05T13:14:18.030Z</time>
      </trkpt>
      <trkpt lat="47.01827" lon="7.0665">
        <ele>475.39999389648</ele>
        <time>2022-02-05T13:14:21.083Z</time>
      </trkpt>
      <trkpt lat="47.01828" lon="7.06637">
        <ele>475.39999389648</ele>
        <time>2022-02-05T13:14:30.155Z</time>
      </trkpt>
      <trkpt lat="47.01826" lon="7.06637">
        <ele>475.29998779297</ele>
        <time>2022-02-05T13:14:30.616Z</time>
      </trkpt>
      <trkpt lat="47.01823" lon="7.06634">
        <ele>475.39999389648</ele>
        <time>2022-02-05T13:14:35.533Z</time>
      </trkpt>
      <trkpt lat="47.01821" lon="7.0663">
        <ele>475.19999694824</ele>
        <time>2022-02-05T13:14:36.253Z</time>
      </trkpt>
      <trkpt lat="47.01817" lon="7.0662">
        <ele>475.19999694824</ele>
        <time>2022-02-05T13:14:44.336Z</time>
      </trkpt>
      <trkpt lat="47.01813" lon="7.06607">
        <ele>474.79998779297</ele>
        <time>2022-02-05T13:14:46.798Z</time>
      </trkpt>
      <trkpt lat="47.01809" lon="7.06595">
        <ele>474.5</ele>
        <time>2022-02-05T13:14:49.284Z</time>
      </trkpt>
      <trkpt lat="47.01803" lon="7.06574">
        <ele>473.89999389648</ele>
        <time>2022-02-05T13:14:53.313Z</time>
      </trkpt>
      <trkpt lat="47.018" lon="7.06563">
        <ele>473.09999084473</ele>
        <time>2022-02-05T13:14:55.119Z</time>
      </trkpt>
      <trkpt lat="47.01796" lon="7.06554">
        <ele>472.5</ele>
        <time>2022-02-05T13:14:56.740Z</time>
      </trkpt>
      <trkpt lat="47.01793" lon="7.06548">
        <ele>471.79998779297</ele>
        <time>2022-02-05T13:14:57.874Z</time>
      </trkpt>
      <trkpt lat="47.01779" lon="7.06529">
        <ele>471.39999389648</ele>
        <time>2022-02-05T13:15:03.833Z</time>
      </trkpt>
      <trkpt lat="47.01774" lon="7.0652">
        <ele>472.29998779297</ele>
        <time>2022-02-05T13:15:27.910Z</time>
      </trkpt>
      <trkpt lat="47.01769" lon="7.06511">
        <ele>472.79998779297</ele>
        <time>2022-02-05T13:15:43.301Z</time>
      </trkpt>
      <trkpt lat="47.01763" lon="7.06496">
        <ele>473.79998779297</ele>
        <time>2022-02-05T13:16:10.449Z</time>
      </trkpt>
      <trkpt lat="47.01758" lon="7.06486">
        <ele>474.59999084473</ele>
        <time>2022-02-05T13:16:31.658Z</time>
      </trkpt>
      <trkpt lat="47.01754" lon="7.06478">
        <ele>474.79998779297</ele>
        <time>2022-02-05T13:16:41.133Z</time>
      </trkpt>
      <trkpt lat="47.01749" lon="7.06472">
        <ele>475.5</ele>
        <time>2022-02-05T13:16:59.711Z</time>
      </trkpt>
      <trkpt lat="47.01738" lon="7.0646">
        <ele>476.09999084473</ele>
        <time>2022-02-05T13:17:22.963Z</time>
      </trkpt>
      <trkpt lat="47.01733" lon="7.06453">
        <ele>476.5</ele>
        <time>2022-02-05T13:17:35.918Z</time>
      </trkpt>
      <trkpt lat="47.01727" lon="7.06444">
        <ele>477</ele>
        <time>2022-02-05T13:17:51.952Z</time>
      </trkpt>
      <trkpt lat="47.01718" lon="7.06428">
        <ele>476.39999389648</ele>
        <time>2022-02-05T13:17:55.524Z</time>
      </trkpt>
      <trkpt lat="47.01709" lon="7.06412">
        <ele>477.39999389648</ele>
        <time>2022-02-05T13:18:24.549Z</time>
      </trkpt>
      <trkpt lat="47.01685" lon="7.06374">
        <ele>477.39999389648</ele>
        <time>2022-02-05T13:19:00.440Z</time>
      </trkpt>
      <trkpt lat="47.01678" lon="7.06361">
        <ele>477.59999084473</ele>
        <time>2022-02-05T13:19:14.099Z</time>
      </trkpt>
      <trkpt lat="47.01676" lon="7.06352">
        <ele>477.5</ele>
        <time>2022-02-05T13:19:16.270Z</time>
      </trkpt>
      <trkpt lat="47.01673" lon="7.06343">
        <ele>477.69999694824</ele>
        <time>2022-02-05T13:19:25.707Z</time>
      </trkpt>
      <trkpt lat="47.01668" lon="7.06326">
        <ele>477.89999389648</ele>
        <time>2022-02-05T13:19:40.744Z</time>
      </trkpt>
      <trkpt lat="47.01667" lon="7.0632">
        <ele>478</ele>
        <time>2022-02-05T13:19:46.158Z</time>
      </trkpt>
      <trkpt lat="47.01664" lon="7.06305">
        <ele>477.89999389648</ele>
        <time>2022-02-05T13:19:50.036Z</time>
      </trkpt>
      <trkpt lat="47.01664" lon="7.06293">
        <ele>478</ele>
        <time>2022-02-05T13:19:59.373Z</time>
      </trkpt>
      <trkpt lat="47.01663" lon="7.06281">
        <ele>477.29998779297</ele>
        <time>2022-02-05T13:20:01.206Z</time>
      </trkpt>
      <trkpt lat="47.01661" lon="7.06267">
        <ele>476.5</ele>
        <time>2022-02-05T13:20:03.391Z</time>
      </trkpt>
      <trkpt lat="47.01658" lon="7.06256">
        <ele>476.09999084473</ele>
        <time>2022-02-05T13:20:05.295Z</time>
      </trkpt>
      <trkpt lat="47.01656" lon="7.06247">
        <ele>475.19999694824</ele>
        <time>2022-02-05T13:20:06.719Z</time>
      </trkpt>
      <trkpt lat="47.01652" lon="7.06243">
        <ele>474.59999084473</ele>
        <time>2022-02-05T13:20:07.814Z</time>
      </trkpt>
      <trkpt lat="47.0165" lon="7.06241">
        <ele>474.09999084473</ele>
        <time>2022-02-05T13:20:08.348Z</time>
      </trkpt>
      <trkpt lat="47.01647" lon="7.06239">
        <ele>473.69999694824</ele>
        <time>2022-02-05T13:20:09.074Z</time>
      </trkpt>
      <trkpt lat="47.01644" lon="7.06234">
        <ele>472.89999389648</ele>
        <time>2022-02-05T13:20:10.098Z</time>
      </trkpt>
      <trkpt lat="47.01641" lon="7.06229">
        <ele>472.09999084473</ele>
        <time>2022-02-05T13:20:11.119Z</time>
      </trkpt>
      <trkpt lat="47.01639" lon="7.06225">
        <ele>471.5</ele>
        <time>2022-02-05T13:20:11.864Z</time>
      </trkpt>
      <trkpt lat="47.01639" lon="7.06223">
        <ele>471.19999694824</ele>
        <time>2022-02-05T13:20:12.164Z</time>
      </trkpt>
      <trkpt lat="47.01638" lon="7.06219">
        <ele>470.39999389648</ele>
        <time>2022-02-05T13:20:12.822Z</time>
      </trkpt>
      <trkpt lat="47.01636" lon="7.06207">
        <ele>469</ele>
        <time>2022-02-05T13:20:14.690Z</time>
      </trkpt>
      <trkpt lat="47.01633" lon="7.06181">
        <ele>465.39999389648</ele>
        <time>2022-02-05T13:20:18.705Z</time>
      </trkpt>
      <trkpt lat="47.01631" lon="7.06156">
        <ele>461.79998779297</ele>
        <time>2022-02-05T13:20:22.529Z</time>
      </trkpt>
      <trkpt lat="47.0163" lon="7.06142">
        <ele>459.79998779297</ele>
        <time>2022-02-05T13:20:24.680Z</time>
      </trkpt>
      <trkpt lat="47.01629" lon="7.06133">
        <ele>458.39999389648</ele>
        <time>2022-02-05T13:20:26.055Z</time>
      </trkpt>
      <trkpt lat="47.01628" lon="7.06118">
        <ele>456.5</ele>
        <time>2022-02-05T13:20:28.346Z</time>
      </trkpt>
      <trkpt lat="47.01628" lon="7.06109">
        <ele>455.59999084473</ele>
        <time>2022-02-05T13:20:29.726Z</time>
      </trkpt>
      <trkpt lat="47.01628" lon="7.06104">
        <ele>455.09999084473</ele>
        <time>2022-02-05T13:20:30.486Z</time>
      </trkpt>
      <trkpt lat="47.01627" lon="7.06093">
        <ele>453.69999694824</ele>
        <time>2022-02-05T13:20:32.181Z</time>
      </trkpt>
      <trkpt lat="47.01626" lon="7.06079">
        <ele>452.39999389648</ele>
        <time>2022-02-05T13:20:34.312Z</time>
      </trkpt>
      <trkpt lat="47.01626" lon="7.06076">
        <ele>452.09999084473</ele>
        <time>2022-02-05T13:20:34.772Z</time>
      </trkpt>
      <trkpt lat="47.01625" lon="7.06068">
        <ele>451.39999389648</ele>
        <time>2022-02-05T13:20:36.012Z</time>
      </trkpt>
      <trkpt lat="47.01622" lon="7.06057">
        <ele>450.39999389648</ele>
        <time>2022-02-05T13:20:37.811Z</time>
      </trkpt>
      <trkpt lat="47.0162" lon="7.06048">
        <ele>449.69999694824</ele>
        <time>2022-02-05T13:20:39.241Z</time>
      </trkpt>
      <trkpt lat="47.01616" lon="7.06033">
        <ele>448.69999694824</ele>
        <time>2022-02-05T13:20:41.686Z</time>
      </trkpt>
      <trkpt lat="47.01614" lon="7.06022">
        <ele>447.5</ele>
        <time>2022-02-05T13:20:43.423Z</time>
      </trkpt>
      <trkpt lat="47.01614" lon="7.06022">
        <ele>447.5</ele>
        <time>2022-02-05T13:20:43.681Z</time>
      </trkpt>
      <trkpt lat="47.01614" lon="7.06022">
        <ele>447.5</ele>
        <time>2022-02-05T13:20:43.939Z</time>
      </trkpt>
      <trkpt lat="47.0161" lon="7.06007">
        <ele>446.29998779297</ele>
        <time>2022-02-05T13:20:46.384Z</time>
      </trkpt>
      <trkpt lat="47.0161" lon="7.06005">
        <ele>446.09999084473</ele>
        <time>2022-02-05T13:20:46.704Z</time>
      </trkpt>
      <trkpt lat="47.01606" lon="7.05983">
        <ele>444.29998779297</ele>
        <time>2022-02-05T13:20:50.159Z</time>
      </trkpt>
      <trkpt lat="47.01601" lon="7.05958">
        <ele>442.39999389648</ele>
        <time>2022-02-05T13:20:54.111Z</time>
      </trkpt>
      <trkpt lat="47.01599" lon="7.05953">
        <ele>441.89999389648</ele>
        <time>2022-02-05T13:20:55.007Z</time>
      </trkpt>
      <trkpt lat="47.01597" lon="7.0595">
        <ele>441.59999084473</ele>
        <time>2022-02-05T13:20:55.630Z</time>
      </trkpt>
      <trkpt lat="47.01596" lon="7.05949">
        <ele>441.59999084473</ele>
        <time>2022-02-05T13:20:56.947Z</time>
      </trkpt>
      <trkpt lat="47.01592" lon="7.05946">
        <ele>441.09999084473</ele>
        <time>2022-02-05T13:20:57.942Z</time>
      </trkpt>
      <trkpt lat="47.01588" lon="7.05945">
        <ele>440.89999389648</ele>
        <time>2022-02-05T13:20:58.885Z</time>
      </trkpt>
      <trkpt lat="47.01581" lon="7.05945">
        <ele>440.39999389648</ele>
        <time>2022-02-05T13:21:00.450Z</time>
      </trkpt>
      <trkpt lat="47.01571" lon="7.05947">
        <ele>439.79998779297</ele>
        <time>2022-02-05T13:21:02.622Z</time>
      </trkpt>
      <trkpt lat="47.01564" lon="7.05949">
        <ele>439.59999084473</ele>
        <time>2022-02-05T13:21:04.687Z</time>
      </trkpt>
      <trkpt lat="47.01563" lon="7.05947">
        <ele>439.59999084473</ele>
        <time>2022-02-05T13:21:06.383Z</time>
      </trkpt>
      <trkpt lat="47.01563" lon="7.05944">
        <ele>439.5</ele>
        <time>2022-02-05T13:21:06.872Z</time>
      </trkpt>
      <trkpt lat="47.01561" lon="7.05938">
        <ele>439.39999389648</ele>
        <time>2022-02-05T13:21:08.288Z</time>
      </trkpt>
      <trkpt lat="47.01555" lon="7.05912">
        <ele>438.89999389648</ele>
        <time>2022-02-05T13:21:13.775Z</time>
      </trkpt>
      <trkpt lat="47.0155" lon="7.05894">
        <ele>438.5</ele>
        <time>2022-02-05T13:21:17.515Z</time>
      </trkpt>
      <trkpt lat="47.01548" lon="7.05887">
        <ele>438.39999389648</ele>
        <time>2022-02-05T13:21:19.154Z</time>
      </trkpt>
      <trkpt lat="47.01547" lon="7.05884">
        <ele>438.29998779297</ele>
        <time>2022-02-05T13:21:19.719Z</time>
      </trkpt>
      <trkpt lat="47.01544" lon="7.05883">
        <ele>438.09999084473</ele>
        <time>2022-02-05T13:21:20.349Z</time>
      </trkpt>
      <trkpt lat="47.0154" lon="7.05884">
        <ele>438</ele>
        <time>2022-02-05T13:21:21.586Z</time>
      </trkpt>
      <trkpt lat="47.01528" lon="7.05887">
        <ele>437.59999084473</ele>
        <time>2022-02-05T13:21:24.913Z</time>
      </trkpt>
      <trkpt lat="47.01511" lon="7.05893">
        <ele>437.39999389648</ele>
        <time>2022-02-05T13:21:31.053Z</time>
      </trkpt>
      <trkpt lat="47.01498" lon="7.05897">
        <ele>437.09999084473</ele>
        <time>2022-02-05T13:21:35.136Z</time>
      </trkpt>
      <trkpt lat="47.01496" lon="7.05898">
        <ele>437.09999084473</ele>
        <time>2022-02-05T13:21:37.274Z</time>
      </trkpt>
      <trkpt lat="47.01496" lon="7.05898">
        <ele>437.09999084473</ele>
        <time>2022-02-05T13:21:37.661Z</time>
      </trkpt>
      <trkpt lat="47.01496" lon="7.05898">
        <ele>437.09999084473</ele>
        <time>2022-02-05T13:21:38.048Z</time>
      </trkpt>
      <trkpt lat="47.01492" lon="7.05899">
        <ele>437</ele>
        <time>2022-02-05T13:21:39.279Z</time>
      </trkpt>
      <trkpt lat="47.01473" lon="7.05904">
        <ele>436.59999084473</ele>
        <time>2022-02-05T13:21:45.317Z</time>
      </trkpt>
      <trkpt lat="47.01471" lon="7.05899">
        <ele>436.59999084473</ele>
        <time>2022-02-05T13:21:49.319Z</time>
      </trkpt>
      <trkpt lat="47.01471" lon="7.05894">
        <ele>436.59999084473</ele>
        <time>2022-02-05T13:21:52.780Z</time>
      </trkpt>
      <trkpt lat="47.01468" lon="7.0588">
        <ele>436.59999084473</ele>
        <time>2022-02-05T13:22:02.981Z</time>
      </trkpt>
      <trkpt lat="47.01467" lon="7.05874">
        <ele>436.59999084473</ele>
        <time>2022-02-05T13:22:07.201Z</time>
      </trkpt>
      <trkpt lat="47.01467" lon="7.05869">
        <ele>436.59999084473</ele>
        <time>2022-02-05T13:22:10.662Z</time>
      </trkpt>
      <trkpt lat="47.01465" lon="7.05856">
        <ele>436.59999084473</ele>
        <time>2022-02-05T13:22:19.880Z</time>
      </trkpt>
      <trkpt lat="47.01464" lon="7.05844">
        <ele>436.39999389648</ele>
        <time>2022-02-05T13:22:22.387Z</time>
      </trkpt>
      <trkpt lat="47.01464" lon="7.05828">
        <ele>436.19999694824</ele>
        <time>2022-02-05T13:22:25.882Z</time>
      </trkpt>
      <trkpt lat="47.01464" lon="7.0582">
        <ele>436.29998779297</ele>
        <time>2022-02-05T13:22:32.556Z</time>
      </trkpt>
      <trkpt lat="47.01464" lon="7.05815">
        <ele>436.19999694824</ele>
        <time>2022-02-05T13:22:33.526Z</time>
      </trkpt>
      <trkpt lat="47.01465" lon="7.05807">
        <ele>436.09999084473</ele>
        <time>2022-02-05T13:22:35.326Z</time>
      </trkpt>
      <trkpt lat="47.01466" lon="7.05795">
        <ele>436</ele>
        <time>2022-02-05T13:22:38.193Z</time>
      </trkpt>
      <trkpt lat="47.01467" lon="7.05786">
        <ele>435.89999389648</ele>
        <time>2022-02-05T13:22:40.237Z</time>
      </trkpt>
      <trkpt lat="47.01456" lon="7.05784">
        <ele>435.59999084473</ele>
        <time>2022-02-05T13:22:43.467Z</time>
      </trkpt>
      <trkpt lat="47.01443" lon="7.05783">
        <ele>435.09999084473</ele>
        <time>2022-02-05T13:22:46.838Z</time>
      </trkpt>
      <trkpt lat="47.01427" lon="7.05781">
        <ele>434.29998779297</ele>
        <time>2022-02-05T13:22:50.605Z</time>
      </trkpt>
      <trkpt lat="47.01414" lon="7.05779">
        <ele>434.19999694824</ele>
        <time>2022-02-05T13:22:55.459Z</time>
      </trkpt>
      <trkpt lat="47.01403" lon="7.05779">
        <ele>434</ele>
        <time>2022-02-05T13:22:59.002Z</time>
      </trkpt>
      <trkpt lat="47.01404" lon="7.05779">
        <ele>434</ele>
        <time>2022-02-05T13:22:59.615Z</time>
      </trkpt>
      <trkpt lat="47.01403" lon="7.05779">
        <ele>434</ele>
        <time>2022-02-05T13:23:00.227Z</time>
      </trkpt>
      <trkpt lat="47.01367" lon="7.05778">
        <ele>433.19999694824</ele>
        <time>2022-02-05T13:23:11.317Z</time>
      </trkpt>
      <trkpt lat="47.01366" lon="7.05778">
        <ele>433.19999694824</ele>
        <time>2022-02-05T13:23:12.322Z</time>
      </trkpt>
      <trkpt lat="47.01319" lon="7.05778">
        <ele>432.59999084473</ele>
        <time>2022-02-05T13:23:28.578Z</time>
      </trkpt>
      <trkpt lat="47.01283" lon="7.05777">
        <ele>432.19999694824</ele>
        <time>2022-02-05T13:23:41.281Z</time>
      </trkpt>
      <trkpt lat="47.01282" lon="7.05777">
        <ele>432.19999694824</ele>
        <time>2022-02-05T13:23:42.286Z</time>
      </trkpt>
      <trkpt lat="47.01272" lon="7.05777">
        <ele>432.19999694824</ele>
        <time>2022-02-05T13:23:52.427Z</time>
      </trkpt>
      <trkpt lat="47.01258" lon="7.05778">
        <ele>432.19999694824</ele>
        <time>2022-02-05T13:24:06.690Z</time>
      </trkpt>
      <trkpt lat="47.01247" lon="7.05779">
        <ele>432.09999084473</ele>
        <time>2022-02-05T13:24:10.674Z</time>
      </trkpt>
      <trkpt lat="47.01236" lon="7.05781">
        <ele>432</ele>
        <time>2022-02-05T13:24:14.685Z</time>
      </trkpt>
      <trkpt lat="47.01229" lon="7.05783">
        <ele>432</ele>
        <time>2022-02-05T13:24:21.941Z</time>
      </trkpt>
      <trkpt lat="47.01219" lon="7.05785">
        <ele>432</ele>
        <time>2022-02-05T13:24:32.264Z</time>
      </trkpt>
      <trkpt lat="47.01206" lon="7.05789">
        <ele>432</ele>
        <time>2022-02-05T13:24:45.683Z</time>
      </trkpt>
      <trkpt lat="47.01186" lon="7.05795">
        <ele>432.19999694824</ele>
        <time>2022-02-05T13:25:08.508Z</time>
      </trkpt>
      <trkpt lat="47.01154" lon="7.05807">
        <ele>432.19999694824</ele>
        <time>2022-02-05T13:25:42.027Z</time>
      </trkpt>
      <trkpt lat="47.01134" lon="7.05814">
        <ele>432.39999389648</ele>
        <time>2022-02-05T13:26:04.986Z</time>
      </trkpt>
      <trkpt lat="47.01135" lon="7.05814">
        <ele>432.39999389648</ele>
        <time>2022-02-05T13:26:05.917Z</time>
      </trkpt>
      <trkpt lat="47.01134" lon="7.05814">
        <ele>432.39999389648</ele>
        <time>2022-02-05T13:26:06.849Z</time>
      </trkpt>
      <trkpt lat="47.01126" lon="7.05817">
        <ele>432.59999084473</ele>
        <time>2022-02-05T13:26:17.636Z</time>
      </trkpt>
      <trkpt lat="47.01088" lon="7.0583">
        <ele>433.19999694824</ele>
        <time>2022-02-05T13:27:03.775Z</time>
      </trkpt>
      <trkpt lat="47.01079" lon="7.05834">
        <ele>433.39999389648</ele>
        <time>2022-02-05T13:27:15.622Z</time>
      </trkpt>
      <trkpt lat="47.01057" lon="7.05841">
        <ele>433.69999694824</ele>
        <time>2022-02-05T13:27:41.680Z</time>
      </trkpt>
      <trkpt lat="47.01047" lon="7.05845">
        <ele>434</ele>
        <time>2022-02-05T13:27:55.983Z</time>
      </trkpt>
      <trkpt lat="47.01045" lon="7.05836">
        <ele>433.89999389648</ele>
        <time>2022-02-05T13:27:58.154Z</time>
      </trkpt>
      <trkpt lat="47.01039" lon="7.05817">
        <ele>433.5</ele>
        <time>2022-02-05T13:28:02.287Z</time>
      </trkpt>
      <trkpt lat="47.01036" lon="7.05808">
        <ele>433.19999694824</ele>
        <time>2022-02-05T13:28:03.956Z</time>
      </trkpt>
      <trkpt lat="47.0103" lon="7.05798">
        <ele>433.09999084473</ele>
        <time>2022-02-05T13:28:07.176Z</time>
      </trkpt>
      <trkpt lat="47.01023" lon="7.05789">
        <ele>433.09999084473</ele>
        <time>2022-02-05T13:28:16.677Z</time>
      </trkpt>
      <trkpt lat="47.01016" lon="7.05783">
        <ele>432.89999389648</ele>
        <time>2022-02-05T13:28:19.090Z</time>
      </trkpt>
      <trkpt lat="47.01009" lon="7.05778">
        <ele>432.89999389648</ele>
        <time>2022-02-05T13:28:27.012Z</time>
      </trkpt>
      <trkpt lat="47.01002" lon="7.05775">
        <ele>432.79998779297</ele>
        <time>2022-02-05T13:28:29.510Z</time>
      </trkpt>
      <trkpt lat="47.00993" lon="7.05772">
        <ele>432.69999694824</ele>
        <time>2022-02-05T13:28:32.787Z</time>
      </trkpt>
      <trkpt lat="47.00988" lon="7.05771">
        <ele>432.69999694824</ele>
        <time>2022-02-05T13:28:37.852Z</time>
      </trkpt>
      <trkpt lat="47.00985" lon="7.05771">
        <ele>432.69999694824</ele>
        <time>2022-02-05T13:28:40.869Z</time>
      </trkpt>
      <trkpt lat="47.00969" lon="7.05771">
        <ele>432.69999694824</ele>
        <time>2022-02-05T13:28:57.131Z</time>
      </trkpt>
      <trkpt lat="47.00965" lon="7.0577">
        <ele>432.69999694824</ele>
        <time>2022-02-05T13:29:01.306Z</time>
      </trkpt>
      <trkpt lat="47.00962" lon="7.05768">
        <ele>432.69999694824</ele>
        <time>2022-02-05T13:29:04.655Z</time>
      </trkpt>
      <trkpt lat="47.00962" lon="7.05766">
        <ele>432.59999084473</ele>
        <time>2022-02-05T13:29:04.955Z</time>
      </trkpt>
      <trkpt lat="47.00961" lon="7.05764">
        <ele>432.59999084473</ele>
        <time>2022-02-05T13:29:06.651Z</time>
      </trkpt>
      <trkpt lat="47.0096" lon="7.0576">
        <ele>432.69999694824</ele>
        <time>2022-02-05T13:29:10.997Z</time>
      </trkpt>
      <trkpt lat="47.00959" lon="7.05757">
        <ele>432.79998779297</ele>
        <time>2022-02-05T13:29:14.799Z</time>
      </trkpt>
      <trkpt lat="47.00958" lon="7.0575">
        <ele>432.59999084473</ele>
        <time>2022-02-05T13:29:16.060Z</time>
      </trkpt>
      <trkpt lat="47.00957" lon="7.0574">
        <ele>432.5</ele>
        <time>2022-02-05T13:29:18.386Z</time>
      </trkpt>
      <trkpt lat="47.00957" lon="7.05729">
        <ele>432.5</ele>
        <time>2022-02-05T13:29:25.946Z</time>
      </trkpt>
      <trkpt lat="47.00957" lon="7.05727">
        <ele>432.5</ele>
        <time>2022-02-05T13:29:27.403Z</time>
      </trkpt>
      <trkpt lat="47.00957" lon="7.05713">
        <ele>432.29998779297</ele>
        <time>2022-02-05T13:29:30.372Z</time>
      </trkpt>
      <trkpt lat="47.00957" lon="7.05705">
        <ele>432.19999694824</ele>
        <time>2022-02-05T13:29:32.138Z</time>
      </trkpt>
      <trkpt lat="47.00955" lon="7.05682">
        <ele>432</ele>
        <time>2022-02-05T13:29:37.610Z</time>
      </trkpt>
      <trkpt lat="47.00955" lon="7.05675">
        <ele>432</ele>
        <time>2022-02-05T13:29:42.438Z</time>
      </trkpt>
      <trkpt lat="47.00955" lon="7.05671">
        <ele>432</ele>
        <time>2022-02-05T13:29:45.262Z</time>
      </trkpt>
      <trkpt lat="47.00955" lon="7.05662">
        <ele>432.09999084473</ele>
        <time>2022-02-05T13:29:52.549Z</time>
      </trkpt>
      <trkpt lat="47.00956" lon="7.05644">
        <ele>431.89999389648</ele>
        <time>2022-02-05T13:29:56.629Z</time>
      </trkpt>
      <trkpt lat="47.00957" lon="7.05621">
        <ele>431.69999694824</ele>
        <time>2022-02-05T13:30:02.067Z</time>
      </trkpt>
      <trkpt lat="47.00958" lon="7.05622">
        <ele>431.79998779297</ele>
        <time>2022-02-05T13:30:04.929Z</time>
      </trkpt>
      <trkpt lat="47.00957" lon="7.05621">
        <ele>431.79998779297</ele>
        <time>2022-02-05T13:30:05.713Z</time>
      </trkpt>
      <trkpt lat="47.0096" lon="7.05553">
        <ele>431.39999389648</ele>
        <time>2022-02-05T13:30:22.673Z</time>
      </trkpt>
      <trkpt lat="47.00962" lon="7.05514">
        <ele>431.19999694824</ele>
        <time>2022-02-05T13:30:32.534Z</time>
      </trkpt>
      <trkpt lat="47.00965" lon="7.05448">
        <ele>431</ele>
        <time>2022-02-05T13:31:15.458Z</time>
      </trkpt>
      <trkpt lat="47.00966" lon="7.0542">
        <ele>431</ele>
        <time>2022-02-05T13:31:34.888Z</time>
      </trkpt>
      <trkpt lat="47.0097" lon="7.05353">
        <ele>430.89999389648</ele>
        <time>2022-02-05T13:32:19.937Z</time>
      </trkpt>
      <trkpt lat="47.00971" lon="7.05325">
        <ele>430.89999389648</ele>
        <time>2022-02-05T13:32:39.367Z</time>
      </trkpt>
      <trkpt lat="47.00972" lon="7.05318">
        <ele>430.89999389648</ele>
        <time>2022-02-05T13:32:44.317Z</time>
      </trkpt>
      <trkpt lat="47.00971" lon="7.05312">
        <ele>430.89999389648</ele>
        <time>2022-02-05T13:32:48.625Z</time>
      </trkpt>
      <trkpt lat="47.00971" lon="7.05307">
        <ele>430.79998779297</ele>
        <time>2022-02-05T13:32:49.596Z</time>
      </trkpt>
      <trkpt lat="47.0097" lon="7.05305">
        <ele>430.79998779297</ele>
        <time>2022-02-05T13:32:51.292Z</time>
      </trkpt>
      <trkpt lat="47.00969" lon="7.05301">
        <ele>430.79998779297</ele>
        <time>2022-02-05T13:32:54.203Z</time>
      </trkpt>
      <trkpt lat="47.00968" lon="7.05297">
        <ele>430.89999389648</ele>
        <time>2022-02-05T13:32:58.550Z</time>
      </trkpt>
      <trkpt lat="47.00965" lon="7.05292">
        <ele>430.89999389648</ele>
        <time>2022-02-05T13:33:03.140Z</time>
      </trkpt>
      <trkpt lat="47.00964" lon="7.05291">
        <ele>430.89999389648</ele>
        <time>2022-02-05T13:33:04.381Z</time>
      </trkpt>
      <trkpt lat="47.0096" lon="7.05285">
        <ele>430.79998779297</ele>
        <time>2022-02-05T13:33:06.243Z</time>
      </trkpt>
      <trkpt lat="47.00953" lon="7.05278">
        <ele>430.89999389648</ele>
        <time>2022-02-05T13:33:15.893Z</time>
      </trkpt>
      <trkpt lat="47.00948" lon="7.05271">
        <ele>431</ele>
        <time>2022-02-05T13:33:23.997Z</time>
      </trkpt>
      <trkpt lat="47.00944" lon="7.05266">
        <ele>431</ele>
        <time>2022-02-05T13:33:29.301Z</time>
      </trkpt>
      <trkpt lat="47.00942" lon="7.05261">
        <ele>431.09999084473</ele>
        <time>2022-02-05T13:33:34.558Z</time>
      </trkpt>
      <trkpt lat="47.00941" lon="7.05254">
        <ele>431.39999389648</ele>
        <time>2022-02-05T13:33:43.883Z</time>
      </trkpt>
      <trkpt lat="47.0094" lon="7.05241">
        <ele>431.89999389648</ele>
        <time>2022-02-05T13:34:00.393Z</time>
      </trkpt>
      <trkpt lat="47.00939" lon="7.05223">
        <ele>432.19999694824</ele>
        <time>2022-02-05T13:34:16.496Z</time>
      </trkpt>
      <trkpt lat="47.00939" lon="7.05204">
        <ele>431.79998779297</ele>
        <time>2022-02-05T13:34:20.146Z</time>
      </trkpt>
      <trkpt lat="47.00938" lon="7.05182">
        <ele>431.09999084473</ele>
        <time>2022-02-05T13:34:23.759Z</time>
      </trkpt>
      <trkpt lat="47.00937" lon="7.05098">
        <ele>431.09999084473</ele>
        <time>2022-02-05T13:35:21.961Z</time>
      </trkpt>
      <trkpt lat="47.00937" lon="7.05046">
        <ele>431.19999694824</ele>
        <time>2022-02-05T13:35:58.891Z</time>
      </trkpt>
      <trkpt lat="47.00937" lon="7.04994">
        <ele>431.09999084473</ele>
        <time>2022-02-05T13:36:33.466Z</time>
      </trkpt>
      <trkpt lat="47.00937" lon="7.04995">
        <ele>431.09999084473</ele>
        <time>2022-02-05T13:36:33.841Z</time>
      </trkpt>
      <trkpt lat="47.00937" lon="7.04994">
        <ele>431.09999084473</ele>
        <time>2022-02-05T13:36:34.217Z</time>
      </trkpt>
      <trkpt lat="47.00937" lon="7.05046">
        <ele>431.19999694824</ele>
        <time>2022-02-05T13:37:11.238Z</time>
      </trkpt>
      <trkpt lat="47.00936" lon="7.04925">
        <ele>431.09999084473</ele>
        <time>2022-02-05T13:38:33.502Z</time>
      </trkpt>
      <trkpt lat="47.00936" lon="7.04856">
        <ele>431.09999084473</ele>
        <time>2022-02-05T13:39:21.317Z</time>
      </trkpt>
      <trkpt lat="47.00936" lon="7.04806">
        <ele>431.19999694824</ele>
        <time>2022-02-05T13:39:56.882Z</time>
      </trkpt>
      <trkpt lat="47.00936" lon="7.04794">
        <ele>431.19999694824</ele>
        <time>2022-02-05T13:40:05.261Z</time>
      </trkpt>
      <trkpt lat="47.00936" lon="7.0479">
        <ele>431.09999084473</ele>
        <time>2022-02-05T13:40:05.970Z</time>
      </trkpt>
      <trkpt lat="47.00936" lon="7.0477">
        <ele>430.89999389648</ele>
        <time>2022-02-05T13:40:10.566Z</time>
      </trkpt>
      <trkpt lat="47.00936" lon="7.04749">
        <ele>431</ele>
        <time>2022-02-05T13:40:26.132Z</time>
      </trkpt>
      <trkpt lat="47.00961" lon="7.04724">
        <ele>430.79998779297</ele>
        <time>2022-02-05T13:40:54.012Z</time>
      </trkpt>
      <trkpt lat="47.00985" lon="7.047">
        <ele>430.59999084473</ele>
        <time>2022-02-05T13:41:20.764Z</time>
      </trkpt>
      <trkpt lat="47.00996" lon="7.04688">
        <ele>430.69999694824</ele>
        <time>2022-02-05T13:41:35.596Z</time>
      </trkpt>
      <trkpt lat="47.00996" lon="7.04689">
        <ele>430.69999694824</ele>
        <time>2022-02-05T13:41:36.381Z</time>
      </trkpt>
      <trkpt lat="47.00996" lon="7.04688">
        <ele>430.69999694824</ele>
        <time>2022-02-05T13:41:37.165Z</time>
      </trkpt>
      <trkpt lat="47.01026" lon="7.04657">
        <ele>430.69999694824</ele>
        <time>2022-02-05T13:42:14.459Z</time>
      </trkpt>
      <trkpt lat="47.01046" lon="7.04636">
        <ele>430.59999084473</ele>
        <time>2022-02-05T13:42:37.989Z</time>
      </trkpt>
      <trkpt lat="47.01071" lon="7.04611">
        <ele>430.39999389648</ele>
        <time>2022-02-05T13:43:05.920Z</time>
      </trkpt>
      <trkpt lat="47.01151" lon="7.04527">
        <ele>430.79998779297</ele>
        <time>2022-02-05T13:44:49.735Z</time>
      </trkpt>
      <trkpt lat="47.01218" lon="7.04459">
        <ele>430.69999694824</ele>
        <time>2022-02-05T13:46:10.913Z</time>
      </trkpt>
      <trkpt lat="47.01236" lon="7.04441">
        <ele>430.39999389648</ele>
        <time>2022-02-05T13:46:18.353Z</time>
      </trkpt>
      <trkpt lat="47.01258" lon="7.04417">
        <ele>430.5</ele>
        <time>2022-02-05T13:46:47.187Z</time>
      </trkpt>
      <trkpt lat="47.01301" lon="7.04373">
        <ele>431.19999694824</ele>
        <time>2022-02-05T13:47:47.799Z</time>
      </trkpt>
      <trkpt lat="47.01266" lon="7.04332">
        <ele>431.19999694824</ele>
        <time>2022-02-05T13:48:33.274Z</time>
      </trkpt>
      <trkpt lat="47.01255" lon="7.0432">
        <ele>431.29998779297</ele>
        <time>2022-02-05T13:48:48.215Z</time>
      </trkpt>
      <trkpt lat="47.01256" lon="7.0432">
        <ele>431.29998779297</ele>
        <time>2022-02-05T13:48:49.147Z</time>
      </trkpt>
      <trkpt lat="47.01255" lon="7.0432">
        <ele>431.29998779297</ele>
        <time>2022-02-05T13:48:50.078Z</time>
      </trkpt>
      <trkpt lat="47.01243" lon="7.04306">
        <ele>431.39999389648</ele>
        <time>2022-02-05T13:49:06.644Z</time>
      </trkpt>
      <trkpt lat="47.01226" lon="7.04287">
        <ele>431.39999389648</ele>
        <time>2022-02-05T13:49:28.366Z</time>
      </trkpt>
      <trkpt lat="47.0116" lon="7.04216">
        <ele>431.89999389648</ele>
        <time>2022-02-05T13:50:56.396Z</time>
      </trkpt>
      <trkpt lat="47.01146" lon="7.04202">
        <ele>431.89999389648</ele>
        <time>2022-02-05T13:51:13.586Z</time>
      </trkpt>
      <trkpt lat="47.0114" lon="7.04194">
        <ele>431.69999694824</ele>
        <time>2022-02-05T13:51:16.052Z</time>
      </trkpt>
      <trkpt lat="47.01147" lon="7.04183">
        <ele>431.59999084473</ele>
        <time>2022-02-05T13:51:19.751Z</time>
      </trkpt>
      <trkpt lat="47.01176" lon="7.04142">
        <ele>431.39999389648</ele>
        <time>2022-02-05T13:51:57.699Z</time>
      </trkpt>
      <trkpt lat="47.01197" lon="7.04112">
        <ele>431.39999389648</ele>
        <time>2022-02-05T13:52:27.504Z</time>
      </trkpt>
      <trkpt lat="47.0119" lon="7.04122">
        <ele>431.39999389648</ele>
        <time>2022-02-05T13:52:37.438Z</time>
      </trkpt>
      <trkpt lat="47.01191" lon="7.04122">
        <ele>431.39999389648</ele>
        <time>2022-02-05T13:52:37.904Z</time>
      </trkpt>
      <trkpt lat="47.0119" lon="7.04122">
        <ele>431.39999389648</ele>
        <time>2022-02-05T13:52:38.370Z</time>
      </trkpt>
      <trkpt lat="47.01197" lon="7.04112">
        <ele>431.39999389648</ele>
        <time>2022-02-05T13:52:48.304Z</time>
      </trkpt>
      <trkpt lat="47.012" lon="7.04108">
        <ele>431.39999389648</ele>
        <time>2022-02-05T13:52:52.441Z</time>
      </trkpt>
      <trkpt lat="47.01216" lon="7.04085">
        <ele>431.29998779297</ele>
        <time>2022-02-05T13:53:13.690Z</time>
      </trkpt>
      <trkpt lat="47.0123" lon="7.04065">
        <ele>431.29998779297</ele>
        <time>2022-02-05T13:53:33.561Z</time>
      </trkpt>
      <trkpt lat="47.01248" lon="7.04039">
        <ele>431.39999389648</ele>
        <time>2022-02-05T13:54:00.200Z</time>
      </trkpt>
      <trkpt lat="47.01266" lon="7.04013">
        <ele>431.5</ele>
        <time>2022-02-05T13:54:26.838Z</time>
      </trkpt>
      <trkpt lat="47.01287" lon="7.03984">
        <ele>431.59999084473</ele>
        <time>2022-02-05T13:54:57.103Z</time>
      </trkpt>
      <trkpt lat="47.01289" lon="7.0398">
        <ele>431.39999389648</ele>
        <time>2022-02-05T13:54:57.823Z</time>
      </trkpt>
      <trkpt lat="47.01289" lon="7.03975">
        <ele>431.5</ele>
        <time>2022-02-05T13:55:02.556Z</time>
      </trkpt>
      <trkpt lat="47.01288" lon="7.0397">
        <ele>431.29998779297</ele>
        <time>2022-02-05T13:55:03.342Z</time>
      </trkpt>
      <trkpt lat="47.01287" lon="7.03967">
        <ele>431.29998779297</ele>
        <time>2022-02-05T13:55:05.666Z</time>
      </trkpt>
      <trkpt lat="47.01286" lon="7.03965">
        <ele>431.29998779297</ele>
        <time>2022-02-05T13:55:07.436Z</time>
      </trkpt>
      <trkpt lat="47.01285" lon="7.03962">
        <ele>431.19999694824</ele>
        <time>2022-02-05T13:55:07.974Z</time>
      </trkpt>
      <trkpt lat="47.01279" lon="7.0395">
        <ele>431.09999084473</ele>
        <time>2022-02-05T13:55:11.622Z</time>
      </trkpt>
      <trkpt lat="47.0127" lon="7.03933">
        <ele>431</ele>
        <time>2022-02-05T13:55:25.113Z</time>
      </trkpt>
      <trkpt lat="47.01246" lon="7.03884">
        <ele>430.89999389648</ele>
        <time>2022-02-05T13:56:05.403Z</time>
      </trkpt>
      <trkpt lat="47.0125" lon="7.03893">
        <ele>431</ele>
        <time>2022-02-05T13:56:13.926Z</time>
      </trkpt>
      <trkpt lat="47.01251" lon="7.03893">
        <ele>431</ele>
        <time>2022-02-05T13:56:14.572Z</time>
      </trkpt>
      <trkpt lat="47.0125" lon="7.03893">
        <ele>431</ele>
        <time>2022-02-05T13:56:15.218Z</time>
      </trkpt>
      <trkpt lat="47.01246" lon="7.03884">
        <ele>430.89999389648</ele>
        <time>2022-02-05T13:56:17.728Z</time>
      </trkpt>
      <trkpt lat="47.01238" lon="7.03869">
        <ele>430.89999389648</ele>
        <time>2022-02-05T13:56:30.916Z</time>
      </trkpt>
      <trkpt lat="47.01233" lon="7.03858">
        <ele>431</ele>
        <time>2022-02-05T13:56:41.104Z</time>
      </trkpt>
      <trkpt lat="47.01232" lon="7.03854">
        <ele>431</ele>
        <time>2022-02-05T13:56:44.101Z</time>
      </trkpt>
      <trkpt lat="47.01232" lon="7.03849">
        <ele>431</ele>
        <time>2022-02-05T13:56:47.562Z</time>
      </trkpt>
      <trkpt lat="47.01231" lon="7.03848">
        <ele>431</ele>
        <time>2022-02-05T13:56:48.752Z</time>
      </trkpt>
      <trkpt lat="47.01227" lon="7.03845">
        <ele>430.89999389648</ele>
        <time>2022-02-05T13:56:50.125Z</time>
      </trkpt>
      <trkpt lat="47.01223" lon="7.03838">
        <ele>431</ele>
        <time>2022-02-05T13:56:57.567Z</time>
      </trkpt>
      <trkpt lat="47.01188" lon="7.03768">
        <ele>430.89999389648</ele>
        <time>2022-02-05T13:57:56.178Z</time>
      </trkpt>
      <trkpt lat="47.01173" lon="7.03739">
        <ele>431.39999389648</ele>
        <time>2022-02-05T13:58:27.102Z</time>
      </trkpt>
      <trkpt lat="47.01162" lon="7.03715">
        <ele>431.19999694824</ele>
        <time>2022-02-05T13:58:34.161Z</time>
      </trkpt>
      <trkpt lat="47.0114" lon="7.03671">
        <ele>431</ele>
        <time>2022-02-05T13:59:08.965Z</time>
      </trkpt>
      <trkpt lat="47.0114" lon="7.03672">
        <ele>431</ele>
        <time>2022-02-05T13:59:09.330Z</time>
      </trkpt>
      <trkpt lat="47.0114" lon="7.03671">
        <ele>431</ele>
        <time>2022-02-05T13:59:09.694Z</time>
      </trkpt>
      <trkpt lat="47.01133" lon="7.03658">
        <ele>430.89999389648</ele>
        <time>2022-02-05T13:59:13.839Z</time>
      </trkpt>
      <trkpt lat="47.01102" lon="7.03597">
        <ele>431</ele>
        <time>2022-02-05T14:00:07.416Z</time>
      </trkpt>
      <trkpt lat="47.01088" lon="7.03568">
        <ele>430.69999694824</ele>
        <time>2022-02-05T14:00:15.837Z</time>
      </trkpt>
      <trkpt lat="47.01039" lon="7.03472">
        <ele>430.69999694824</ele>
        <time>2022-02-05T14:01:38.829Z</time>
      </trkpt>
      <trkpt lat="47.01044" lon="7.03464">
        <ele>430.69999694824</ele>
        <time>2022-02-05T14:01:46.320Z</time>
      </trkpt>
      <trkpt lat="47.01049" lon="7.03456">
        <ele>430.79998779297</ele>
        <time>2022-02-05T14:01:54.933Z</time>
      </trkpt>
      <trkpt lat="47.01043" lon="7.03414">
        <ele>430.79998779297</ele>
        <time>2022-02-05T14:02:24.587Z</time>
      </trkpt>
      <trkpt lat="47.01041" lon="7.03404">
        <ele>430.69999694824</ele>
        <time>2022-02-05T14:02:26.998Z</time>
      </trkpt>
      <trkpt lat="47.01042" lon="7.03404">
        <ele>430.69999694824</ele>
        <time>2022-02-05T14:02:27.864Z</time>
      </trkpt>
      <trkpt lat="47.01041" lon="7.03404">
        <ele>430.69999694824</ele>
        <time>2022-02-05T14:02:28.731Z</time>
      </trkpt>
      <trkpt lat="47.0104" lon="7.034">
        <ele>430.59999084473</ele>
        <time>2022-02-05T14:02:29.533Z</time>
      </trkpt>
      <trkpt lat="47.01038" lon="7.03393">
        <ele>430.59999084473</ele>
        <time>2022-02-05T14:02:34.727Z</time>
      </trkpt>
      <trkpt lat="47.01035" lon="7.03385">
        <ele>430.39999389648</ele>
        <time>2022-02-05T14:02:36.466Z</time>
      </trkpt>
      <trkpt lat="47.01029" lon="7.03376">
        <ele>430.39999389648</ele>
        <time>2022-02-05T14:02:45.175Z</time>
      </trkpt>
      <trkpt lat="47.01022" lon="7.03367">
        <ele>430.39999389648</ele>
        <time>2022-02-05T14:02:54.608Z</time>
      </trkpt>
      <trkpt lat="47.01016" lon="7.03358">
        <ele>430.39999389648</ele>
        <time>2022-02-05T14:03:03.381Z</time>
      </trkpt>
      <trkpt lat="47.01009" lon="7.03347">
        <ele>430.59999084473</ele>
        <time>2022-02-05T14:03:16.041Z</time>
      </trkpt>
      <trkpt lat="47.01002" lon="7.03331">
        <ele>430.39999389648</ele>
        <time>2022-02-05T14:03:20.365Z</time>
      </trkpt>
      <trkpt lat="47.00996" lon="7.03317">
        <ele>430.5</ele>
        <time>2022-02-05T14:03:32.838Z</time>
      </trkpt>
      <trkpt lat="47.00992" lon="7.03306">
        <ele>430.19999694824</ele>
        <time>2022-02-05T14:03:35.091Z</time>
      </trkpt>
      <trkpt lat="47.0099" lon="7.03297">
        <ele>430.59999084473</ele>
        <time>2022-02-05T14:03:47.575Z</time>
      </trkpt>
      <trkpt lat="47.00989" lon="7.03289">
        <ele>430.59999084473</ele>
        <time>2022-02-05T14:03:53.220Z</time>
      </trkpt>
      <trkpt lat="47.00989" lon="7.03283">
        <ele>430.39999389648</ele>
        <time>2022-02-05T14:03:54.198Z</time>
      </trkpt>
      <trkpt lat="47.00992" lon="7.03274">
        <ele>430.39999389648</ele>
        <time>2022-02-05T14:04:01.126Z</time>
      </trkpt>
      <trkpt lat="47.00996" lon="7.03265">
        <ele>430.09999084473</ele>
        <time>2022-02-05T14:04:02.983Z</time>
      </trkpt>
      <trkpt lat="47.01003" lon="7.03254">
        <ele>431</ele>
        <time>2022-02-05T14:04:27.169Z</time>
      </trkpt>
      <trkpt lat="47.01009" lon="7.03245">
        <ele>431.29998779297</ele>
        <time>2022-02-05T14:04:39.983Z</time>
      </trkpt>
      <trkpt lat="47.01013" lon="7.03238">
        <ele>431.79998779297</ele>
        <time>2022-02-05T14:04:53.793Z</time>
      </trkpt>
      <trkpt lat="47.01015" lon="7.03231">
        <ele>432.29998779297</ele>
        <time>2022-02-05T14:05:07.020Z</time>
      </trkpt>
      <trkpt lat="47.01017" lon="7.03224">
        <ele>432.69999694824</ele>
        <time>2022-02-05T14:05:18.288Z</time>
      </trkpt>
      <trkpt lat="47.01017" lon="7.03222">
        <ele>432.89999389648</ele>
        <time>2022-02-05T14:05:23.558Z</time>
      </trkpt>
      <trkpt lat="47.01018" lon="7.03223">
        <ele>432.89999389648</ele>
        <time>2022-02-05T14:05:24.579Z</time>
      </trkpt>
      <trkpt lat="47.01017" lon="7.03222">
        <ele>432.89999389648</ele>
        <time>2022-02-05T14:05:25.599Z</time>
      </trkpt>
      <trkpt lat="47.01019" lon="7.03212">
        <ele>433.09999084473</ele>
        <time>2022-02-05T14:05:35.315Z</time>
      </trkpt>
      <trkpt lat="47.01021" lon="7.03196">
        <ele>433</ele>
        <time>2022-02-05T14:05:39.322Z</time>
      </trkpt>
      <trkpt lat="47.01023" lon="7.03189">
        <ele>433.09999084473</ele>
        <time>2022-02-05T14:05:45.716Z</time>
      </trkpt>
      <trkpt lat="47.01025" lon="7.03183">
        <ele>433.09999084473</ele>
        <time>2022-02-05T14:05:50.363Z</time>
      </trkpt>
      <trkpt lat="47.01028" lon="7.03179">
        <ele>433.09999084473</ele>
        <time>2022-02-05T14:05:54.500Z</time>
      </trkpt>
      <trkpt lat="47.01036" lon="7.03171">
        <ele>433</ele>
        <time>2022-02-05T14:05:57.938Z</time>
      </trkpt>
      <trkpt lat="47.0104" lon="7.03165">
        <ele>433.09999084473</ele>
        <time>2022-02-05T14:06:04.913Z</time>
      </trkpt>
      <trkpt lat="47.01043" lon="7.0316">
        <ele>432.89999389648</ele>
        <time>2022-02-05T14:06:06.025Z</time>
      </trkpt>
      <trkpt lat="47.01045" lon="7.03152">
        <ele>432.79998779297</ele>
        <time>2022-02-05T14:06:07.906Z</time>
      </trkpt>
      <trkpt lat="47.01049" lon="7.0314">
        <ele>432.29998779297</ele>
        <time>2022-02-05T14:06:09.950Z</time>
      </trkpt>
      <trkpt lat="47.01057" lon="7.03118">
        <ele>431.89999389648</ele>
        <time>2022-02-05T14:06:15.120Z</time>
      </trkpt>
      <trkpt lat="47.01049" lon="7.0311">
        <ele>431.79998779297</ele>
        <time>2022-02-05T14:06:18.599Z</time>
      </trkpt>
      <trkpt lat="47.01041" lon="7.03101">
        <ele>431.69999694824</ele>
        <time>2022-02-05T14:06:22.206Z</time>
      </trkpt>
      <trkpt lat="47.01027" lon="7.03087">
        <ele>431.59999084473</ele>
        <time>2022-02-05T14:06:38.021Z</time>
      </trkpt>
      <trkpt lat="47.01033" lon="7.03093">
        <ele>431.59999084473</ele>
        <time>2022-02-05T14:06:45.439Z</time>
      </trkpt>
      <trkpt lat="47.01033" lon="7.03093">
        <ele>431.59999084473</ele>
        <time>2022-02-05T14:06:45.568Z</time>
      </trkpt>
      <trkpt lat="47.01033" lon="7.03093">
        <ele>431.69999694824</ele>
        <time>2022-02-05T14:06:46.065Z</time>
      </trkpt>
      <trkpt lat="47.01027" lon="7.03087">
        <ele>431.59999084473</ele>
        <time>2022-02-05T14:06:48.559Z</time>
      </trkpt>
      <trkpt lat="47.01019" lon="7.03079">
        <ele>431.59999084473</ele>
        <time>2022-02-05T14:06:58.331Z</time>
      </trkpt>
      <trkpt lat="47.01003" lon="7.0306">
        <ele>431.19999694824</ele>
        <time>2022-02-05T14:07:04.872Z</time>
      </trkpt>
      <trkpt lat="47.0097" lon="7.03022">
        <ele>431</ele>
        <time>2022-02-05T14:07:44.640Z</time>
      </trkpt>
      <trkpt lat="47.00964" lon="7.03015">
        <ele>431.09999084473</ele>
        <time>2022-02-05T14:07:53.477Z</time>
      </trkpt>
      <trkpt lat="47.00959" lon="7.03009">
        <ele>431.19999694824</ele>
        <time>2022-02-05T14:08:01.173Z</time>
      </trkpt>
      <trkpt lat="47.00952" lon="7.03">
        <ele>431.09999084473</ele>
        <time>2022-02-05T14:08:04.466Z</time>
      </trkpt>
      <trkpt lat="47.00951" lon="7.02999">
        <ele>431.09999084473</ele>
        <time>2022-02-05T14:08:05.656Z</time>
      </trkpt>
      <trkpt lat="47.00949" lon="7.02996">
        <ele>431</ele>
        <time>2022-02-05T14:08:06.425Z</time>
      </trkpt>
      <trkpt lat="47.0095" lon="7.02997">
        <ele>431</ele>
        <time>2022-02-05T14:08:07.394Z</time>
      </trkpt>
      <trkpt lat="47.00941" lon="7.02996">
        <ele>432</ele>
        <time>2022-02-05T14:08:34.041Z</time>
      </trkpt>
      <trkpt lat="47.00929" lon="7.02995">
        <ele>433.39999389648</ele>
        <time>2022-02-05T14:09:11.892Z</time>
      </trkpt>
      <trkpt lat="47.00929" lon="7.02995">
        <ele>434.79998779297</ele>
        <time>2022-02-05T14:09:11.893Z</time>
      </trkpt>
      <trkpt lat="47.00928" lon="7.02982">
        <ele>434.59999084473</ele>
        <time>2022-02-05T14:09:14.662Z</time>
      </trkpt>
      <trkpt lat="47.00927" lon="7.02969">
        <ele>433.09999084473</ele>
        <time>2022-02-05T14:09:16.667Z</time>
      </trkpt>
      <trkpt lat="47.00927" lon="7.02956">
        <ele>430.79998779297</ele>
        <time>2022-02-05T14:09:18.651Z</time>
      </trkpt>
      <trkpt lat="47.00926" lon="7.02943">
        <ele>429.59999084473</ele>
        <time>2022-02-05T14:09:20.656Z</time>
      </trkpt>
      <trkpt lat="47.00926" lon="7.02933">
        <ele>429.5</ele>
        <time>2022-02-05T14:09:22.782Z</time>
      </trkpt>
      <trkpt lat="47.00926" lon="7.02933">
        <ele>436</ele>
        <time>2022-02-05T14:09:22.782Z</time>
      </trkpt>
      <trkpt lat="47.00925" lon="7.02933">
        <ele>436</ele>
        <time>2022-02-05T14:09:23.447Z</time>
      </trkpt>
      <trkpt lat="47.00925" lon="7.02922">
        <ele>435.89999389648</ele>
        <time>2022-02-05T14:09:25.996Z</time>
      </trkpt>
      <trkpt lat="47.00925" lon="7.02909">
        <ele>436</ele>
        <time>2022-02-05T14:09:36.050Z</time>
      </trkpt>
      <trkpt lat="47.00925" lon="7.02902">
        <ele>436</ele>
        <time>2022-02-05T14:09:40.878Z</time>
      </trkpt>
      <trkpt lat="47.00925" lon="7.0286">
        <ele>436</ele>
        <time>2022-02-05T14:10:10.022Z</time>
      </trkpt>
      <trkpt lat="47.00925" lon="7.02847">
        <ele>435.79998779297</ele>
        <time>2022-02-05T14:10:12.748Z</time>
      </trkpt>
      <trkpt lat="47.00926" lon="7.02838">
        <ele>435.59999084473</ele>
        <time>2022-02-05T14:10:14.454Z</time>
      </trkpt>
      <trkpt lat="47.00927" lon="7.02813">
        <ele>433.89999389648</ele>
        <time>2022-02-05T14:10:18.263Z</time>
      </trkpt>
      <trkpt lat="47.00928" lon="7.02814">
        <ele>433.89999389648</ele>
        <time>2022-02-05T14:10:18.847Z</time>
      </trkpt>
      <trkpt lat="47.00927" lon="7.02813">
        <ele>433.89999389648</ele>
        <time>2022-02-05T14:10:19.432Z</time>
      </trkpt>
      <trkpt lat="47.00929" lon="7.02775">
        <ele>433.89999389648</ele>
        <time>2022-02-05T14:10:45.836Z</time>
      </trkpt>
      <trkpt lat="47.0093" lon="7.02775">
        <ele>433.89999389648</ele>
        <time>2022-02-05T14:10:46.532Z</time>
      </trkpt>
      <trkpt lat="47.00929" lon="7.02775">
        <ele>433.89999389648</ele>
        <time>2022-02-05T14:10:47.227Z</time>
      </trkpt>
      <trkpt lat="47.0093" lon="7.02756">
        <ele>432.19999694824</ele>
        <time>2022-02-05T14:10:50.117Z</time>
      </trkpt>
      <trkpt lat="47.0093" lon="7.02738">
        <ele>432.5</ele>
        <time>2022-02-05T14:11:06.190Z</time>
      </trkpt>
      <trkpt lat="47.0093" lon="7.02723">
        <ele>432.5</ele>
        <time>2022-02-05T14:11:16.573Z</time>
      </trkpt>
      <trkpt lat="47.0093" lon="7.02715">
        <ele>432.79998779297</ele>
        <time>2022-02-05T14:11:26.606Z</time>
      </trkpt>
      <trkpt lat="47.0093" lon="7.02718">
        <ele>432.59999084473</ele>
        <time>2022-02-05T14:11:27.066Z</time>
      </trkpt>
      <trkpt lat="47.00931" lon="7.02718">
        <ele>432.59999084473</ele>
        <time>2022-02-05T14:11:27.731Z</time>
      </trkpt>
      <trkpt lat="47.0093" lon="7.02718">
        <ele>432.59999084473</ele>
        <time>2022-02-05T14:11:28.396Z</time>
      </trkpt>
      <trkpt lat="47.0093" lon="7.02715">
        <ele>432.79998779297</ele>
        <time>2022-02-05T14:11:33.687Z</time>
      </trkpt>
      <trkpt lat="47.00932" lon="7.02708">
        <ele>432.89999389648</ele>
        <time>2022-02-05T14:11:40.048Z</time>
      </trkpt>
      <trkpt lat="47.00933" lon="7.02704">
        <ele>433</ele>
        <time>2022-02-05T14:11:44.419Z</time>
      </trkpt>
      <trkpt lat="47.00935" lon="7.02702">
        <ele>433.09999084473</ele>
        <time>2022-02-05T14:11:48.357Z</time>
      </trkpt>
      <trkpt lat="47.00935" lon="7.02698">
        <ele>433.09999084473</ele>
        <time>2022-02-05T14:11:51.089Z</time>
      </trkpt>
      <trkpt lat="47.00934" lon="7.02668">
        <ele>433.09999084473</ele>
        <time>2022-02-05T14:12:11.874Z</time>
      </trkpt>
      <trkpt lat="47.00932" lon="7.02618">
        <ele>432.89999389648</ele>
        <time>2022-02-05T14:12:43.766Z</time>
      </trkpt>
      <trkpt lat="47.00932" lon="7.026">
        <ele>433</ele>
        <time>2022-02-05T14:12:57.158Z</time>
      </trkpt>
      <trkpt lat="47.00932" lon="7.02604">
        <ele>432.89999389648</ele>
        <time>2022-02-05T14:12:57.867Z</time>
      </trkpt>
      <trkpt lat="47.00933" lon="7.02604">
        <ele>432.89999389648</ele>
        <time>2022-02-05T14:12:58.479Z</time>
      </trkpt>
      <trkpt lat="47.00932" lon="7.02604">
        <ele>432.89999389648</ele>
        <time>2022-02-05T14:12:59.092Z</time>
      </trkpt>
      <trkpt lat="47.00932" lon="7.026">
        <ele>433</ele>
        <time>2022-02-05T14:13:03.236Z</time>
      </trkpt>
      <trkpt lat="47.00931" lon="7.02583">
        <ele>433</ele>
        <time>2022-02-05T14:13:15.118Z</time>
      </trkpt>
      <trkpt lat="47.0093" lon="7.02569">
        <ele>432.59999084473</ele>
        <time>2022-02-05T14:13:17.520Z</time>
      </trkpt>
      <trkpt lat="47.0093" lon="7.02549">
        <ele>433</ele>
        <time>2022-02-05T14:13:36.453Z</time>
      </trkpt>
      <trkpt lat="47.00931" lon="7.02444">
        <ele>432.69999694824</ele>
        <time>2022-02-05T14:14:44.850Z</time>
      </trkpt>
      <trkpt lat="47.00931" lon="7.02357">
        <ele>432.69999694824</ele>
        <time>2022-02-05T14:15:45.051Z</time>
      </trkpt>
      <trkpt lat="47.00931" lon="7.02324">
        <ele>432.59999084473</ele>
        <time>2022-02-05T14:16:06.454Z</time>
      </trkpt>
      <trkpt lat="47.00932" lon="7.02281">
        <ele>432.39999389648</ele>
        <time>2022-02-05T14:16:33.438Z</time>
      </trkpt>
      <trkpt lat="47.00925" lon="7.0228">
        <ele>432.29998779297</ele>
        <time>2022-02-05T14:16:35.796Z</time>
      </trkpt>
      <trkpt lat="47.009" lon="7.02281">
        <ele>432</ele>
        <time>2022-02-05T14:16:44.523Z</time>
      </trkpt>
      <trkpt lat="47.00895" lon="7.0228">
        <ele>432</ele>
        <time>2022-02-05T14:16:49.691Z</time>
      </trkpt>
      <trkpt lat="47.00895" lon="7.0229">
        <ele>432</ele>
        <time>2022-02-05T14:16:56.613Z</time>
      </trkpt>
      <trkpt lat="47.00894" lon="7.02303">
        <ele>432</ele>
        <time>2022-02-05T14:17:05.696Z</time>
      </trkpt>
      <trkpt lat="47.00884" lon="7.0231">
        <ele>432.09999084473</ele>
        <time>2022-02-05T14:17:17.902Z</time>
      </trkpt>
      <trkpt lat="47.00867" lon="7.0232">
        <ele>432.09999084473</ele>
        <time>2022-02-05T14:17:36.556Z</time>
      </trkpt>
      <trkpt lat="47.00862" lon="7.02324">
        <ele>432</ele>
        <time>2022-02-05T14:17:38.402Z</time>
      </trkpt>
      <trkpt lat="47.00863" lon="7.02324">
        <ele>432</ele>
        <time>2022-02-05T14:17:39.048Z</time>
      </trkpt>
      <trkpt lat="47.00862" lon="7.02324">
        <ele>432</ele>
        <time>2022-02-05T14:17:39.694Z</time>
      </trkpt>
      <trkpt lat="47.00844" lon="7.02335">
        <ele>432</ele>
        <time>2022-02-05T14:17:59.518Z</time>
      </trkpt>
      <trkpt lat="47.00792" lon="7.02368">
        <ele>432.09999084473</ele>
        <time>2022-02-05T14:18:57.981Z</time>
      </trkpt>
      <trkpt lat="47.00786" lon="7.02373">
        <ele>432</ele>
        <time>2022-02-05T14:19:00.322Z</time>
      </trkpt>
      <trkpt lat="47.00782" lon="7.02376">
        <ele>431.89999389648</ele>
        <time>2022-02-05T14:19:01.710Z</time>
      </trkpt>
      <trkpt lat="47.00776" lon="7.02381">
        <ele>432</ele>
        <time>2022-02-05T14:19:09.814Z</time>
      </trkpt>
      <trkpt lat="47.00772" lon="7.02385">
        <ele>432</ele>
        <time>2022-02-05T14:19:14.674Z</time>
      </trkpt>
      <trkpt lat="47.00773" lon="7.02386">
        <ele>432</ele>
        <time>2022-02-05T14:19:15.515Z</time>
      </trkpt>
    </trkseg>
  </trk>
</gpx>